<?xml version="1.0" encoding="UTF-8" standalone="no" ?>
<gpx xmlns="http://www.topografix.com/GPX/1/1" xmlns:xsi="http://www.w3.org/2001/XMLSchema-instance" xsi:schemaLocation="http://www.topografix.com/GPX/1/1 http://www.topografix.com/GPX/1/1/gpx.xsd" version="1.1" creator="VisuGPX - https://www.visugpx.com">
  <metadata>
    <name>Rando cyclo Ste Marie - Raconnay - Allerey</name>
    <desc><![CDATA[Rando cyclo sur la véloroute Ste Marie - Raconnay - Allerey]]></desc>
  </metadata>
  <trk>
    <name><![CDATA[2019-08-30 14:17]]></name>
    <desc><![CDATA[<p>Heure de départ: 08/30/2019 14:19<br/>Heure d'arrivée: 08/30/2019 15:50<br/>Distance: 32,4 km (01:31)<br/>Temps déplacement: 01:24<br/>Vitesse moyenne: 21,24 km/h<br/>Vitesse moyenne mouv.: 22,91 km/h<br/>Vitesse Max.: 45,77 km/h<br/>Altitude minimale: 170 m<br/>Altitude maximale: 218 m<br/>Vitesse de montée: 585,4 m/h<br/>Vitesse de descente: -661,1 m/h<br/>Gain d'altitude: 392 m<br/>Perte d'altitude: -404 m<br/>Temps de montée: 00:40<br/>Temps de descente: 00:36<br/></p><hr align="center" width="480" style="height: 2px; width: 517px"/>]]></desc>
    <trkseg>
      <trkpt lat="46.979" lon="4.88661">
        <ele>209.38</ele>
        <time>2019-08-30T12:19:17Z</time>
      </trkpt>
      <trkpt lat="46.97888" lon="4.88635">
        <ele>208.35</ele>
        <time>2019-08-30T12:19:20Z</time>
      </trkpt>
      <trkpt lat="46.97872" lon="4.88606">
        <ele>207.68</ele>
        <time>2019-08-30T12:19:23Z</time>
      </trkpt>
      <trkpt lat="46.9786" lon="4.88585">
        <ele>205.8</ele>
        <time>2019-08-30T12:19:25Z</time>
      </trkpt>
      <trkpt lat="46.97844" lon="4.88556">
        <ele>203.72</ele>
        <time>2019-08-30T12:19:28Z</time>
      </trkpt>
      <trkpt lat="46.97833" lon="4.88535">
        <ele>202.5</ele>
        <time>2019-08-30T12:19:30Z</time>
      </trkpt>
      <trkpt lat="46.97817" lon="4.8851">
        <ele>200.99</ele>
        <time>2019-08-30T12:19:32Z</time>
      </trkpt>
      <trkpt lat="46.97803" lon="4.88486">
        <ele>198.83</ele>
        <time>2019-08-30T12:19:34Z</time>
      </trkpt>
      <trkpt lat="46.97792" lon="4.88464">
        <ele>198.42</ele>
        <time>2019-08-30T12:19:36Z</time>
      </trkpt>
      <trkpt lat="46.97779" lon="4.88443">
        <ele>197.69</ele>
        <time>2019-08-30T12:19:38Z</time>
      </trkpt>
      <trkpt lat="46.9776" lon="4.88429">
        <ele>198.32</ele>
        <time>2019-08-30T12:19:40Z</time>
      </trkpt>
      <trkpt lat="46.97735" lon="4.88422">
        <ele>196.56</ele>
        <time>2019-08-30T12:19:43Z</time>
      </trkpt>
      <trkpt lat="46.97712" lon="4.88422">
        <ele>195.69</ele>
        <time>2019-08-30T12:19:46Z</time>
      </trkpt>
      <trkpt lat="46.97691" lon="4.88433">
        <ele>195.18</ele>
        <time>2019-08-30T12:19:49Z</time>
      </trkpt>
      <trkpt lat="46.97672" lon="4.88447">
        <ele>192.46</ele>
        <time>2019-08-30T12:19:52Z</time>
      </trkpt>
      <trkpt lat="46.97652" lon="4.88464">
        <ele>193.57</ele>
        <time>2019-08-30T12:19:55Z</time>
      </trkpt>
      <trkpt lat="46.97634" lon="4.88487">
        <ele>194.02</ele>
        <time>2019-08-30T12:19:58Z</time>
      </trkpt>
      <trkpt lat="46.97616" lon="4.88498">
        <ele>191.31</ele>
        <time>2019-08-30T12:20:01Z</time>
      </trkpt>
      <trkpt lat="46.97596" lon="4.88502">
        <ele>191.44</ele>
        <time>2019-08-30T12:20:04Z</time>
      </trkpt>
      <trkpt lat="46.97576" lon="4.88503">
        <ele>190.41</ele>
        <time>2019-08-30T12:20:07Z</time>
      </trkpt>
      <trkpt lat="46.97556" lon="4.88505">
        <ele>190.38</ele>
        <time>2019-08-30T12:20:10Z</time>
      </trkpt>
      <trkpt lat="46.97536" lon="4.88504">
        <ele>190.38</ele>
        <time>2019-08-30T12:20:13Z</time>
      </trkpt>
      <trkpt lat="46.97517" lon="4.88506">
        <ele>189.47</ele>
        <time>2019-08-30T12:20:16Z</time>
      </trkpt>
      <trkpt lat="46.97494" lon="4.88513">
        <ele>190.44</ele>
        <time>2019-08-30T12:20:20Z</time>
      </trkpt>
      <trkpt lat="46.97478" lon="4.885">
        <ele>190.38</ele>
        <time>2019-08-30T12:20:23Z</time>
      </trkpt>
      <trkpt lat="46.97462" lon="4.88485">
        <ele>192.06</ele>
        <time>2019-08-30T12:20:26Z</time>
      </trkpt>
      <trkpt lat="46.9744" lon="4.88477">
        <ele>188.62</ele>
        <time>2019-08-30T12:20:30Z</time>
      </trkpt>
      <trkpt lat="46.97419" lon="4.88469">
        <ele>189.57</ele>
        <time>2019-08-30T12:20:33Z</time>
      </trkpt>
      <trkpt lat="46.97401" lon="4.88463">
        <ele>190.36</ele>
        <time>2019-08-30T12:20:36Z</time>
      </trkpt>
      <trkpt lat="46.97383" lon="4.88459">
        <ele>190.11</ele>
        <time>2019-08-30T12:20:39Z</time>
      </trkpt>
      <trkpt lat="46.97363" lon="4.88453">
        <ele>192.26</ele>
        <time>2019-08-30T12:20:42Z</time>
      </trkpt>
      <trkpt lat="46.97345" lon="4.88445">
        <ele>192.38</ele>
        <time>2019-08-30T12:20:45Z</time>
      </trkpt>
      <trkpt lat="46.97326" lon="4.88435">
        <ele>191.75</ele>
        <time>2019-08-30T12:20:48Z</time>
      </trkpt>
      <trkpt lat="46.97307" lon="4.88425">
        <ele>191.67</ele>
        <time>2019-08-30T12:20:51Z</time>
      </trkpt>
      <trkpt lat="46.97287" lon="4.88413">
        <ele>192.3</ele>
        <time>2019-08-30T12:20:54Z</time>
      </trkpt>
      <trkpt lat="46.97269" lon="4.88399">
        <ele>191.41</ele>
        <time>2019-08-30T12:20:57Z</time>
      </trkpt>
      <trkpt lat="46.97251" lon="4.88387">
        <ele>191.66</ele>
        <time>2019-08-30T12:21:00Z</time>
      </trkpt>
      <trkpt lat="46.97232" lon="4.88385">
        <ele>191.39</ele>
        <time>2019-08-30T12:21:03Z</time>
      </trkpt>
      <trkpt lat="46.97212" lon="4.88391">
        <ele>192.08</ele>
        <time>2019-08-30T12:21:06Z</time>
      </trkpt>
      <trkpt lat="46.97192" lon="4.88396">
        <ele>192.37</ele>
        <time>2019-08-30T12:21:09Z</time>
      </trkpt>
      <trkpt lat="46.97172" lon="4.88402">
        <ele>192.32</ele>
        <time>2019-08-30T12:21:12Z</time>
      </trkpt>
      <trkpt lat="46.97151" lon="4.88406">
        <ele>192.11</ele>
        <time>2019-08-30T12:21:15Z</time>
      </trkpt>
      <trkpt lat="46.97131" lon="4.8841">
        <ele>193.35</ele>
        <time>2019-08-30T12:21:18Z</time>
      </trkpt>
      <trkpt lat="46.97111" lon="4.88416">
        <ele>192.47</ele>
        <time>2019-08-30T12:21:21Z</time>
      </trkpt>
      <trkpt lat="46.9709" lon="4.8842">
        <ele>192.45</ele>
        <time>2019-08-30T12:21:24Z</time>
      </trkpt>
      <trkpt lat="46.97068" lon="4.88427">
        <ele>193.57</ele>
        <time>2019-08-30T12:21:27Z</time>
      </trkpt>
      <trkpt lat="46.97049" lon="4.88431">
        <ele>192.41</ele>
        <time>2019-08-30T12:21:30Z</time>
      </trkpt>
      <trkpt lat="46.97024" lon="4.88435">
        <ele>192.66</ele>
        <time>2019-08-30T12:21:34Z</time>
      </trkpt>
      <trkpt lat="46.97004" lon="4.8844">
        <ele>192.45</ele>
        <time>2019-08-30T12:21:37Z</time>
      </trkpt>
      <trkpt lat="46.96985" lon="4.88446">
        <ele>193.5</ele>
        <time>2019-08-30T12:21:40Z</time>
      </trkpt>
      <trkpt lat="46.96964" lon="4.88451">
        <ele>193.66</ele>
        <time>2019-08-30T12:21:44Z</time>
      </trkpt>
      <trkpt lat="46.96945" lon="4.88456">
        <ele>194.08</ele>
        <time>2019-08-30T12:21:50Z</time>
      </trkpt>
      <trkpt lat="46.96926" lon="4.8846">
        <ele>193.39</ele>
        <time>2019-08-30T12:21:54Z</time>
      </trkpt>
      <trkpt lat="46.96904" lon="4.88465">
        <ele>193.67</ele>
        <time>2019-08-30T12:21:58Z</time>
      </trkpt>
      <trkpt lat="46.96881" lon="4.8847">
        <ele>191.69</ele>
        <time>2019-08-30T12:22:02Z</time>
      </trkpt>
      <trkpt lat="46.96858" lon="4.88476">
        <ele>190.69</ele>
        <time>2019-08-30T12:22:06Z</time>
      </trkpt>
      <trkpt lat="46.96839" lon="4.88481">
        <ele>191.3</ele>
        <time>2019-08-30T12:22:09Z</time>
      </trkpt>
      <trkpt lat="46.96821" lon="4.88486">
        <ele>192.35</ele>
        <time>2019-08-30T12:22:12Z</time>
      </trkpt>
      <trkpt lat="46.96801" lon="4.88487">
        <ele>193.08</ele>
        <time>2019-08-30T12:22:15Z</time>
      </trkpt>
      <trkpt lat="46.96783" lon="4.88494">
        <ele>193.31</ele>
        <time>2019-08-30T12:22:18Z</time>
      </trkpt>
      <trkpt lat="46.96763" lon="4.88499">
        <ele>193.38</ele>
        <time>2019-08-30T12:22:21Z</time>
      </trkpt>
      <trkpt lat="46.96745" lon="4.88505">
        <ele>193.32</ele>
        <time>2019-08-30T12:22:24Z</time>
      </trkpt>
      <trkpt lat="46.96727" lon="4.88509">
        <ele>193.38</ele>
        <time>2019-08-30T12:22:27Z</time>
      </trkpt>
      <trkpt lat="46.96709" lon="4.88514">
        <ele>193.38</ele>
        <time>2019-08-30T12:22:30Z</time>
      </trkpt>
      <trkpt lat="46.96691" lon="4.88517">
        <ele>193.38</ele>
        <time>2019-08-30T12:22:33Z</time>
      </trkpt>
      <trkpt lat="46.96668" lon="4.88525">
        <ele>193.67</ele>
        <time>2019-08-30T12:22:37Z</time>
      </trkpt>
      <trkpt lat="46.96645" lon="4.8853">
        <ele>193.39</ele>
        <time>2019-08-30T12:22:41Z</time>
      </trkpt>
      <trkpt lat="46.96624" lon="4.88539">
        <ele>195.06</ele>
        <time>2019-08-30T12:22:45Z</time>
      </trkpt>
      <trkpt lat="46.96606" lon="4.88546">
        <ele>196.98</ele>
        <time>2019-08-30T12:22:48Z</time>
      </trkpt>
      <trkpt lat="46.96583" lon="4.88548">
        <ele>197.3</ele>
        <time>2019-08-30T12:22:52Z</time>
      </trkpt>
      <trkpt lat="46.96564" lon="4.88552">
        <ele>196.26</ele>
        <time>2019-08-30T12:22:55Z</time>
      </trkpt>
      <trkpt lat="46.96546" lon="4.88557">
        <ele>198.26</ele>
        <time>2019-08-30T12:22:58Z</time>
      </trkpt>
      <trkpt lat="46.96527" lon="4.88562">
        <ele>200.2</ele>
        <time>2019-08-30T12:23:01Z</time>
      </trkpt>
      <trkpt lat="46.96508" lon="4.88565">
        <ele>197.8</ele>
        <time>2019-08-30T12:23:04Z</time>
      </trkpt>
      <trkpt lat="46.96491" lon="4.88569">
        <ele>198.37</ele>
        <time>2019-08-30T12:23:07Z</time>
      </trkpt>
      <trkpt lat="46.96469" lon="4.88575">
        <ele>199.36</ele>
        <time>2019-08-30T12:23:11Z</time>
      </trkpt>
      <trkpt lat="46.96446" lon="4.88584">
        <ele>200.44</ele>
        <time>2019-08-30T12:23:15Z</time>
      </trkpt>
      <trkpt lat="46.96426" lon="4.88584">
        <ele>194.95</ele>
        <time>2019-08-30T12:23:18Z</time>
      </trkpt>
      <trkpt lat="46.96404" lon="4.88591">
        <ele>196.56</ele>
        <time>2019-08-30T12:23:22Z</time>
      </trkpt>
      <trkpt lat="46.96382" lon="4.88596">
        <ele>196.83</ele>
        <time>2019-08-30T12:23:26Z</time>
      </trkpt>
      <trkpt lat="46.96359" lon="4.88603">
        <ele>196.45</ele>
        <time>2019-08-30T12:23:30Z</time>
      </trkpt>
      <trkpt lat="46.96341" lon="4.88608">
        <ele>197.08</ele>
        <time>2019-08-30T12:23:33Z</time>
      </trkpt>
      <trkpt lat="46.96318" lon="4.88613">
        <ele>197.17</ele>
        <time>2019-08-30T12:23:37Z</time>
      </trkpt>
      <trkpt lat="46.96299" lon="4.88615">
        <ele>196.89</ele>
        <time>2019-08-30T12:23:40Z</time>
      </trkpt>
      <trkpt lat="46.96277" lon="4.88618">
        <ele>197.3</ele>
        <time>2019-08-30T12:23:44Z</time>
      </trkpt>
      <trkpt lat="46.96255" lon="4.88626">
        <ele>197.32</ele>
        <time>2019-08-30T12:23:48Z</time>
      </trkpt>
      <trkpt lat="46.96233" lon="4.88636">
        <ele>201.45</ele>
        <time>2019-08-30T12:23:53Z</time>
      </trkpt>
      <trkpt lat="46.96213" lon="4.88645">
        <ele>205.35</ele>
        <time>2019-08-30T12:23:59Z</time>
      </trkpt>
      <trkpt lat="46.96194" lon="4.88648">
        <ele>204.39</ele>
        <time>2019-08-30T12:24:03Z</time>
      </trkpt>
      <trkpt lat="46.96174" lon="4.88652">
        <ele>205.36</ele>
        <time>2019-08-30T12:24:06Z</time>
      </trkpt>
      <trkpt lat="46.96152" lon="4.88657">
        <ele>204.47</ele>
        <time>2019-08-30T12:24:10Z</time>
      </trkpt>
      <trkpt lat="46.96132" lon="4.88653">
        <ele>205.51</ele>
        <time>2019-08-30T12:24:13Z</time>
      </trkpt>
      <trkpt lat="46.96114" lon="4.88659">
        <ele>204.41</ele>
        <time>2019-08-30T12:24:16Z</time>
      </trkpt>
      <trkpt lat="46.96091" lon="4.88667">
        <ele>206.48</ele>
        <time>2019-08-30T12:24:20Z</time>
      </trkpt>
      <trkpt lat="46.96069" lon="4.88672">
        <ele>207.38</ele>
        <time>2019-08-30T12:24:24Z</time>
      </trkpt>
      <trkpt lat="46.96048" lon="4.88681">
        <ele>205.28</ele>
        <time>2019-08-30T12:24:27Z</time>
      </trkpt>
      <trkpt lat="46.96027" lon="4.88683">
        <ele>200.23</ele>
        <time>2019-08-30T12:24:31Z</time>
      </trkpt>
      <trkpt lat="46.96007" lon="4.88685">
        <ele>202.26</ele>
        <time>2019-08-30T12:24:34Z</time>
      </trkpt>
      <trkpt lat="46.95989" lon="4.88685">
        <ele>201.68</ele>
        <time>2019-08-30T12:24:37Z</time>
      </trkpt>
      <trkpt lat="46.95971" lon="4.88691">
        <ele>203.06</ele>
        <time>2019-08-30T12:24:40Z</time>
      </trkpt>
      <trkpt lat="46.95948" lon="4.887">
        <ele>204.33</ele>
        <time>2019-08-30T12:24:43Z</time>
      </trkpt>
      <trkpt lat="46.95928" lon="4.88709">
        <ele>201.8</ele>
        <time>2019-08-30T12:24:47Z</time>
      </trkpt>
      <trkpt lat="46.95908" lon="4.88718">
        <ele>201.39</ele>
        <time>2019-08-30T12:24:51Z</time>
      </trkpt>
      <trkpt lat="46.95889" lon="4.88722">
        <ele>202.99</ele>
        <time>2019-08-30T12:24:54Z</time>
      </trkpt>
      <trkpt lat="46.95866" lon="4.88728">
        <ele>203.38</ele>
        <time>2019-08-30T12:24:58Z</time>
      </trkpt>
      <trkpt lat="46.95844" lon="4.88729">
        <ele>205.12</ele>
        <time>2019-08-30T12:25:01Z</time>
      </trkpt>
      <trkpt lat="46.95824" lon="4.88734">
        <ele>206.29</ele>
        <time>2019-08-30T12:25:05Z</time>
      </trkpt>
      <trkpt lat="46.95805" lon="4.88739">
        <ele>208.2</ele>
        <time>2019-08-30T12:25:09Z</time>
      </trkpt>
      <trkpt lat="46.95787" lon="4.8875">
        <ele>204.59</ele>
        <time>2019-08-30T12:25:15Z</time>
      </trkpt>
      <trkpt lat="46.95768" lon="4.88757">
        <ele>202.77</ele>
        <time>2019-08-30T12:25:21Z</time>
      </trkpt>
      <trkpt lat="46.95752" lon="4.88741">
        <ele>202.33</ele>
        <time>2019-08-30T12:25:30Z</time>
      </trkpt>
      <trkpt lat="46.95757" lon="4.88709">
        <ele>200.41</ele>
        <time>2019-08-30T12:25:35Z</time>
      </trkpt>
      <trkpt lat="46.9576" lon="4.8868">
        <ele>201.38</ele>
        <time>2019-08-30T12:25:39Z</time>
      </trkpt>
      <trkpt lat="46.95762" lon="4.88651">
        <ele>201.4</ele>
        <time>2019-08-30T12:25:43Z</time>
      </trkpt>
      <trkpt lat="46.95764" lon="4.88622">
        <ele>201.45</ele>
        <time>2019-08-30T12:25:47Z</time>
      </trkpt>
      <trkpt lat="46.95766" lon="4.88591">
        <ele>201.47</ele>
        <time>2019-08-30T12:25:51Z</time>
      </trkpt>
      <trkpt lat="46.95768" lon="4.88561">
        <ele>201.38</ele>
        <time>2019-08-30T12:25:55Z</time>
      </trkpt>
      <trkpt lat="46.95767" lon="4.88534">
        <ele>201.36</ele>
        <time>2019-08-30T12:25:59Z</time>
      </trkpt>
      <trkpt lat="46.95748" lon="4.88531">
        <ele>202.29</ele>
        <time>2019-08-30T12:26:03Z</time>
      </trkpt>
      <trkpt lat="46.95726" lon="4.88529">
        <ele>202.09</ele>
        <time>2019-08-30T12:26:07Z</time>
      </trkpt>
      <trkpt lat="46.95708" lon="4.88528">
        <ele>201.68</ele>
        <time>2019-08-30T12:26:10Z</time>
      </trkpt>
      <trkpt lat="46.95683" lon="4.88528">
        <ele>202.3</ele>
        <time>2019-08-30T12:26:14Z</time>
      </trkpt>
      <trkpt lat="46.95665" lon="4.88528">
        <ele>202.38</ele>
        <time>2019-08-30T12:26:17Z</time>
      </trkpt>
      <trkpt lat="46.95646" lon="4.88526">
        <ele>202.38</ele>
        <time>2019-08-30T12:26:20Z</time>
      </trkpt>
      <trkpt lat="46.95626" lon="4.88524">
        <ele>201.68</ele>
        <time>2019-08-30T12:26:23Z</time>
      </trkpt>
      <trkpt lat="46.95605" lon="4.88524">
        <ele>201.39</ele>
        <time>2019-08-30T12:26:26Z</time>
      </trkpt>
      <trkpt lat="46.95584" lon="4.88523">
        <ele>202.08</ele>
        <time>2019-08-30T12:26:29Z</time>
      </trkpt>
      <trkpt lat="46.95561" lon="4.88522">
        <ele>201.67</ele>
        <time>2019-08-30T12:26:32Z</time>
      </trkpt>
      <trkpt lat="46.95538" lon="4.88518">
        <ele>199.99</ele>
        <time>2019-08-30T12:26:35Z</time>
      </trkpt>
      <trkpt lat="46.95514" lon="4.88515">
        <ele>198.49</ele>
        <time>2019-08-30T12:26:38Z</time>
      </trkpt>
      <trkpt lat="46.95488" lon="4.88512">
        <ele>195.53</ele>
        <time>2019-08-30T12:26:41Z</time>
      </trkpt>
      <trkpt lat="46.9546" lon="4.88511">
        <ele>194.48</ele>
        <time>2019-08-30T12:26:44Z</time>
      </trkpt>
      <trkpt lat="46.95441" lon="4.88511">
        <ele>193.48</ele>
        <time>2019-08-30T12:26:46Z</time>
      </trkpt>
      <trkpt lat="46.9542" lon="4.88511">
        <ele>192.69</ele>
        <time>2019-08-30T12:26:48Z</time>
      </trkpt>
      <trkpt lat="46.95399" lon="4.88509">
        <ele>191.71</ele>
        <time>2019-08-30T12:26:50Z</time>
      </trkpt>
      <trkpt lat="46.95378" lon="4.88508">
        <ele>190.71</ele>
        <time>2019-08-30T12:26:52Z</time>
      </trkpt>
      <trkpt lat="46.95356" lon="4.88506">
        <ele>190.41</ele>
        <time>2019-08-30T12:26:54Z</time>
      </trkpt>
      <trkpt lat="46.95335" lon="4.88505">
        <ele>191.09</ele>
        <time>2019-08-30T12:26:56Z</time>
      </trkpt>
      <trkpt lat="46.95315" lon="4.88502">
        <ele>187.02</ele>
        <time>2019-08-30T12:26:58Z</time>
      </trkpt>
      <trkpt lat="46.95295" lon="4.88501">
        <ele>186.44</ele>
        <time>2019-08-30T12:27:00Z</time>
      </trkpt>
      <trkpt lat="46.95276" lon="4.88499">
        <ele>187.09</ele>
        <time>2019-08-30T12:27:02Z</time>
      </trkpt>
      <trkpt lat="46.95258" lon="4.88499">
        <ele>188.06</ele>
        <time>2019-08-30T12:27:04Z</time>
      </trkpt>
      <trkpt lat="46.95236" lon="4.88497">
        <ele>186.25</ele>
        <time>2019-08-30T12:27:06Z</time>
      </trkpt>
      <trkpt lat="46.95217" lon="4.88499">
        <ele>186.16</ele>
        <time>2019-08-30T12:27:08Z</time>
      </trkpt>
      <trkpt lat="46.95191" lon="4.88497">
        <ele>186.38</ele>
        <time>2019-08-30T12:27:11Z</time>
      </trkpt>
      <trkpt lat="46.95166" lon="4.88497">
        <ele>186.38</ele>
        <time>2019-08-30T12:27:14Z</time>
      </trkpt>
      <trkpt lat="46.95147" lon="4.88492">
        <ele>187.08</ele>
        <time>2019-08-30T12:27:17Z</time>
      </trkpt>
      <trkpt lat="46.95125" lon="4.88502">
        <ele>187.45</ele>
        <time>2019-08-30T12:27:22Z</time>
      </trkpt>
      <trkpt lat="46.95107" lon="4.8849">
        <ele>187.36</ele>
        <time>2019-08-30T12:27:26Z</time>
      </trkpt>
      <trkpt lat="46.95086" lon="4.88486">
        <ele>188.29</ele>
        <time>2019-08-30T12:27:30Z</time>
      </trkpt>
      <trkpt lat="46.95066" lon="4.88487">
        <ele>188.38</ele>
        <time>2019-08-30T12:27:33Z</time>
      </trkpt>
      <trkpt lat="46.95043" lon="4.8849">
        <ele>186.42</ele>
        <time>2019-08-30T12:27:37Z</time>
      </trkpt>
      <trkpt lat="46.95025" lon="4.88488">
        <ele>185.47</ele>
        <time>2019-08-30T12:27:40Z</time>
      </trkpt>
      <trkpt lat="46.95" lon="4.88488">
        <ele>185.68</ele>
        <time>2019-08-30T12:27:44Z</time>
      </trkpt>
      <trkpt lat="46.94981" lon="4.88488">
        <ele>188.18</ele>
        <time>2019-08-30T12:27:47Z</time>
      </trkpt>
      <trkpt lat="46.94961" lon="4.88486">
        <ele>187.68</ele>
        <time>2019-08-30T12:27:50Z</time>
      </trkpt>
      <trkpt lat="46.94942" lon="4.88487">
        <ele>188.03</ele>
        <time>2019-08-30T12:27:53Z</time>
      </trkpt>
      <trkpt lat="46.94922" lon="4.88485">
        <ele>187.74</ele>
        <time>2019-08-30T12:27:56Z</time>
      </trkpt>
      <trkpt lat="46.94903" lon="4.88485">
        <ele>187.39</ele>
        <time>2019-08-30T12:27:59Z</time>
      </trkpt>
      <trkpt lat="46.94884" lon="4.88484">
        <ele>188.29</ele>
        <time>2019-08-30T12:28:02Z</time>
      </trkpt>
      <trkpt lat="46.94866" lon="4.88481">
        <ele>188.44</ele>
        <time>2019-08-30T12:28:05Z</time>
      </trkpt>
      <trkpt lat="46.94846" lon="4.88479">
        <ele>189.36</ele>
        <time>2019-08-30T12:28:08Z</time>
      </trkpt>
      <trkpt lat="46.94827" lon="4.88478">
        <ele>190.29</ele>
        <time>2019-08-30T12:28:11Z</time>
      </trkpt>
      <trkpt lat="46.94809" lon="4.88477">
        <ele>190.38</ele>
        <time>2019-08-30T12:28:14Z</time>
      </trkpt>
      <trkpt lat="46.94789" lon="4.88476">
        <ele>190.38</ele>
        <time>2019-08-30T12:28:17Z</time>
      </trkpt>
      <trkpt lat="46.94769" lon="4.88474">
        <ele>190.38</ele>
        <time>2019-08-30T12:28:20Z</time>
      </trkpt>
      <trkpt lat="46.94751" lon="4.88472">
        <ele>190.38</ele>
        <time>2019-08-30T12:28:23Z</time>
      </trkpt>
      <trkpt lat="46.94731" lon="4.88471">
        <ele>191.29</ele>
        <time>2019-08-30T12:28:26Z</time>
      </trkpt>
      <trkpt lat="46.94712" lon="4.88469">
        <ele>191.65</ele>
        <time>2019-08-30T12:28:29Z</time>
      </trkpt>
      <trkpt lat="46.94692" lon="4.88465">
        <ele>193.06</ele>
        <time>2019-08-30T12:28:32Z</time>
      </trkpt>
      <trkpt lat="46.94672" lon="4.88466">
        <ele>192.6</ele>
        <time>2019-08-30T12:28:36Z</time>
      </trkpt>
      <trkpt lat="46.94651" lon="4.88466">
        <ele>191.41</ele>
        <time>2019-08-30T12:28:41Z</time>
      </trkpt>
      <trkpt lat="46.94631" lon="4.88466">
        <ele>191.32</ele>
        <time>2019-08-30T12:28:45Z</time>
      </trkpt>
      <trkpt lat="46.94613" lon="4.88465">
        <ele>190.41</ele>
        <time>2019-08-30T12:28:48Z</time>
      </trkpt>
      <trkpt lat="46.94593" lon="4.88463">
        <ele>190.38</ele>
        <time>2019-08-30T12:28:51Z</time>
      </trkpt>
      <trkpt lat="46.94572" lon="4.88463">
        <ele>190.38</ele>
        <time>2019-08-30T12:28:54Z</time>
      </trkpt>
      <trkpt lat="46.94551" lon="4.88461">
        <ele>189.47</ele>
        <time>2019-08-30T12:28:57Z</time>
      </trkpt>
      <trkpt lat="46.94529" lon="4.88459">
        <ele>189.45</ele>
        <time>2019-08-30T12:29:00Z</time>
      </trkpt>
      <trkpt lat="46.94508" lon="4.88457">
        <ele>189.38</ele>
        <time>2019-08-30T12:29:03Z</time>
      </trkpt>
      <trkpt lat="46.94486" lon="4.88454">
        <ele>189.38</ele>
        <time>2019-08-30T12:29:06Z</time>
      </trkpt>
      <trkpt lat="46.94466" lon="4.88451">
        <ele>190.08</ele>
        <time>2019-08-30T12:29:09Z</time>
      </trkpt>
      <trkpt lat="46.94444" lon="4.8845">
        <ele>188.7</ele>
        <time>2019-08-30T12:29:12Z</time>
      </trkpt>
      <trkpt lat="46.94423" lon="4.88448">
        <ele>189.15</ele>
        <time>2019-08-30T12:29:15Z</time>
      </trkpt>
      <trkpt lat="46.94402" lon="4.88448">
        <ele>190.99</ele>
        <time>2019-08-30T12:29:18Z</time>
      </trkpt>
      <trkpt lat="46.94381" lon="4.88447">
        <ele>192.41</ele>
        <time>2019-08-30T12:29:21Z</time>
      </trkpt>
      <trkpt lat="46.94361" lon="4.88447">
        <ele>193.36</ele>
        <time>2019-08-30T12:29:24Z</time>
      </trkpt>
      <trkpt lat="46.94341" lon="4.88446">
        <ele>193.38</ele>
        <time>2019-08-30T12:29:27Z</time>
      </trkpt>
      <trkpt lat="46.9432" lon="4.88446">
        <ele>193.11</ele>
        <time>2019-08-30T12:29:30Z</time>
      </trkpt>
      <trkpt lat="46.943" lon="4.88445">
        <ele>192.68</ele>
        <time>2019-08-30T12:29:33Z</time>
      </trkpt>
      <trkpt lat="46.9428" lon="4.88443">
        <ele>192.6</ele>
        <time>2019-08-30T12:29:36Z</time>
      </trkpt>
      <trkpt lat="46.94261" lon="4.88441">
        <ele>191.42</ele>
        <time>2019-08-30T12:29:39Z</time>
      </trkpt>
      <trkpt lat="46.94241" lon="4.8844">
        <ele>193.27</ele>
        <time>2019-08-30T12:29:42Z</time>
      </trkpt>
      <trkpt lat="46.94223" lon="4.88447">
        <ele>192.68</ele>
        <time>2019-08-30T12:29:45Z</time>
      </trkpt>
      <trkpt lat="46.94204" lon="4.88464">
        <ele>190.69</ele>
        <time>2019-08-30T12:29:49Z</time>
      </trkpt>
      <trkpt lat="46.94183" lon="4.88466">
        <ele>190.39</ele>
        <time>2019-08-30T12:29:53Z</time>
      </trkpt>
      <trkpt lat="46.94161" lon="4.88464">
        <ele>191.29</ele>
        <time>2019-08-30T12:29:57Z</time>
      </trkpt>
      <trkpt lat="46.94137" lon="4.8846">
        <ele>191.66</ele>
        <time>2019-08-30T12:30:01Z</time>
      </trkpt>
      <trkpt lat="46.94114" lon="4.88461">
        <ele>192.15</ele>
        <time>2019-08-30T12:30:05Z</time>
      </trkpt>
      <trkpt lat="46.94096" lon="4.88461">
        <ele>194.32</ele>
        <time>2019-08-30T12:30:08Z</time>
      </trkpt>
      <trkpt lat="46.94073" lon="4.88455">
        <ele>193.68</ele>
        <time>2019-08-30T12:30:12Z</time>
      </trkpt>
      <trkpt lat="46.94049" lon="4.88457">
        <ele>193.6</ele>
        <time>2019-08-30T12:30:16Z</time>
      </trkpt>
      <trkpt lat="46.94031" lon="4.8846">
        <ele>194.09</ele>
        <time>2019-08-30T12:30:19Z</time>
      </trkpt>
      <trkpt lat="46.94007" lon="4.8846">
        <ele>195.29</ele>
        <time>2019-08-30T12:30:23Z</time>
      </trkpt>
      <trkpt lat="46.93988" lon="4.88461">
        <ele>195.44</ele>
        <time>2019-08-30T12:30:26Z</time>
      </trkpt>
      <trkpt lat="46.93964" lon="4.88463">
        <ele>196.08</ele>
        <time>2019-08-30T12:30:30Z</time>
      </trkpt>
      <trkpt lat="46.9394" lon="4.88466">
        <ele>197.31</ele>
        <time>2019-08-30T12:30:34Z</time>
      </trkpt>
      <trkpt lat="46.93921" lon="4.88465">
        <ele>197.38</ele>
        <time>2019-08-30T12:30:37Z</time>
      </trkpt>
      <trkpt lat="46.93897" lon="4.88466">
        <ele>197.09</ele>
        <time>2019-08-30T12:30:41Z</time>
      </trkpt>
      <trkpt lat="46.93878" lon="4.88469">
        <ele>198.01</ele>
        <time>2019-08-30T12:30:44Z</time>
      </trkpt>
      <trkpt lat="46.9386" lon="4.88468">
        <ele>197.4</ele>
        <time>2019-08-30T12:30:47Z</time>
      </trkpt>
      <trkpt lat="46.93841" lon="4.88471">
        <ele>198.29</ele>
        <time>2019-08-30T12:30:50Z</time>
      </trkpt>
      <trkpt lat="46.93823" lon="4.88473">
        <ele>198.38</ele>
        <time>2019-08-30T12:30:53Z</time>
      </trkpt>
      <trkpt lat="46.93799" lon="4.88475">
        <ele>197.68</ele>
        <time>2019-08-30T12:30:57Z</time>
      </trkpt>
      <trkpt lat="46.9378" lon="4.88477">
        <ele>198.09</ele>
        <time>2019-08-30T12:31:00Z</time>
      </trkpt>
      <trkpt lat="46.93756" lon="4.88478">
        <ele>200.22</ele>
        <time>2019-08-30T12:31:04Z</time>
      </trkpt>
      <trkpt lat="46.93732" lon="4.88478">
        <ele>201.02</ele>
        <time>2019-08-30T12:31:08Z</time>
      </trkpt>
      <trkpt lat="46.93713" lon="4.88477">
        <ele>201.58</ele>
        <time>2019-08-30T12:31:11Z</time>
      </trkpt>
      <trkpt lat="46.93695" lon="4.88476">
        <ele>201.18</ele>
        <time>2019-08-30T12:31:14Z</time>
      </trkpt>
      <trkpt lat="46.93676" lon="4.88475">
        <ele>199.56</ele>
        <time>2019-08-30T12:31:17Z</time>
      </trkpt>
      <trkpt lat="46.93652" lon="4.88477">
        <ele>200.59</ele>
        <time>2019-08-30T12:31:21Z</time>
      </trkpt>
      <trkpt lat="46.93629" lon="4.8848">
        <ele>202.37</ele>
        <time>2019-08-30T12:31:25Z</time>
      </trkpt>
      <trkpt lat="46.93611" lon="4.88475">
        <ele>201.68</ele>
        <time>2019-08-30T12:31:28Z</time>
      </trkpt>
      <trkpt lat="46.93592" lon="4.88452">
        <ele>202.38</ele>
        <time>2019-08-30T12:31:32Z</time>
      </trkpt>
      <trkpt lat="46.93575" lon="4.88443">
        <ele>201.68</ele>
        <time>2019-08-30T12:31:35Z</time>
      </trkpt>
      <trkpt lat="46.93552" lon="4.8844">
        <ele>202.38</ele>
        <time>2019-08-30T12:31:39Z</time>
      </trkpt>
      <trkpt lat="46.93531" lon="4.88438">
        <ele>203.67</ele>
        <time>2019-08-30T12:31:43Z</time>
      </trkpt>
      <trkpt lat="46.93513" lon="4.88434">
        <ele>205.34</ele>
        <time>2019-08-30T12:31:46Z</time>
      </trkpt>
      <trkpt lat="46.93494" lon="4.88432">
        <ele>203.56</ele>
        <time>2019-08-30T12:31:49Z</time>
      </trkpt>
      <trkpt lat="46.93475" lon="4.88429">
        <ele>202.41</ele>
        <time>2019-08-30T12:31:52Z</time>
      </trkpt>
      <trkpt lat="46.93456" lon="4.88428">
        <ele>203.29</ele>
        <time>2019-08-30T12:31:55Z</time>
      </trkpt>
      <trkpt lat="46.93433" lon="4.88427">
        <ele>204.29</ele>
        <time>2019-08-30T12:31:59Z</time>
      </trkpt>
      <trkpt lat="46.93415" lon="4.88424">
        <ele>205.02</ele>
        <time>2019-08-30T12:32:02Z</time>
      </trkpt>
      <trkpt lat="46.93392" lon="4.88422">
        <ele>204.05</ele>
        <time>2019-08-30T12:32:06Z</time>
      </trkpt>
      <trkpt lat="46.93369" lon="4.88417">
        <ele>205.35</ele>
        <time>2019-08-30T12:32:10Z</time>
      </trkpt>
      <trkpt lat="46.93351" lon="4.88411">
        <ele>204.68</ele>
        <time>2019-08-30T12:32:13Z</time>
      </trkpt>
      <trkpt lat="46.93333" lon="4.8841">
        <ele>203.54</ele>
        <time>2019-08-30T12:32:16Z</time>
      </trkpt>
      <trkpt lat="46.93309" lon="4.88409">
        <ele>204.63</ele>
        <time>2019-08-30T12:32:20Z</time>
      </trkpt>
      <trkpt lat="46.93287" lon="4.88405">
        <ele>201.38</ele>
        <time>2019-08-30T12:32:24Z</time>
      </trkpt>
      <trkpt lat="46.93266" lon="4.88398">
        <ele>203.22</ele>
        <time>2019-08-30T12:32:28Z</time>
      </trkpt>
      <trkpt lat="46.93247" lon="4.88395">
        <ele>203.38</ele>
        <time>2019-08-30T12:32:31Z</time>
      </trkpt>
      <trkpt lat="46.9323" lon="4.88412">
        <ele>204.36</ele>
        <time>2019-08-30T12:32:35Z</time>
      </trkpt>
      <trkpt lat="46.93212" lon="4.88421">
        <ele>206.2</ele>
        <time>2019-08-30T12:32:39Z</time>
      </trkpt>
      <trkpt lat="46.93191" lon="4.88422">
        <ele>209.05</ele>
        <time>2019-08-30T12:32:43Z</time>
      </trkpt>
      <trkpt lat="46.9317" lon="4.88421">
        <ele>207.42</ele>
        <time>2019-08-30T12:32:47Z</time>
      </trkpt>
      <trkpt lat="46.93151" lon="4.8842">
        <ele>205.27</ele>
        <time>2019-08-30T12:32:51Z</time>
      </trkpt>
      <trkpt lat="46.93129" lon="4.88424">
        <ele>200.59</ele>
        <time>2019-08-30T12:32:56Z</time>
      </trkpt>
      <trkpt lat="46.93109" lon="4.88427">
        <ele>199.47</ele>
        <time>2019-08-30T12:33:00Z</time>
      </trkpt>
      <trkpt lat="46.93089" lon="4.8843">
        <ele>202.75</ele>
        <time>2019-08-30T12:33:04Z</time>
      </trkpt>
      <trkpt lat="46.9307" lon="4.8844">
        <ele>203.65</ele>
        <time>2019-08-30T12:33:08Z</time>
      </trkpt>
      <trkpt lat="46.93053" lon="4.8846">
        <ele>206.05</ele>
        <time>2019-08-30T12:33:12Z</time>
      </trkpt>
      <trkpt lat="46.93035" lon="4.88467">
        <ele>208.92</ele>
        <time>2019-08-30T12:33:16Z</time>
      </trkpt>
      <trkpt lat="46.93012" lon="4.88468">
        <ele>210.16</ele>
        <time>2019-08-30T12:33:20Z</time>
      </trkpt>
      <trkpt lat="46.92991" lon="4.88469">
        <ele>209.52</ele>
        <time>2019-08-30T12:33:24Z</time>
      </trkpt>
      <trkpt lat="46.92973" lon="4.88465">
        <ele>208.69</ele>
        <time>2019-08-30T12:33:27Z</time>
      </trkpt>
      <trkpt lat="46.92952" lon="4.88465">
        <ele>209.38</ele>
        <time>2019-08-30T12:33:31Z</time>
      </trkpt>
      <trkpt lat="46.92934" lon="4.88468">
        <ele>208.19</ele>
        <time>2019-08-30T12:33:34Z</time>
      </trkpt>
      <trkpt lat="46.92914" lon="4.88474">
        <ele>206.43</ele>
        <time>2019-08-30T12:33:37Z</time>
      </trkpt>
      <trkpt lat="46.92895" lon="4.88491">
        <ele>208.45</ele>
        <time>2019-08-30T12:33:41Z</time>
      </trkpt>
      <trkpt lat="46.92877" lon="4.88503">
        <ele>205.8</ele>
        <time>2019-08-30T12:33:44Z</time>
      </trkpt>
      <trkpt lat="46.9286" lon="4.88511">
        <ele>207</ele>
        <time>2019-08-30T12:33:47Z</time>
      </trkpt>
      <trkpt lat="46.92842" lon="4.88526">
        <ele>208.35</ele>
        <time>2019-08-30T12:33:50Z</time>
      </trkpt>
      <trkpt lat="46.92825" lon="4.88538">
        <ele>207.35</ele>
        <time>2019-08-30T12:33:53Z</time>
      </trkpt>
      <trkpt lat="46.92804" lon="4.88548">
        <ele>210.26</ele>
        <time>2019-08-30T12:33:57Z</time>
      </trkpt>
      <trkpt lat="46.92787" lon="4.88557">
        <ele>211.08</ele>
        <time>2019-08-30T12:34:00Z</time>
      </trkpt>
      <trkpt lat="46.92767" lon="4.88561">
        <ele>212.35</ele>
        <time>2019-08-30T12:34:03Z</time>
      </trkpt>
      <trkpt lat="46.92752" lon="4.8858">
        <ele>212.38</ele>
        <time>2019-08-30T12:34:06Z</time>
      </trkpt>
      <trkpt lat="46.92749" lon="4.88608">
        <ele>211.41</ele>
        <time>2019-08-30T12:34:09Z</time>
      </trkpt>
      <trkpt lat="46.92742" lon="4.88636">
        <ele>211.11</ele>
        <time>2019-08-30T12:34:12Z</time>
      </trkpt>
      <trkpt lat="46.92736" lon="4.88663">
        <ele>211.31</ele>
        <time>2019-08-30T12:34:15Z</time>
      </trkpt>
      <trkpt lat="46.92734" lon="4.88697">
        <ele>207.52</ele>
        <time>2019-08-30T12:34:19Z</time>
      </trkpt>
      <trkpt lat="46.92734" lon="4.88732">
        <ele>207.38</ele>
        <time>2019-08-30T12:34:23Z</time>
      </trkpt>
      <trkpt lat="46.92735" lon="4.88766">
        <ele>205.48</ele>
        <time>2019-08-30T12:34:27Z</time>
      </trkpt>
      <trkpt lat="46.92734" lon="4.88802">
        <ele>205.61</ele>
        <time>2019-08-30T12:34:31Z</time>
      </trkpt>
      <trkpt lat="46.92735" lon="4.88829">
        <ele>204.42</ele>
        <time>2019-08-30T12:34:34Z</time>
      </trkpt>
      <trkpt lat="46.92744" lon="4.88859">
        <ele>204.19</ele>
        <time>2019-08-30T12:34:38Z</time>
      </trkpt>
      <trkpt lat="46.92749" lon="4.88885">
        <ele>205.08</ele>
        <time>2019-08-30T12:34:41Z</time>
      </trkpt>
      <trkpt lat="46.92754" lon="4.88911">
        <ele>205.37</ele>
        <time>2019-08-30T12:34:44Z</time>
      </trkpt>
      <trkpt lat="46.92764" lon="4.88942">
        <ele>206.25</ele>
        <time>2019-08-30T12:34:48Z</time>
      </trkpt>
      <trkpt lat="46.92775" lon="4.88971">
        <ele>207.97</ele>
        <time>2019-08-30T12:34:52Z</time>
      </trkpt>
      <trkpt lat="46.92792" lon="4.88994">
        <ele>209.27</ele>
        <time>2019-08-30T12:34:56Z</time>
      </trkpt>
      <trkpt lat="46.92808" lon="4.89017">
        <ele>209.09</ele>
        <time>2019-08-30T12:35:00Z</time>
      </trkpt>
      <trkpt lat="46.92825" lon="4.89041">
        <ele>210.37</ele>
        <time>2019-08-30T12:35:04Z</time>
      </trkpt>
      <trkpt lat="46.92841" lon="4.89067">
        <ele>212.27</ele>
        <time>2019-08-30T12:35:08Z</time>
      </trkpt>
      <trkpt lat="46.92853" lon="4.89093">
        <ele>213.37</ele>
        <time>2019-08-30T12:35:12Z</time>
      </trkpt>
      <trkpt lat="46.92865" lon="4.89122">
        <ele>213.32</ele>
        <time>2019-08-30T12:35:16Z</time>
      </trkpt>
      <trkpt lat="46.92876" lon="4.89149">
        <ele>212.68</ele>
        <time>2019-08-30T12:35:20Z</time>
      </trkpt>
      <trkpt lat="46.92887" lon="4.89176">
        <ele>212.39</ele>
        <time>2019-08-30T12:35:24Z</time>
      </trkpt>
      <trkpt lat="46.92895" lon="4.89203">
        <ele>213.06</ele>
        <time>2019-08-30T12:35:28Z</time>
      </trkpt>
      <trkpt lat="46.92905" lon="4.89231">
        <ele>214.29</ele>
        <time>2019-08-30T12:35:32Z</time>
      </trkpt>
      <trkpt lat="46.92911" lon="4.89261">
        <ele>216.28</ele>
        <time>2019-08-30T12:35:36Z</time>
      </trkpt>
      <trkpt lat="46.92915" lon="4.8929">
        <ele>216.38</ele>
        <time>2019-08-30T12:35:40Z</time>
      </trkpt>
      <trkpt lat="46.92918" lon="4.8932">
        <ele>216.19</ele>
        <time>2019-08-30T12:35:44Z</time>
      </trkpt>
      <trkpt lat="46.9292" lon="4.8935">
        <ele>216.38</ele>
        <time>2019-08-30T12:35:48Z</time>
      </trkpt>
      <trkpt lat="46.92922" lon="4.89379">
        <ele>216.32</ele>
        <time>2019-08-30T12:35:52Z</time>
      </trkpt>
      <trkpt lat="46.92921" lon="4.89409">
        <ele>215.41</ele>
        <time>2019-08-30T12:35:56Z</time>
      </trkpt>
      <trkpt lat="46.92918" lon="4.89441">
        <ele>216.29</ele>
        <time>2019-08-30T12:36:00Z</time>
      </trkpt>
      <trkpt lat="46.92913" lon="4.89473">
        <ele>217.29</ele>
        <time>2019-08-30T12:36:04Z</time>
      </trkpt>
      <trkpt lat="46.92908" lon="4.89503">
        <ele>215.56</ele>
        <time>2019-08-30T12:36:08Z</time>
      </trkpt>
      <trkpt lat="46.929" lon="4.89533">
        <ele>214.39</ele>
        <time>2019-08-30T12:36:12Z</time>
      </trkpt>
      <trkpt lat="46.92893" lon="4.89562">
        <ele>214.45</ele>
        <time>2019-08-30T12:36:16Z</time>
      </trkpt>
      <trkpt lat="46.92888" lon="4.89592">
        <ele>213.54</ele>
        <time>2019-08-30T12:36:20Z</time>
      </trkpt>
      <trkpt lat="46.92885" lon="4.89618">
        <ele>214.36</ele>
        <time>2019-08-30T12:36:23Z</time>
      </trkpt>
      <trkpt lat="46.92883" lon="4.89651">
        <ele>215.29</ele>
        <time>2019-08-30T12:36:27Z</time>
      </trkpt>
      <trkpt lat="46.92882" lon="4.89685">
        <ele>214.2</ele>
        <time>2019-08-30T12:36:31Z</time>
      </trkpt>
      <trkpt lat="46.9288" lon="4.8972">
        <ele>214.38</ele>
        <time>2019-08-30T12:36:35Z</time>
      </trkpt>
      <trkpt lat="46.92878" lon="4.89748">
        <ele>214.38</ele>
        <time>2019-08-30T12:36:38Z</time>
      </trkpt>
      <trkpt lat="46.92876" lon="4.89774">
        <ele>214.38</ele>
        <time>2019-08-30T12:36:41Z</time>
      </trkpt>
      <trkpt lat="46.92875" lon="4.89802">
        <ele>215.08</ele>
        <time>2019-08-30T12:36:44Z</time>
      </trkpt>
      <trkpt lat="46.92874" lon="4.89829">
        <ele>214.61</ele>
        <time>2019-08-30T12:36:47Z</time>
      </trkpt>
      <trkpt lat="46.92874" lon="4.89856">
        <ele>214.45</ele>
        <time>2019-08-30T12:36:50Z</time>
      </trkpt>
      <trkpt lat="46.92874" lon="4.89891">
        <ele>212.71</ele>
        <time>2019-08-30T12:36:54Z</time>
      </trkpt>
      <trkpt lat="46.92873" lon="4.8992">
        <ele>212.33</ele>
        <time>2019-08-30T12:36:57Z</time>
      </trkpt>
      <trkpt lat="46.92873" lon="4.89947">
        <ele>212.38</ele>
        <time>2019-08-30T12:37:00Z</time>
      </trkpt>
      <trkpt lat="46.92872" lon="4.89974">
        <ele>213.29</ele>
        <time>2019-08-30T12:37:03Z</time>
      </trkpt>
      <trkpt lat="46.92869" lon="4.90009">
        <ele>213.36</ele>
        <time>2019-08-30T12:37:07Z</time>
      </trkpt>
      <trkpt lat="46.92867" lon="4.90035">
        <ele>214.08</ele>
        <time>2019-08-30T12:37:10Z</time>
      </trkpt>
      <trkpt lat="46.92866" lon="4.90062">
        <ele>213.4</ele>
        <time>2019-08-30T12:37:13Z</time>
      </trkpt>
      <trkpt lat="46.92866" lon="4.90089">
        <ele>212.68</ele>
        <time>2019-08-30T12:37:16Z</time>
      </trkpt>
      <trkpt lat="46.92866" lon="4.90124">
        <ele>211.39</ele>
        <time>2019-08-30T12:37:20Z</time>
      </trkpt>
      <trkpt lat="46.92865" lon="4.90152">
        <ele>211.81</ele>
        <time>2019-08-30T12:37:23Z</time>
      </trkpt>
      <trkpt lat="46.92865" lon="4.90179">
        <ele>211.73</ele>
        <time>2019-08-30T12:37:26Z</time>
      </trkpt>
      <trkpt lat="46.92865" lon="4.90207">
        <ele>212.37</ele>
        <time>2019-08-30T12:37:29Z</time>
      </trkpt>
      <trkpt lat="46.92865" lon="4.90236">
        <ele>214.06</ele>
        <time>2019-08-30T12:37:32Z</time>
      </trkpt>
      <trkpt lat="46.92867" lon="4.90263">
        <ele>213.67</ele>
        <time>2019-08-30T12:37:35Z</time>
      </trkpt>
      <trkpt lat="46.92869" lon="4.90296">
        <ele>214.09</ele>
        <time>2019-08-30T12:37:39Z</time>
      </trkpt>
      <trkpt lat="46.92872" lon="4.90328">
        <ele>213.41</ele>
        <time>2019-08-30T12:37:43Z</time>
      </trkpt>
      <trkpt lat="46.92874" lon="4.90359">
        <ele>213.09</ele>
        <time>2019-08-30T12:37:47Z</time>
      </trkpt>
      <trkpt lat="46.92873" lon="4.90388">
        <ele>214.35</ele>
        <time>2019-08-30T12:37:51Z</time>
      </trkpt>
      <trkpt lat="46.92852" lon="4.90393">
        <ele>213.39</ele>
        <time>2019-08-30T12:37:55Z</time>
      </trkpt>
      <trkpt lat="46.92833" lon="4.90392">
        <ele>213.66</ele>
        <time>2019-08-30T12:37:58Z</time>
      </trkpt>
      <trkpt lat="46.92812" lon="4.90394">
        <ele>212.48</ele>
        <time>2019-08-30T12:38:01Z</time>
      </trkpt>
      <trkpt lat="46.92792" lon="4.90398">
        <ele>213.3</ele>
        <time>2019-08-30T12:38:04Z</time>
      </trkpt>
      <trkpt lat="46.92769" lon="4.90403">
        <ele>213.38</ele>
        <time>2019-08-30T12:38:07Z</time>
      </trkpt>
      <trkpt lat="46.92747" lon="4.90405">
        <ele>214.29</ele>
        <time>2019-08-30T12:38:10Z</time>
      </trkpt>
      <trkpt lat="46.92724" lon="4.90406">
        <ele>214.17</ele>
        <time>2019-08-30T12:38:13Z</time>
      </trkpt>
      <trkpt lat="46.927" lon="4.9041">
        <ele>213.47</ele>
        <time>2019-08-30T12:38:16Z</time>
      </trkpt>
      <trkpt lat="46.92676" lon="4.90411">
        <ele>212.69</ele>
        <time>2019-08-30T12:38:19Z</time>
      </trkpt>
      <trkpt lat="46.92651" lon="4.90412">
        <ele>212.39</ele>
        <time>2019-08-30T12:38:22Z</time>
      </trkpt>
      <trkpt lat="46.92626" lon="4.90413">
        <ele>211.68</ele>
        <time>2019-08-30T12:38:25Z</time>
      </trkpt>
      <trkpt lat="46.92601" lon="4.90415">
        <ele>211.39</ele>
        <time>2019-08-30T12:38:28Z</time>
      </trkpt>
      <trkpt lat="46.92576" lon="4.90416">
        <ele>211.38</ele>
        <time>2019-08-30T12:38:31Z</time>
      </trkpt>
      <trkpt lat="46.9255" lon="4.90418">
        <ele>210.68</ele>
        <time>2019-08-30T12:38:34Z</time>
      </trkpt>
      <trkpt lat="46.92527" lon="4.90429">
        <ele>210.45</ele>
        <time>2019-08-30T12:38:37Z</time>
      </trkpt>
      <trkpt lat="46.92508" lon="4.90451">
        <ele>210.38</ele>
        <time>2019-08-30T12:38:40Z</time>
      </trkpt>
      <trkpt lat="46.9249" lon="4.90475">
        <ele>210.38</ele>
        <time>2019-08-30T12:38:43Z</time>
      </trkpt>
      <trkpt lat="46.92471" lon="4.90494">
        <ele>210.38</ele>
        <time>2019-08-30T12:38:46Z</time>
      </trkpt>
      <trkpt lat="46.92448" lon="4.9051">
        <ele>210.38</ele>
        <time>2019-08-30T12:38:49Z</time>
      </trkpt>
      <trkpt lat="46.92427" lon="4.90526">
        <ele>210.38</ele>
        <time>2019-08-30T12:38:52Z</time>
      </trkpt>
      <trkpt lat="46.92407" lon="4.90542">
        <ele>210.38</ele>
        <time>2019-08-30T12:38:55Z</time>
      </trkpt>
      <trkpt lat="46.92386" lon="4.90556">
        <ele>208.77</ele>
        <time>2019-08-30T12:38:58Z</time>
      </trkpt>
      <trkpt lat="46.92365" lon="4.90571">
        <ele>209.09</ele>
        <time>2019-08-30T12:39:01Z</time>
      </trkpt>
      <trkpt lat="46.92343" lon="4.90582">
        <ele>208.4</ele>
        <time>2019-08-30T12:39:04Z</time>
      </trkpt>
      <trkpt lat="46.92321" lon="4.90588">
        <ele>208.32</ele>
        <time>2019-08-30T12:39:07Z</time>
      </trkpt>
      <trkpt lat="46.92298" lon="4.90591">
        <ele>207.41</ele>
        <time>2019-08-30T12:39:10Z</time>
      </trkpt>
      <trkpt lat="46.92277" lon="4.90593">
        <ele>208.29</ele>
        <time>2019-08-30T12:39:13Z</time>
      </trkpt>
      <trkpt lat="46.92254" lon="4.90596">
        <ele>207.68</ele>
        <time>2019-08-30T12:39:16Z</time>
      </trkpt>
      <trkpt lat="46.92232" lon="4.90598">
        <ele>208.36</ele>
        <time>2019-08-30T12:39:19Z</time>
      </trkpt>
      <trkpt lat="46.9221" lon="4.90599">
        <ele>209.36</ele>
        <time>2019-08-30T12:39:22Z</time>
      </trkpt>
      <trkpt lat="46.92188" lon="4.90601">
        <ele>208.41</ele>
        <time>2019-08-30T12:39:25Z</time>
      </trkpt>
      <trkpt lat="46.92165" lon="4.90601">
        <ele>208.59</ele>
        <time>2019-08-30T12:39:28Z</time>
      </trkpt>
      <trkpt lat="46.92142" lon="4.90601">
        <ele>208.45</ele>
        <time>2019-08-30T12:39:31Z</time>
      </trkpt>
      <trkpt lat="46.92118" lon="4.90599">
        <ele>209.29</ele>
        <time>2019-08-30T12:39:34Z</time>
      </trkpt>
      <trkpt lat="46.92094" lon="4.90598">
        <ele>208.68</ele>
        <time>2019-08-30T12:39:37Z</time>
      </trkpt>
      <trkpt lat="46.92069" lon="4.90596">
        <ele>208.45</ele>
        <time>2019-08-30T12:39:40Z</time>
      </trkpt>
      <trkpt lat="46.92043" lon="4.90594">
        <ele>207.41</ele>
        <time>2019-08-30T12:39:43Z</time>
      </trkpt>
      <trkpt lat="46.92017" lon="4.90593">
        <ele>206.47</ele>
        <time>2019-08-30T12:39:46Z</time>
      </trkpt>
      <trkpt lat="46.91991" lon="4.9059">
        <ele>206.45</ele>
        <time>2019-08-30T12:39:49Z</time>
      </trkpt>
      <trkpt lat="46.91965" lon="4.90587">
        <ele>205.47</ele>
        <time>2019-08-30T12:39:52Z</time>
      </trkpt>
      <trkpt lat="46.91947" lon="4.90583">
        <ele>205.88</ele>
        <time>2019-08-30T12:39:54Z</time>
      </trkpt>
      <trkpt lat="46.91922" lon="4.90576">
        <ele>206.37</ele>
        <time>2019-08-30T12:39:57Z</time>
      </trkpt>
      <trkpt lat="46.91898" lon="4.90569">
        <ele>205.47</ele>
        <time>2019-08-30T12:40:00Z</time>
      </trkpt>
      <trkpt lat="46.91874" lon="4.90562">
        <ele>203.71</ele>
        <time>2019-08-30T12:40:03Z</time>
      </trkpt>
      <trkpt lat="46.91853" lon="4.90548">
        <ele>202.42</ele>
        <time>2019-08-30T12:40:06Z</time>
      </trkpt>
      <trkpt lat="46.91836" lon="4.90522">
        <ele>202.45</ele>
        <time>2019-08-30T12:40:09Z</time>
      </trkpt>
      <trkpt lat="46.91819" lon="4.90499">
        <ele>201.68</ele>
        <time>2019-08-30T12:40:12Z</time>
      </trkpt>
      <trkpt lat="46.91798" lon="4.90485">
        <ele>200.48</ele>
        <time>2019-08-30T12:40:15Z</time>
      </trkpt>
      <trkpt lat="46.91774" lon="4.90479">
        <ele>199.48</ele>
        <time>2019-08-30T12:40:18Z</time>
      </trkpt>
      <trkpt lat="46.91752" lon="4.90488">
        <ele>201.27</ele>
        <time>2019-08-30T12:40:21Z</time>
      </trkpt>
      <trkpt lat="46.91733" lon="4.90506">
        <ele>201.17</ele>
        <time>2019-08-30T12:40:24Z</time>
      </trkpt>
      <trkpt lat="46.91714" lon="4.90526">
        <ele>202.08</ele>
        <time>2019-08-30T12:40:27Z</time>
      </trkpt>
      <trkpt lat="46.91694" lon="4.90541">
        <ele>202.31</ele>
        <time>2019-08-30T12:40:30Z</time>
      </trkpt>
      <trkpt lat="46.91674" lon="4.90557">
        <ele>201.47</ele>
        <time>2019-08-30T12:40:33Z</time>
      </trkpt>
      <trkpt lat="46.91653" lon="4.9057">
        <ele>200.69</ele>
        <time>2019-08-30T12:40:36Z</time>
      </trkpt>
      <trkpt lat="46.91631" lon="4.90578">
        <ele>200.45</ele>
        <time>2019-08-30T12:40:39Z</time>
      </trkpt>
      <trkpt lat="46.91608" lon="4.9058">
        <ele>200.17</ele>
        <time>2019-08-30T12:40:42Z</time>
      </trkpt>
      <trkpt lat="46.91587" lon="4.90584">
        <ele>199.47</ele>
        <time>2019-08-30T12:40:45Z</time>
      </trkpt>
      <trkpt lat="46.91566" lon="4.90588">
        <ele>199.39</ele>
        <time>2019-08-30T12:40:48Z</time>
      </trkpt>
      <trkpt lat="46.91544" lon="4.90598">
        <ele>199.59</ele>
        <time>2019-08-30T12:40:51Z</time>
      </trkpt>
      <trkpt lat="46.91522" lon="4.90611">
        <ele>199.39</ele>
        <time>2019-08-30T12:40:54Z</time>
      </trkpt>
      <trkpt lat="46.91501" lon="4.90625">
        <ele>198.68</ele>
        <time>2019-08-30T12:40:57Z</time>
      </trkpt>
      <trkpt lat="46.91476" lon="4.90639">
        <ele>198.18</ele>
        <time>2019-08-30T12:41:00Z</time>
      </trkpt>
      <trkpt lat="46.91459" lon="4.9065">
        <ele>197.66</ele>
        <time>2019-08-30T12:41:02Z</time>
      </trkpt>
      <trkpt lat="46.91443" lon="4.90665">
        <ele>195.8</ele>
        <time>2019-08-30T12:41:04Z</time>
      </trkpt>
      <trkpt lat="46.91426" lon="4.90682">
        <ele>192.9</ele>
        <time>2019-08-30T12:41:06Z</time>
      </trkpt>
      <trkpt lat="46.91408" lon="4.90702">
        <ele>191.03</ele>
        <time>2019-08-30T12:41:08Z</time>
      </trkpt>
      <trkpt lat="46.91389" lon="4.90724">
        <ele>189.74</ele>
        <time>2019-08-30T12:41:10Z</time>
      </trkpt>
      <trkpt lat="46.9137" lon="4.90745">
        <ele>187.81</ele>
        <time>2019-08-30T12:41:12Z</time>
      </trkpt>
      <trkpt lat="46.91351" lon="4.90764">
        <ele>187.42</ele>
        <time>2019-08-30T12:41:14Z</time>
      </trkpt>
      <trkpt lat="46.91334" lon="4.90788">
        <ele>186.48</ele>
        <time>2019-08-30T12:41:16Z</time>
      </trkpt>
      <trkpt lat="46.91323" lon="4.90816">
        <ele>186.39</ele>
        <time>2019-08-30T12:41:18Z</time>
      </trkpt>
      <trkpt lat="46.91318" lon="4.90844">
        <ele>185.68</ele>
        <time>2019-08-30T12:41:20Z</time>
      </trkpt>
      <trkpt lat="46.91313" lon="4.90879">
        <ele>187.97</ele>
        <time>2019-08-30T12:41:23Z</time>
      </trkpt>
      <trkpt lat="46.91306" lon="4.9091">
        <ele>191.25</ele>
        <time>2019-08-30T12:41:27Z</time>
      </trkpt>
      <trkpt lat="46.91297" lon="4.90933">
        <ele>191.09</ele>
        <time>2019-08-30T12:41:31Z</time>
      </trkpt>
      <trkpt lat="46.91289" lon="4.90958">
        <ele>194.98</ele>
        <time>2019-08-30T12:41:36Z</time>
      </trkpt>
      <trkpt lat="46.9128" lon="4.90987">
        <ele>196.08</ele>
        <time>2019-08-30T12:41:41Z</time>
      </trkpt>
      <trkpt lat="46.91269" lon="4.9101">
        <ele>195.18</ele>
        <time>2019-08-30T12:41:45Z</time>
      </trkpt>
      <trkpt lat="46.91258" lon="4.91034">
        <ele>196.36</ele>
        <time>2019-08-30T12:41:50Z</time>
      </trkpt>
      <trkpt lat="46.91249" lon="4.91057">
        <ele>195.18</ele>
        <time>2019-08-30T12:41:54Z</time>
      </trkpt>
      <trkpt lat="46.91239" lon="4.91088">
        <ele>196.08</ele>
        <time>2019-08-30T12:41:59Z</time>
      </trkpt>
      <trkpt lat="46.91231" lon="4.91112">
        <ele>196.44</ele>
        <time>2019-08-30T12:42:03Z</time>
      </trkpt>
      <trkpt lat="46.91222" lon="4.91139">
        <ele>197.08</ele>
        <time>2019-08-30T12:42:07Z</time>
      </trkpt>
      <trkpt lat="46.91211" lon="4.9117">
        <ele>196.41</ele>
        <time>2019-08-30T12:42:11Z</time>
      </trkpt>
      <trkpt lat="46.91202" lon="4.91196">
        <ele>196.38</ele>
        <time>2019-08-30T12:42:14Z</time>
      </trkpt>
      <trkpt lat="46.91193" lon="4.91224">
        <ele>196.32</ele>
        <time>2019-08-30T12:42:17Z</time>
      </trkpt>
      <trkpt lat="46.91185" lon="4.9125">
        <ele>197.29</ele>
        <time>2019-08-30T12:42:20Z</time>
      </trkpt>
      <trkpt lat="46.91175" lon="4.91278">
        <ele>197.38</ele>
        <time>2019-08-30T12:42:24Z</time>
      </trkpt>
      <trkpt lat="46.91165" lon="4.91306">
        <ele>194.78</ele>
        <time>2019-08-30T12:42:28Z</time>
      </trkpt>
      <trkpt lat="46.91157" lon="4.9133">
        <ele>193.48</ele>
        <time>2019-08-30T12:42:31Z</time>
      </trkpt>
      <trkpt lat="46.91147" lon="4.91363">
        <ele>191.71</ele>
        <time>2019-08-30T12:42:34Z</time>
      </trkpt>
      <trkpt lat="46.91143" lon="4.91401">
        <ele>192.09</ele>
        <time>2019-08-30T12:42:37Z</time>
      </trkpt>
      <trkpt lat="46.91143" lon="4.91435">
        <ele>194.32</ele>
        <time>2019-08-30T12:42:40Z</time>
      </trkpt>
      <trkpt lat="46.9114" lon="4.91464">
        <ele>194.38</ele>
        <time>2019-08-30T12:42:43Z</time>
      </trkpt>
      <trkpt lat="46.91145" lon="4.91497">
        <ele>195.36</ele>
        <time>2019-08-30T12:42:47Z</time>
      </trkpt>
      <trkpt lat="46.91147" lon="4.91525">
        <ele>194.68</ele>
        <time>2019-08-30T12:42:51Z</time>
      </trkpt>
      <trkpt lat="46.9115" lon="4.91552">
        <ele>196.08</ele>
        <time>2019-08-30T12:42:55Z</time>
      </trkpt>
      <trkpt lat="46.91155" lon="4.91577">
        <ele>195.41</ele>
        <time>2019-08-30T12:42:59Z</time>
      </trkpt>
      <trkpt lat="46.91159" lon="4.91605">
        <ele>196.38</ele>
        <time>2019-08-30T12:43:03Z</time>
      </trkpt>
      <trkpt lat="46.91163" lon="4.91631">
        <ele>195.47</ele>
        <time>2019-08-30T12:43:06Z</time>
      </trkpt>
      <trkpt lat="46.91165" lon="4.91667">
        <ele>196.38</ele>
        <time>2019-08-30T12:43:10Z</time>
      </trkpt>
      <trkpt lat="46.91172" lon="4.91694">
        <ele>196.38</ele>
        <time>2019-08-30T12:43:13Z</time>
      </trkpt>
      <trkpt lat="46.91179" lon="4.91725">
        <ele>197.37</ele>
        <time>2019-08-30T12:43:17Z</time>
      </trkpt>
      <trkpt lat="46.91187" lon="4.91752">
        <ele>197.38</ele>
        <time>2019-08-30T12:43:20Z</time>
      </trkpt>
      <trkpt lat="46.91192" lon="4.91778">
        <ele>195.77</ele>
        <time>2019-08-30T12:43:23Z</time>
      </trkpt>
      <trkpt lat="46.91197" lon="4.91806">
        <ele>196.37</ele>
        <time>2019-08-30T12:43:26Z</time>
      </trkpt>
      <trkpt lat="46.912" lon="4.91838">
        <ele>196.38</ele>
        <time>2019-08-30T12:43:29Z</time>
      </trkpt>
      <trkpt lat="46.91202" lon="4.91869">
        <ele>196.38</ele>
        <time>2019-08-30T12:43:32Z</time>
      </trkpt>
      <trkpt lat="46.91203" lon="4.91897">
        <ele>196.38</ele>
        <time>2019-08-30T12:43:35Z</time>
      </trkpt>
      <trkpt lat="46.91204" lon="4.91924">
        <ele>196.38</ele>
        <time>2019-08-30T12:43:38Z</time>
      </trkpt>
      <trkpt lat="46.91202" lon="4.91952">
        <ele>195.41</ele>
        <time>2019-08-30T12:43:41Z</time>
      </trkpt>
      <trkpt lat="46.91194" lon="4.91985">
        <ele>196.08</ele>
        <time>2019-08-30T12:43:44Z</time>
      </trkpt>
      <trkpt lat="46.91191" lon="4.92018">
        <ele>196.16</ele>
        <time>2019-08-30T12:43:47Z</time>
      </trkpt>
      <trkpt lat="46.91181" lon="4.9205">
        <ele>196.38</ele>
        <time>2019-08-30T12:43:50Z</time>
      </trkpt>
      <trkpt lat="46.91176" lon="4.92079">
        <ele>196.38</ele>
        <time>2019-08-30T12:43:53Z</time>
      </trkpt>
      <trkpt lat="46.91165" lon="4.92111">
        <ele>195.47</ele>
        <time>2019-08-30T12:43:57Z</time>
      </trkpt>
      <trkpt lat="46.91156" lon="4.92144">
        <ele>196.36</ele>
        <time>2019-08-30T12:44:01Z</time>
      </trkpt>
      <trkpt lat="46.91156" lon="4.92174">
        <ele>196.38</ele>
        <time>2019-08-30T12:44:04Z</time>
      </trkpt>
      <trkpt lat="46.91152" lon="4.92208">
        <ele>193.8</ele>
        <time>2019-08-30T12:44:08Z</time>
      </trkpt>
      <trkpt lat="46.91152" lon="4.92243">
        <ele>194.09</ele>
        <time>2019-08-30T12:44:12Z</time>
      </trkpt>
      <trkpt lat="46.91149" lon="4.92277">
        <ele>195.35</ele>
        <time>2019-08-30T12:44:16Z</time>
      </trkpt>
      <trkpt lat="46.91145" lon="4.92309">
        <ele>194.47</ele>
        <time>2019-08-30T12:44:20Z</time>
      </trkpt>
      <trkpt lat="46.91141" lon="4.92338">
        <ele>195.26</ele>
        <time>2019-08-30T12:44:24Z</time>
      </trkpt>
      <trkpt lat="46.91135" lon="4.92371">
        <ele>198.66</ele>
        <time>2019-08-30T12:44:28Z</time>
      </trkpt>
      <trkpt lat="46.91126" lon="4.924">
        <ele>202.02</ele>
        <time>2019-08-30T12:44:32Z</time>
      </trkpt>
      <trkpt lat="46.91127" lon="4.92433">
        <ele>198.81</ele>
        <time>2019-08-30T12:44:36Z</time>
      </trkpt>
      <trkpt lat="46.91121" lon="4.92467">
        <ele>197.39</ele>
        <time>2019-08-30T12:44:40Z</time>
      </trkpt>
      <trkpt lat="46.91112" lon="4.92501">
        <ele>197.32</ele>
        <time>2019-08-30T12:44:44Z</time>
      </trkpt>
      <trkpt lat="46.91104" lon="4.92525">
        <ele>196.41</ele>
        <time>2019-08-30T12:44:47Z</time>
      </trkpt>
      <trkpt lat="46.91095" lon="4.92554">
        <ele>196.38</ele>
        <time>2019-08-30T12:44:51Z</time>
      </trkpt>
      <trkpt lat="46.91089" lon="4.92581">
        <ele>196.38</ele>
        <time>2019-08-30T12:44:55Z</time>
      </trkpt>
      <trkpt lat="46.91082" lon="4.92606">
        <ele>196.38</ele>
        <time>2019-08-30T12:44:58Z</time>
      </trkpt>
      <trkpt lat="46.91083" lon="4.92633">
        <ele>196.38</ele>
        <time>2019-08-30T12:45:01Z</time>
      </trkpt>
      <trkpt lat="46.91078" lon="4.92659">
        <ele>196.59</ele>
        <time>2019-08-30T12:45:04Z</time>
      </trkpt>
      <trkpt lat="46.91071" lon="4.92691">
        <ele>196.39</ele>
        <time>2019-08-30T12:45:07Z</time>
      </trkpt>
      <trkpt lat="46.91063" lon="4.92717">
        <ele>196.38</ele>
        <time>2019-08-30T12:45:10Z</time>
      </trkpt>
      <trkpt lat="46.91057" lon="4.92744">
        <ele>196.38</ele>
        <time>2019-08-30T12:45:13Z</time>
      </trkpt>
      <trkpt lat="46.91045" lon="4.92766">
        <ele>197.08</ele>
        <time>2019-08-30T12:45:16Z</time>
      </trkpt>
      <trkpt lat="46.91038" lon="4.92791">
        <ele>197.37</ele>
        <time>2019-08-30T12:45:19Z</time>
      </trkpt>
      <trkpt lat="46.91028" lon="4.92816">
        <ele>197.38</ele>
        <time>2019-08-30T12:45:22Z</time>
      </trkpt>
      <trkpt lat="46.9102" lon="4.92844">
        <ele>198.29</ele>
        <time>2019-08-30T12:45:25Z</time>
      </trkpt>
      <trkpt lat="46.91012" lon="4.92876">
        <ele>197.47</ele>
        <time>2019-08-30T12:45:29Z</time>
      </trkpt>
      <trkpt lat="46.91003" lon="4.929">
        <ele>196.69</ele>
        <time>2019-08-30T12:45:32Z</time>
      </trkpt>
      <trkpt lat="46.90995" lon="4.92928">
        <ele>197.36</ele>
        <time>2019-08-30T12:45:35Z</time>
      </trkpt>
      <trkpt lat="46.90986" lon="4.92957">
        <ele>197.38</ele>
        <time>2019-08-30T12:45:38Z</time>
      </trkpt>
      <trkpt lat="46.90981" lon="4.92986">
        <ele>198.99</ele>
        <time>2019-08-30T12:45:41Z</time>
      </trkpt>
      <trkpt lat="46.90974" lon="4.93012">
        <ele>200.84</ele>
        <time>2019-08-30T12:45:44Z</time>
      </trkpt>
      <trkpt lat="46.90973" lon="4.93044">
        <ele>197.18</ele>
        <time>2019-08-30T12:45:47Z</time>
      </trkpt>
      <trkpt lat="46.9097" lon="4.93078">
        <ele>196.19</ele>
        <time>2019-08-30T12:45:50Z</time>
      </trkpt>
      <trkpt lat="46.90973" lon="4.93113">
        <ele>194.83</ele>
        <time>2019-08-30T12:45:53Z</time>
      </trkpt>
      <trkpt lat="46.90973" lon="4.93148">
        <ele>192.72</ele>
        <time>2019-08-30T12:45:56Z</time>
      </trkpt>
      <trkpt lat="46.90975" lon="4.93187">
        <ele>191.48</ele>
        <time>2019-08-30T12:45:59Z</time>
      </trkpt>
      <trkpt lat="46.90977" lon="4.93217">
        <ele>189.78</ele>
        <time>2019-08-30T12:46:01Z</time>
      </trkpt>
      <trkpt lat="46.90982" lon="4.93249">
        <ele>188.72</ele>
        <time>2019-08-30T12:46:03Z</time>
      </trkpt>
      <trkpt lat="46.90987" lon="4.93282">
        <ele>188.9</ele>
        <time>2019-08-30T12:46:05Z</time>
      </trkpt>
      <trkpt lat="46.9098" lon="4.93317">
        <ele>187.55</ele>
        <time>2019-08-30T12:46:08Z</time>
      </trkpt>
      <trkpt lat="46.90957" lon="4.93329">
        <ele>188.09</ele>
        <time>2019-08-30T12:46:11Z</time>
      </trkpt>
      <trkpt lat="46.90933" lon="4.93334">
        <ele>189.35</ele>
        <time>2019-08-30T12:46:14Z</time>
      </trkpt>
      <trkpt lat="46.90908" lon="4.93344">
        <ele>189.32</ele>
        <time>2019-08-30T12:46:17Z</time>
      </trkpt>
      <trkpt lat="46.90886" lon="4.93352">
        <ele>189.8</ele>
        <time>2019-08-30T12:46:20Z</time>
      </trkpt>
      <trkpt lat="46.90863" lon="4.93363">
        <ele>189.39</ele>
        <time>2019-08-30T12:46:23Z</time>
      </trkpt>
      <trkpt lat="46.90842" lon="4.93373">
        <ele>188.62</ele>
        <time>2019-08-30T12:46:26Z</time>
      </trkpt>
      <trkpt lat="46.90819" lon="4.93384">
        <ele>187.35</ele>
        <time>2019-08-30T12:46:29Z</time>
      </trkpt>
      <trkpt lat="46.90795" lon="4.93395">
        <ele>183.83</ele>
        <time>2019-08-30T12:46:32Z</time>
      </trkpt>
      <trkpt lat="46.90772" lon="4.93409">
        <ele>183.46</ele>
        <time>2019-08-30T12:46:35Z</time>
      </trkpt>
      <trkpt lat="46.90753" lon="4.93429">
        <ele>182.41</ele>
        <time>2019-08-30T12:46:38Z</time>
      </trkpt>
      <trkpt lat="46.90735" lon="4.93453">
        <ele>183.36</ele>
        <time>2019-08-30T12:46:41Z</time>
      </trkpt>
      <trkpt lat="46.90722" lon="4.93476">
        <ele>183.38</ele>
        <time>2019-08-30T12:46:44Z</time>
      </trkpt>
      <trkpt lat="46.90707" lon="4.93496">
        <ele>183.38</ele>
        <time>2019-08-30T12:46:47Z</time>
      </trkpt>
      <trkpt lat="46.9069" lon="4.93515">
        <ele>182.68</ele>
        <time>2019-08-30T12:46:51Z</time>
      </trkpt>
      <trkpt lat="46.90678" lon="4.93534">
        <ele>183.47</ele>
        <time>2019-08-30T12:47:23Z</time>
      </trkpt>
      <trkpt lat="46.90657" lon="4.9355">
        <ele>184.37</ele>
        <time>2019-08-30T12:47:29Z</time>
      </trkpt>
      <trkpt lat="46.90637" lon="4.93562">
        <ele>184.59</ele>
        <time>2019-08-30T12:47:34Z</time>
      </trkpt>
      <trkpt lat="46.90619" lon="4.93571">
        <ele>183.6</ele>
        <time>2019-08-30T12:47:38Z</time>
      </trkpt>
      <trkpt lat="46.90598" lon="4.93582">
        <ele>185.29</ele>
        <time>2019-08-30T12:47:42Z</time>
      </trkpt>
      <trkpt lat="46.90576" lon="4.93594">
        <ele>186.37</ele>
        <time>2019-08-30T12:47:46Z</time>
      </trkpt>
      <trkpt lat="46.90554" lon="4.93605">
        <ele>185.33</ele>
        <time>2019-08-30T12:47:50Z</time>
      </trkpt>
      <trkpt lat="46.90532" lon="4.93615">
        <ele>185.38</ele>
        <time>2019-08-30T12:47:54Z</time>
      </trkpt>
      <trkpt lat="46.9051" lon="4.93623">
        <ele>185.36</ele>
        <time>2019-08-30T12:47:58Z</time>
      </trkpt>
      <trkpt lat="46.90488" lon="4.93635">
        <ele>185.3</ele>
        <time>2019-08-30T12:48:02Z</time>
      </trkpt>
      <trkpt lat="46.90468" lon="4.93647">
        <ele>186.06</ele>
        <time>2019-08-30T12:48:06Z</time>
      </trkpt>
      <trkpt lat="46.90448" lon="4.93657">
        <ele>184.48</ele>
        <time>2019-08-30T12:48:10Z</time>
      </trkpt>
      <trkpt lat="46.90425" lon="4.93666">
        <ele>185.36</ele>
        <time>2019-08-30T12:48:14Z</time>
      </trkpt>
      <trkpt lat="46.90403" lon="4.93675">
        <ele>184.39</ele>
        <time>2019-08-30T12:48:18Z</time>
      </trkpt>
      <trkpt lat="46.90381" lon="4.93686">
        <ele>184.17</ele>
        <time>2019-08-30T12:48:22Z</time>
      </trkpt>
      <trkpt lat="46.90359" lon="4.93696">
        <ele>184.44</ele>
        <time>2019-08-30T12:48:26Z</time>
      </trkpt>
      <trkpt lat="46.90342" lon="4.93705">
        <ele>184.38</ele>
        <time>2019-08-30T12:48:29Z</time>
      </trkpt>
      <trkpt lat="46.90323" lon="4.93724">
        <ele>183.68</ele>
        <time>2019-08-30T12:48:33Z</time>
      </trkpt>
      <trkpt lat="46.9031" lon="4.93743">
        <ele>184.09</ele>
        <time>2019-08-30T12:48:36Z</time>
      </trkpt>
      <trkpt lat="46.90296" lon="4.9377">
        <ele>187.96</ele>
        <time>2019-08-30T12:48:40Z</time>
      </trkpt>
      <trkpt lat="46.9028" lon="4.93797">
        <ele>189.35</ele>
        <time>2019-08-30T12:48:44Z</time>
      </trkpt>
      <trkpt lat="46.90265" lon="4.93826">
        <ele>188.7</ele>
        <time>2019-08-30T12:48:48Z</time>
      </trkpt>
      <trkpt lat="46.90252" lon="4.93846">
        <ele>188.45</ele>
        <time>2019-08-30T12:48:51Z</time>
      </trkpt>
      <trkpt lat="46.90241" lon="4.93868">
        <ele>187.47</ele>
        <time>2019-08-30T12:48:54Z</time>
      </trkpt>
      <trkpt lat="46.9023" lon="4.93889">
        <ele>186.41</ele>
        <time>2019-08-30T12:48:57Z</time>
      </trkpt>
      <trkpt lat="46.90217" lon="4.93908">
        <ele>187.99</ele>
        <time>2019-08-30T12:49:00Z</time>
      </trkpt>
      <trkpt lat="46.90205" lon="4.93929">
        <ele>189.01</ele>
        <time>2019-08-30T12:49:03Z</time>
      </trkpt>
      <trkpt lat="46.90194" lon="4.9395">
        <ele>189.44</ele>
        <time>2019-08-30T12:49:06Z</time>
      </trkpt>
      <trkpt lat="46.90181" lon="4.93972">
        <ele>188.68</ele>
        <time>2019-08-30T12:49:09Z</time>
      </trkpt>
      <trkpt lat="46.90169" lon="4.93995">
        <ele>189.3</ele>
        <time>2019-08-30T12:49:12Z</time>
      </trkpt>
      <trkpt lat="46.90157" lon="4.94018">
        <ele>189.32</ele>
        <time>2019-08-30T12:49:15Z</time>
      </trkpt>
      <trkpt lat="46.90145" lon="4.94041">
        <ele>186.65</ele>
        <time>2019-08-30T12:49:18Z</time>
      </trkpt>
      <trkpt lat="46.90131" lon="4.94068">
        <ele>187.07</ele>
        <time>2019-08-30T12:49:22Z</time>
      </trkpt>
      <trkpt lat="46.9012" lon="4.9409">
        <ele>188.28</ele>
        <time>2019-08-30T12:49:25Z</time>
      </trkpt>
      <trkpt lat="46.90106" lon="4.94119">
        <ele>188.11</ele>
        <time>2019-08-30T12:49:29Z</time>
      </trkpt>
      <trkpt lat="46.90096" lon="4.94143">
        <ele>188.1</ele>
        <time>2019-08-30T12:49:32Z</time>
      </trkpt>
      <trkpt lat="46.90086" lon="4.94166">
        <ele>187.4</ele>
        <time>2019-08-30T12:49:35Z</time>
      </trkpt>
      <trkpt lat="46.90072" lon="4.94193">
        <ele>186.14</ele>
        <time>2019-08-30T12:49:39Z</time>
      </trkpt>
      <trkpt lat="46.90056" lon="4.94217">
        <ele>185.39</ele>
        <time>2019-08-30T12:49:43Z</time>
      </trkpt>
      <trkpt lat="46.90044" lon="4.94237">
        <ele>185.66</ele>
        <time>2019-08-30T12:49:46Z</time>
      </trkpt>
      <trkpt lat="46.90031" lon="4.94257">
        <ele>184.69</ele>
        <time>2019-08-30T12:49:49Z</time>
      </trkpt>
      <trkpt lat="46.90016" lon="4.94282">
        <ele>186.29</ele>
        <time>2019-08-30T12:49:53Z</time>
      </trkpt>
      <trkpt lat="46.90003" lon="4.94301">
        <ele>186.32</ele>
        <time>2019-08-30T12:49:56Z</time>
      </trkpt>
      <trkpt lat="46.89985" lon="4.94326">
        <ele>188.35</ele>
        <time>2019-08-30T12:50:00Z</time>
      </trkpt>
      <trkpt lat="46.8997" lon="4.94344">
        <ele>187.41</ele>
        <time>2019-08-30T12:50:03Z</time>
      </trkpt>
      <trkpt lat="46.89957" lon="4.94362">
        <ele>186.68</ele>
        <time>2019-08-30T12:50:06Z</time>
      </trkpt>
      <trkpt lat="46.89943" lon="4.94381">
        <ele>186.39</ele>
        <time>2019-08-30T12:50:09Z</time>
      </trkpt>
      <trkpt lat="46.8993" lon="4.944">
        <ele>186.11</ele>
        <time>2019-08-30T12:50:12Z</time>
      </trkpt>
      <trkpt lat="46.89921" lon="4.94423">
        <ele>186.38</ele>
        <time>2019-08-30T12:50:15Z</time>
      </trkpt>
      <trkpt lat="46.89913" lon="4.94449">
        <ele>186.32</ele>
        <time>2019-08-30T12:50:18Z</time>
      </trkpt>
      <trkpt lat="46.89907" lon="4.94476">
        <ele>186.38</ele>
        <time>2019-08-30T12:50:21Z</time>
      </trkpt>
      <trkpt lat="46.89905" lon="4.94511">
        <ele>187.16</ele>
        <time>2019-08-30T12:50:25Z</time>
      </trkpt>
      <trkpt lat="46.89905" lon="4.94538">
        <ele>187.44</ele>
        <time>2019-08-30T12:50:28Z</time>
      </trkpt>
      <trkpt lat="46.89903" lon="4.94568">
        <ele>187.59</ele>
        <time>2019-08-30T12:50:31Z</time>
      </trkpt>
      <trkpt lat="46.89901" lon="4.94595">
        <ele>188.09</ele>
        <time>2019-08-30T12:50:34Z</time>
      </trkpt>
      <trkpt lat="46.89898" lon="4.94623">
        <ele>186.77</ele>
        <time>2019-08-30T12:50:37Z</time>
      </trkpt>
      <trkpt lat="46.89896" lon="4.94652">
        <ele>186.39</ele>
        <time>2019-08-30T12:50:40Z</time>
      </trkpt>
      <trkpt lat="46.89892" lon="4.94679">
        <ele>187.15</ele>
        <time>2019-08-30T12:50:43Z</time>
      </trkpt>
      <trkpt lat="46.89886" lon="4.94706">
        <ele>185.77</ele>
        <time>2019-08-30T12:50:46Z</time>
      </trkpt>
      <trkpt lat="46.89873" lon="4.94729">
        <ele>186.09</ele>
        <time>2019-08-30T12:50:49Z</time>
      </trkpt>
      <trkpt lat="46.89855" lon="4.9474">
        <ele>188.2</ele>
        <time>2019-08-30T12:50:52Z</time>
      </trkpt>
      <trkpt lat="46.89834" lon="4.94742">
        <ele>186.7</ele>
        <time>2019-08-30T12:50:55Z</time>
      </trkpt>
      <trkpt lat="46.89814" lon="4.94742">
        <ele>184.51</ele>
        <time>2019-08-30T12:50:58Z</time>
      </trkpt>
      <trkpt lat="46.89795" lon="4.94743">
        <ele>185.63</ele>
        <time>2019-08-30T12:51:01Z</time>
      </trkpt>
      <trkpt lat="46.89776" lon="4.94742">
        <ele>186.36</ele>
        <time>2019-08-30T12:51:04Z</time>
      </trkpt>
      <trkpt lat="46.89758" lon="4.94746">
        <ele>186.32</ele>
        <time>2019-08-30T12:51:07Z</time>
      </trkpt>
      <trkpt lat="46.89742" lon="4.94761">
        <ele>187.29</ele>
        <time>2019-08-30T12:51:10Z</time>
      </trkpt>
      <trkpt lat="46.89724" lon="4.94778">
        <ele>186.9</ele>
        <time>2019-08-30T12:51:13Z</time>
      </trkpt>
      <trkpt lat="46.89709" lon="4.94794">
        <ele>188.07</ele>
        <time>2019-08-30T12:51:16Z</time>
      </trkpt>
      <trkpt lat="46.89691" lon="4.94816">
        <ele>189.14</ele>
        <time>2019-08-30T12:51:20Z</time>
      </trkpt>
      <trkpt lat="46.8968" lon="4.94839">
        <ele>187.7</ele>
        <time>2019-08-30T12:51:23Z</time>
      </trkpt>
      <trkpt lat="46.8967" lon="4.94861">
        <ele>188.3</ele>
        <time>2019-08-30T12:51:26Z</time>
      </trkpt>
      <trkpt lat="46.89658" lon="4.94884">
        <ele>189.56</ele>
        <time>2019-08-30T12:51:29Z</time>
      </trkpt>
      <trkpt lat="46.89643" lon="4.94903">
        <ele>189.66</ele>
        <time>2019-08-30T12:51:32Z</time>
      </trkpt>
      <trkpt lat="46.89629" lon="4.9492">
        <ele>189.39</ele>
        <time>2019-08-30T12:51:35Z</time>
      </trkpt>
      <trkpt lat="46.89613" lon="4.94937">
        <ele>189.17</ele>
        <time>2019-08-30T12:51:38Z</time>
      </trkpt>
      <trkpt lat="46.89598" lon="4.94954">
        <ele>189.38</ele>
        <time>2019-08-30T12:51:41Z</time>
      </trkpt>
      <trkpt lat="46.89581" lon="4.94967">
        <ele>190.15</ele>
        <time>2019-08-30T12:51:44Z</time>
      </trkpt>
      <trkpt lat="46.89563" lon="4.94977">
        <ele>190.38</ele>
        <time>2019-08-30T12:51:47Z</time>
      </trkpt>
      <trkpt lat="46.89544" lon="4.94984">
        <ele>190.11</ele>
        <time>2019-08-30T12:51:50Z</time>
      </trkpt>
      <trkpt lat="46.89524" lon="4.94991">
        <ele>191.99</ele>
        <time>2019-08-30T12:51:53Z</time>
      </trkpt>
      <trkpt lat="46.89506" lon="4.94998">
        <ele>191.4</ele>
        <time>2019-08-30T12:51:56Z</time>
      </trkpt>
      <trkpt lat="46.89489" lon="4.95005">
        <ele>191.45</ele>
        <time>2019-08-30T12:51:59Z</time>
      </trkpt>
      <trkpt lat="46.89467" lon="4.95012">
        <ele>190.18</ele>
        <time>2019-08-30T12:52:03Z</time>
      </trkpt>
      <trkpt lat="46.89447" lon="4.95021">
        <ele>188.69</ele>
        <time>2019-08-30T12:52:07Z</time>
      </trkpt>
      <trkpt lat="46.89428" lon="4.95036">
        <ele>189.09</ele>
        <time>2019-08-30T12:52:11Z</time>
      </trkpt>
      <trkpt lat="46.89412" lon="4.95057">
        <ele>188.38</ele>
        <time>2019-08-30T12:52:16Z</time>
      </trkpt>
      <trkpt lat="46.89401" lon="4.95087">
        <ele>188.33</ele>
        <time>2019-08-30T12:52:22Z</time>
      </trkpt>
      <trkpt lat="46.89389" lon="4.95115">
        <ele>189.99</ele>
        <time>2019-08-30T12:52:26Z</time>
      </trkpt>
      <trkpt lat="46.89377" lon="4.95144">
        <ele>189.39</ele>
        <time>2019-08-30T12:52:30Z</time>
      </trkpt>
      <trkpt lat="46.89367" lon="4.95166">
        <ele>189.66</ele>
        <time>2019-08-30T12:52:33Z</time>
      </trkpt>
      <trkpt lat="46.89358" lon="4.95195">
        <ele>190.4</ele>
        <time>2019-08-30T12:52:37Z</time>
      </trkpt>
      <trkpt lat="46.89346" lon="4.95224">
        <ele>189.39</ele>
        <time>2019-08-30T12:52:41Z</time>
      </trkpt>
      <trkpt lat="46.89336" lon="4.95251">
        <ele>187.71</ele>
        <time>2019-08-30T12:52:44Z</time>
      </trkpt>
      <trkpt lat="46.89325" lon="4.9528">
        <ele>186.69</ele>
        <time>2019-08-30T12:52:47Z</time>
      </trkpt>
      <trkpt lat="46.89307" lon="4.95303">
        <ele>186.6</ele>
        <time>2019-08-30T12:52:50Z</time>
      </trkpt>
      <trkpt lat="46.89288" lon="4.95322">
        <ele>186.39</ele>
        <time>2019-08-30T12:52:53Z</time>
      </trkpt>
      <trkpt lat="46.89271" lon="4.95349">
        <ele>186.32</ele>
        <time>2019-08-30T12:52:56Z</time>
      </trkpt>
      <trkpt lat="46.89256" lon="4.95372">
        <ele>186.44</ele>
        <time>2019-08-30T12:52:59Z</time>
      </trkpt>
      <trkpt lat="46.89244" lon="4.95399">
        <ele>186.38</ele>
        <time>2019-08-30T12:53:02Z</time>
      </trkpt>
      <trkpt lat="46.89236" lon="4.95424">
        <ele>180.8</ele>
        <time>2019-08-30T12:53:08Z</time>
      </trkpt>
      <trkpt lat="46.89244" lon="4.9545">
        <ele>178.43</ele>
        <time>2019-08-30T12:53:12Z</time>
      </trkpt>
      <trkpt lat="46.89257" lon="4.95477">
        <ele>171.85</ele>
        <time>2019-08-30T12:53:16Z</time>
      </trkpt>
      <trkpt lat="46.89266" lon="4.95501">
        <ele>172.31</ele>
        <time>2019-08-30T12:53:19Z</time>
      </trkpt>
      <trkpt lat="46.89279" lon="4.95523">
        <ele>171.47</ele>
        <time>2019-08-30T12:53:22Z</time>
      </trkpt>
      <trkpt lat="46.89291" lon="4.9555">
        <ele>170.41</ele>
        <time>2019-08-30T12:53:26Z</time>
      </trkpt>
      <trkpt lat="46.89296" lon="4.95576">
        <ele>172.76</ele>
        <time>2019-08-30T12:53:29Z</time>
      </trkpt>
      <trkpt lat="46.89302" lon="4.95607">
        <ele>173.21</ele>
        <time>2019-08-30T12:53:33Z</time>
      </trkpt>
      <trkpt lat="46.89308" lon="4.95641">
        <ele>173.38</ele>
        <time>2019-08-30T12:53:37Z</time>
      </trkpt>
      <trkpt lat="46.89312" lon="4.95666">
        <ele>173.38</ele>
        <time>2019-08-30T12:53:40Z</time>
      </trkpt>
      <trkpt lat="46.89318" lon="4.95693">
        <ele>172.47</ele>
        <time>2019-08-30T12:53:43Z</time>
      </trkpt>
      <trkpt lat="46.89324" lon="4.95721">
        <ele>171.69</ele>
        <time>2019-08-30T12:53:46Z</time>
      </trkpt>
      <trkpt lat="46.89331" lon="4.95747">
        <ele>171.39</ele>
        <time>2019-08-30T12:53:49Z</time>
      </trkpt>
      <trkpt lat="46.89335" lon="4.95773">
        <ele>172.08</ele>
        <time>2019-08-30T12:53:52Z</time>
      </trkpt>
      <trkpt lat="46.89338" lon="4.95803">
        <ele>172.1</ele>
        <time>2019-08-30T12:53:55Z</time>
      </trkpt>
      <trkpt lat="46.89342" lon="4.95837">
        <ele>172.38</ele>
        <time>2019-08-30T12:53:59Z</time>
      </trkpt>
      <trkpt lat="46.89346" lon="4.9587">
        <ele>173.08</ele>
        <time>2019-08-30T12:54:03Z</time>
      </trkpt>
      <trkpt lat="46.8935" lon="4.95897">
        <ele>173.37</ele>
        <time>2019-08-30T12:54:06Z</time>
      </trkpt>
      <trkpt lat="46.89351" lon="4.95924">
        <ele>171.37</ele>
        <time>2019-08-30T12:54:09Z</time>
      </trkpt>
      <trkpt lat="46.89355" lon="4.9595">
        <ele>171.38</ele>
        <time>2019-08-30T12:54:12Z</time>
      </trkpt>
      <trkpt lat="46.89358" lon="4.95977">
        <ele>171.38</ele>
        <time>2019-08-30T12:54:15Z</time>
      </trkpt>
      <trkpt lat="46.8936" lon="4.96004">
        <ele>172.99</ele>
        <time>2019-08-30T12:54:18Z</time>
      </trkpt>
      <trkpt lat="46.89363" lon="4.9603">
        <ele>174.28</ele>
        <time>2019-08-30T12:54:21Z</time>
      </trkpt>
      <trkpt lat="46.89365" lon="4.96057">
        <ele>174.38</ele>
        <time>2019-08-30T12:54:24Z</time>
      </trkpt>
      <trkpt lat="46.89367" lon="4.96085">
        <ele>175.78</ele>
        <time>2019-08-30T12:54:27Z</time>
      </trkpt>
      <trkpt lat="46.89367" lon="4.96113">
        <ele>174.69</ele>
        <time>2019-08-30T12:54:30Z</time>
      </trkpt>
      <trkpt lat="46.89369" lon="4.96143">
        <ele>175.36</ele>
        <time>2019-08-30T12:54:33Z</time>
      </trkpt>
      <trkpt lat="46.89368" lon="4.96173">
        <ele>173.44</ele>
        <time>2019-08-30T12:54:36Z</time>
      </trkpt>
      <trkpt lat="46.8937" lon="4.96203">
        <ele>173.59</ele>
        <time>2019-08-30T12:54:39Z</time>
      </trkpt>
      <trkpt lat="46.89372" lon="4.96232">
        <ele>173.45</ele>
        <time>2019-08-30T12:54:42Z</time>
      </trkpt>
      <trkpt lat="46.89374" lon="4.96261">
        <ele>173.11</ele>
        <time>2019-08-30T12:54:45Z</time>
      </trkpt>
      <trkpt lat="46.89377" lon="4.96292">
        <ele>173.38</ele>
        <time>2019-08-30T12:54:48Z</time>
      </trkpt>
      <trkpt lat="46.8938" lon="4.96322">
        <ele>173.38</ele>
        <time>2019-08-30T12:54:51Z</time>
      </trkpt>
      <trkpt lat="46.89383" lon="4.96349">
        <ele>172.47</ele>
        <time>2019-08-30T12:54:54Z</time>
      </trkpt>
      <trkpt lat="46.89386" lon="4.96379">
        <ele>173.3</ele>
        <time>2019-08-30T12:54:57Z</time>
      </trkpt>
      <trkpt lat="46.8939" lon="4.96404">
        <ele>175.05</ele>
        <time>2019-08-30T12:55:00Z</time>
      </trkpt>
      <trkpt lat="46.89401" lon="4.96435">
        <ele>176.08</ele>
        <time>2019-08-30T12:55:04Z</time>
      </trkpt>
      <trkpt lat="46.89408" lon="4.96464">
        <ele>173.78</ele>
        <time>2019-08-30T12:55:08Z</time>
      </trkpt>
      <trkpt lat="46.89409" lon="4.96496">
        <ele>174.38</ele>
        <time>2019-08-30T12:55:12Z</time>
      </trkpt>
      <trkpt lat="46.89421" lon="4.96525">
        <ele>175.37</ele>
        <time>2019-08-30T12:55:16Z</time>
      </trkpt>
      <trkpt lat="46.89433" lon="4.96552">
        <ele>176.36</ele>
        <time>2019-08-30T12:55:20Z</time>
      </trkpt>
      <trkpt lat="46.89442" lon="4.96576">
        <ele>176.11</ele>
        <time>2019-08-30T12:55:23Z</time>
      </trkpt>
      <trkpt lat="46.89453" lon="4.96598">
        <ele>177.29</ele>
        <time>2019-08-30T12:55:26Z</time>
      </trkpt>
      <trkpt lat="46.89464" lon="4.96624">
        <ele>178.35</ele>
        <time>2019-08-30T12:55:29Z</time>
      </trkpt>
      <trkpt lat="46.89474" lon="4.96653">
        <ele>176.56</ele>
        <time>2019-08-30T12:55:33Z</time>
      </trkpt>
      <trkpt lat="46.89488" lon="4.96681">
        <ele>177.59</ele>
        <time>2019-08-30T12:55:37Z</time>
      </trkpt>
      <trkpt lat="46.89501" lon="4.96707">
        <ele>176.68</ele>
        <time>2019-08-30T12:55:41Z</time>
      </trkpt>
      <trkpt lat="46.89513" lon="4.96729">
        <ele>175.15</ele>
        <time>2019-08-30T12:55:44Z</time>
      </trkpt>
      <trkpt lat="46.89525" lon="4.9675">
        <ele>176.08</ele>
        <time>2019-08-30T12:55:47Z</time>
      </trkpt>
      <trkpt lat="46.89538" lon="4.96776">
        <ele>176.09</ele>
        <time>2019-08-30T12:55:51Z</time>
      </trkpt>
      <trkpt lat="46.8955" lon="4.96805">
        <ele>175.39</ele>
        <time>2019-08-30T12:55:55Z</time>
      </trkpt>
      <trkpt lat="46.89561" lon="4.96833">
        <ele>173.75</ele>
        <time>2019-08-30T12:55:59Z</time>
      </trkpt>
      <trkpt lat="46.89575" lon="4.96861">
        <ele>172.48</ele>
        <time>2019-08-30T12:56:03Z</time>
      </trkpt>
      <trkpt lat="46.8959" lon="4.96884">
        <ele>174.35</ele>
        <time>2019-08-30T12:56:07Z</time>
      </trkpt>
      <trkpt lat="46.89602" lon="4.96908">
        <ele>175.44</ele>
        <time>2019-08-30T12:56:11Z</time>
      </trkpt>
      <trkpt lat="46.89613" lon="4.96929">
        <ele>174.68</ele>
        <time>2019-08-30T12:56:14Z</time>
      </trkpt>
      <trkpt lat="46.89629" lon="4.96956">
        <ele>173.39</ele>
        <time>2019-08-30T12:56:18Z</time>
      </trkpt>
      <trkpt lat="46.89646" lon="4.96978">
        <ele>172.33</ele>
        <time>2019-08-30T12:56:22Z</time>
      </trkpt>
      <trkpt lat="46.89664" lon="4.97001">
        <ele>171.49</ele>
        <time>2019-08-30T12:56:26Z</time>
      </trkpt>
      <trkpt lat="46.89679" lon="4.97025">
        <ele>172.1</ele>
        <time>2019-08-30T12:56:30Z</time>
      </trkpt>
      <trkpt lat="46.89693" lon="4.97043">
        <ele>171.19</ele>
        <time>2019-08-30T12:56:33Z</time>
      </trkpt>
      <trkpt lat="46.89709" lon="4.97067">
        <ele>171.65</ele>
        <time>2019-08-30T12:56:37Z</time>
      </trkpt>
      <trkpt lat="46.89722" lon="4.97085">
        <ele>172.3</ele>
        <time>2019-08-30T12:56:40Z</time>
      </trkpt>
      <trkpt lat="46.89738" lon="4.9711">
        <ele>172.38</ele>
        <time>2019-08-30T12:56:44Z</time>
      </trkpt>
      <trkpt lat="46.89753" lon="4.97133">
        <ele>171.39</ele>
        <time>2019-08-30T12:56:48Z</time>
      </trkpt>
      <trkpt lat="46.89769" lon="4.97151">
        <ele>172.36</ele>
        <time>2019-08-30T12:56:52Z</time>
      </trkpt>
      <trkpt lat="46.8979" lon="4.97149">
        <ele>173.31</ele>
        <time>2019-08-30T12:56:56Z</time>
      </trkpt>
      <trkpt lat="46.89813" lon="4.97143">
        <ele>174.08</ele>
        <time>2019-08-30T12:57:00Z</time>
      </trkpt>
      <trkpt lat="46.89836" lon="4.97139">
        <ele>173.47</ele>
        <time>2019-08-30T12:57:04Z</time>
      </trkpt>
      <trkpt lat="46.89854" lon="4.97135">
        <ele>173.18</ele>
        <time>2019-08-30T12:57:07Z</time>
      </trkpt>
      <trkpt lat="46.89873" lon="4.9713">
        <ele>173.38</ele>
        <time>2019-08-30T12:57:10Z</time>
      </trkpt>
      <trkpt lat="46.89892" lon="4.97128">
        <ele>173.38</ele>
        <time>2019-08-30T12:57:13Z</time>
      </trkpt>
      <trkpt lat="46.8991" lon="4.97124">
        <ele>173.38</ele>
        <time>2019-08-30T12:57:16Z</time>
      </trkpt>
      <trkpt lat="46.89929" lon="4.97119">
        <ele>172.41</ele>
        <time>2019-08-30T12:57:19Z</time>
      </trkpt>
      <trkpt lat="46.8995" lon="4.97113">
        <ele>173.38</ele>
        <time>2019-08-30T12:57:23Z</time>
      </trkpt>
      <trkpt lat="46.89973" lon="4.97108">
        <ele>173.67</ele>
        <time>2019-08-30T12:57:27Z</time>
      </trkpt>
      <trkpt lat="46.89995" lon="4.97102">
        <ele>174.57</ele>
        <time>2019-08-30T12:57:31Z</time>
      </trkpt>
      <trkpt lat="46.90017" lon="4.97096">
        <ele>176.27</ele>
        <time>2019-08-30T12:57:35Z</time>
      </trkpt>
      <trkpt lat="46.9004" lon="4.97093">
        <ele>176.32</ele>
        <time>2019-08-30T12:57:39Z</time>
      </trkpt>
      <trkpt lat="46.90063" lon="4.97087">
        <ele>177</ele>
        <time>2019-08-30T12:57:43Z</time>
      </trkpt>
      <trkpt lat="46.90081" lon="4.97084">
        <ele>178.27</ele>
        <time>2019-08-30T12:57:48Z</time>
      </trkpt>
      <trkpt lat="46.90095" lon="4.97107">
        <ele>179.39</ele>
        <time>2019-08-30T12:57:55Z</time>
      </trkpt>
      <trkpt lat="46.90103" lon="4.97136">
        <ele>177.69</ele>
        <time>2019-08-30T12:58:00Z</time>
      </trkpt>
      <trkpt lat="46.90112" lon="4.97164">
        <ele>178.09</ele>
        <time>2019-08-30T12:58:04Z</time>
      </trkpt>
      <trkpt lat="46.9012" lon="4.97192">
        <ele>176.69</ele>
        <time>2019-08-30T12:58:08Z</time>
      </trkpt>
      <trkpt lat="46.9013" lon="4.97223">
        <ele>175.69</ele>
        <time>2019-08-30T12:58:12Z</time>
      </trkpt>
      <trkpt lat="46.9014" lon="4.97252">
        <ele>174.41</ele>
        <time>2019-08-30T12:58:16Z</time>
      </trkpt>
      <trkpt lat="46.90149" lon="4.97277">
        <ele>174.38</ele>
        <time>2019-08-30T12:58:19Z</time>
      </trkpt>
      <trkpt lat="46.90155" lon="4.97303">
        <ele>175.08</ele>
        <time>2019-08-30T12:58:22Z</time>
      </trkpt>
      <trkpt lat="46.90161" lon="4.9733">
        <ele>176.35</ele>
        <time>2019-08-30T12:58:25Z</time>
      </trkpt>
      <trkpt lat="46.90166" lon="4.97357">
        <ele>176.17</ele>
        <time>2019-08-30T12:58:28Z</time>
      </trkpt>
      <trkpt lat="46.90171" lon="4.97384">
        <ele>177.35</ele>
        <time>2019-08-30T12:58:31Z</time>
      </trkpt>
      <trkpt lat="46.90177" lon="4.97413">
        <ele>176.41</ele>
        <time>2019-08-30T12:58:34Z</time>
      </trkpt>
      <trkpt lat="46.90183" lon="4.97442">
        <ele>177.08</ele>
        <time>2019-08-30T12:58:37Z</time>
      </trkpt>
      <trkpt lat="46.90188" lon="4.97471">
        <ele>178.07</ele>
        <time>2019-08-30T12:58:40Z</time>
      </trkpt>
      <trkpt lat="46.90194" lon="4.975">
        <ele>179.07</ele>
        <time>2019-08-30T12:58:43Z</time>
      </trkpt>
      <trkpt lat="46.90201" lon="4.97528">
        <ele>179.44</ele>
        <time>2019-08-30T12:58:46Z</time>
      </trkpt>
      <trkpt lat="46.90209" lon="4.97556">
        <ele>176.78</ele>
        <time>2019-08-30T12:58:50Z</time>
      </trkpt>
      <trkpt lat="46.90215" lon="4.97584">
        <ele>175.42</ele>
        <time>2019-08-30T12:58:53Z</time>
      </trkpt>
      <trkpt lat="46.9022" lon="4.97611">
        <ele>175.81</ele>
        <time>2019-08-30T12:58:56Z</time>
      </trkpt>
      <trkpt lat="46.90228" lon="4.97641">
        <ele>179.19</ele>
        <time>2019-08-30T12:59:00Z</time>
      </trkpt>
      <trkpt lat="46.90238" lon="4.97666">
        <ele>179.38</ele>
        <time>2019-08-30T12:59:04Z</time>
      </trkpt>
      <trkpt lat="46.90247" lon="4.97692">
        <ele>178.38</ele>
        <time>2019-08-30T12:59:10Z</time>
      </trkpt>
      <trkpt lat="46.90267" lon="4.97697">
        <ele>177</ele>
        <time>2019-08-30T12:59:54Z</time>
      </trkpt>
      <trkpt lat="46.90288" lon="4.97696">
        <ele>175.68</ele>
        <time>2019-08-30T12:59:59Z</time>
      </trkpt>
      <trkpt lat="46.90308" lon="4.97692">
        <ele>176</ele>
        <time>2019-08-30T13:00:04Z</time>
      </trkpt>
      <trkpt lat="46.90327" lon="4.97688">
        <ele>177.38</ele>
        <time>2019-08-30T13:00:09Z</time>
      </trkpt>
      <trkpt lat="46.90345" lon="4.97688">
        <ele>175.19</ele>
        <time>2019-08-30T13:00:13Z</time>
      </trkpt>
      <trkpt lat="46.90365" lon="4.97688">
        <ele>177.62</ele>
        <time>2019-08-30T13:00:18Z</time>
      </trkpt>
      <trkpt lat="46.90386" lon="4.97687">
        <ele>179.35</ele>
        <time>2019-08-30T13:00:23Z</time>
      </trkpt>
      <trkpt lat="46.90405" lon="4.97685">
        <ele>180.08</ele>
        <time>2019-08-30T13:00:29Z</time>
      </trkpt>
      <trkpt lat="46.90423" lon="4.97682">
        <ele>182.99</ele>
        <time>2019-08-30T13:00:34Z</time>
      </trkpt>
      <trkpt lat="46.90443" lon="4.97679">
        <ele>182.49</ele>
        <time>2019-08-30T13:00:39Z</time>
      </trkpt>
      <trkpt lat="46.90463" lon="4.97677">
        <ele>183.8</ele>
        <time>2019-08-30T13:00:44Z</time>
      </trkpt>
      <trkpt lat="46.9048" lon="4.97667">
        <ele>182.42</ele>
        <time>2019-08-30T13:00:52Z</time>
      </trkpt>
      <trkpt lat="46.90486" lon="4.9764">
        <ele>183.04</ele>
        <time>2019-08-30T13:01:00Z</time>
      </trkpt>
      <trkpt lat="46.90497" lon="4.97614">
        <ele>181.39</ele>
        <time>2019-08-30T13:01:07Z</time>
      </trkpt>
      <trkpt lat="46.90505" lon="4.97586">
        <ele>182.08</ele>
        <time>2019-08-30T13:01:13Z</time>
      </trkpt>
      <trkpt lat="46.90509" lon="4.97557">
        <ele>184.88</ele>
        <time>2019-08-30T13:01:18Z</time>
      </trkpt>
      <trkpt lat="46.90511" lon="4.97522">
        <ele>185.38</ele>
        <time>2019-08-30T13:01:23Z</time>
      </trkpt>
      <trkpt lat="46.90512" lon="4.97496">
        <ele>185.3</ele>
        <time>2019-08-30T13:01:27Z</time>
      </trkpt>
      <trkpt lat="46.90514" lon="4.97469">
        <ele>186.37</ele>
        <time>2019-08-30T13:01:31Z</time>
      </trkpt>
      <trkpt lat="46.90512" lon="4.9744">
        <ele>186.13</ele>
        <time>2019-08-30T13:01:35Z</time>
      </trkpt>
      <trkpt lat="46.90506" lon="4.9741">
        <ele>185.47</ele>
        <time>2019-08-30T13:01:39Z</time>
      </trkpt>
      <trkpt lat="46.905" lon="4.97377">
        <ele>185.3</ele>
        <time>2019-08-30T13:01:43Z</time>
      </trkpt>
      <trkpt lat="46.90496" lon="4.97348">
        <ele>185.38</ele>
        <time>2019-08-30T13:01:46Z</time>
      </trkpt>
      <trkpt lat="46.90491" lon="4.9732">
        <ele>184.68</ele>
        <time>2019-08-30T13:01:49Z</time>
      </trkpt>
      <trkpt lat="46.90487" lon="4.97293">
        <ele>184.39</ele>
        <time>2019-08-30T13:01:52Z</time>
      </trkpt>
      <trkpt lat="46.90487" lon="4.97263">
        <ele>185.29</ele>
        <time>2019-08-30T13:01:55Z</time>
      </trkpt>
      <trkpt lat="46.90485" lon="4.97235">
        <ele>184.34</ele>
        <time>2019-08-30T13:01:58Z</time>
      </trkpt>
      <trkpt lat="46.90484" lon="4.97204">
        <ele>185.35</ele>
        <time>2019-08-30T13:02:01Z</time>
      </trkpt>
      <trkpt lat="46.90484" lon="4.97176">
        <ele>184.05</ele>
        <time>2019-08-30T13:02:04Z</time>
      </trkpt>
      <trkpt lat="46.90481" lon="4.97142">
        <ele>182.1</ele>
        <time>2019-08-30T13:02:08Z</time>
      </trkpt>
      <trkpt lat="46.90482" lon="4.9711">
        <ele>184.96</ele>
        <time>2019-08-30T13:02:11Z</time>
      </trkpt>
      <trkpt lat="46.9048" lon="4.97081">
        <ele>185.31</ele>
        <time>2019-08-30T13:02:14Z</time>
      </trkpt>
      <trkpt lat="46.90481" lon="4.97047">
        <ele>184.6</ele>
        <time>2019-08-30T13:02:18Z</time>
      </trkpt>
      <trkpt lat="46.90484" lon="4.9702">
        <ele>185.36</ele>
        <time>2019-08-30T13:02:21Z</time>
      </trkpt>
      <trkpt lat="46.90485" lon="4.96993">
        <ele>183.5</ele>
        <time>2019-08-30T13:02:24Z</time>
      </trkpt>
      <trkpt lat="46.90484" lon="4.96966">
        <ele>182.62</ele>
        <time>2019-08-30T13:02:27Z</time>
      </trkpt>
      <trkpt lat="46.90476" lon="4.96941">
        <ele>180.57</ele>
        <time>2019-08-30T13:02:30Z</time>
      </trkpt>
      <trkpt lat="46.90465" lon="4.96918">
        <ele>180.39</ele>
        <time>2019-08-30T13:02:33Z</time>
      </trkpt>
      <trkpt lat="46.90453" lon="4.96891">
        <ele>182.97</ele>
        <time>2019-08-30T13:02:37Z</time>
      </trkpt>
      <trkpt lat="46.90444" lon="4.96863">
        <ele>183.59</ele>
        <time>2019-08-30T13:02:41Z</time>
      </trkpt>
      <trkpt lat="46.90435" lon="4.96833">
        <ele>186.01</ele>
        <time>2019-08-30T13:02:45Z</time>
      </trkpt>
      <trkpt lat="46.90428" lon="4.96801">
        <ele>187.06</ele>
        <time>2019-08-30T13:02:49Z</time>
      </trkpt>
      <trkpt lat="46.90424" lon="4.96774">
        <ele>188.99</ele>
        <time>2019-08-30T13:02:53Z</time>
      </trkpt>
      <trkpt lat="46.90419" lon="4.96747">
        <ele>190.14</ele>
        <time>2019-08-30T13:02:57Z</time>
      </trkpt>
      <trkpt lat="46.90415" lon="4.96719">
        <ele>191.08</ele>
        <time>2019-08-30T13:03:01Z</time>
      </trkpt>
      <trkpt lat="46.90411" lon="4.96691">
        <ele>191.38</ele>
        <time>2019-08-30T13:03:05Z</time>
      </trkpt>
      <trkpt lat="46.90406" lon="4.96661">
        <ele>189.21</ele>
        <time>2019-08-30T13:03:09Z</time>
      </trkpt>
      <trkpt lat="46.90401" lon="4.96631">
        <ele>188.74</ele>
        <time>2019-08-30T13:03:13Z</time>
      </trkpt>
      <trkpt lat="46.90398" lon="4.96598">
        <ele>188.39</ele>
        <time>2019-08-30T13:03:17Z</time>
      </trkpt>
      <trkpt lat="46.90393" lon="4.96566">
        <ele>189.29</ele>
        <time>2019-08-30T13:03:21Z</time>
      </trkpt>
      <trkpt lat="46.90392" lon="4.96534">
        <ele>188.47</ele>
        <time>2019-08-30T13:03:25Z</time>
      </trkpt>
      <trkpt lat="46.90388" lon="4.96502">
        <ele>189.27</ele>
        <time>2019-08-30T13:03:29Z</time>
      </trkpt>
      <trkpt lat="46.90387" lon="4.96468">
        <ele>190.36</ele>
        <time>2019-08-30T13:03:33Z</time>
      </trkpt>
      <trkpt lat="46.90386" lon="4.96436">
        <ele>190.45</ele>
        <time>2019-08-30T13:03:37Z</time>
      </trkpt>
      <trkpt lat="46.90384" lon="4.96402">
        <ele>192.08</ele>
        <time>2019-08-30T13:03:41Z</time>
      </trkpt>
      <trkpt lat="46.90382" lon="4.96369">
        <ele>191.33</ele>
        <time>2019-08-30T13:03:45Z</time>
      </trkpt>
      <trkpt lat="46.90381" lon="4.96338">
        <ele>193.97</ele>
        <time>2019-08-30T13:03:49Z</time>
      </trkpt>
      <trkpt lat="46.9038" lon="4.96304">
        <ele>195.08</ele>
        <time>2019-08-30T13:03:53Z</time>
      </trkpt>
      <trkpt lat="46.9038" lon="4.9627">
        <ele>193.71</ele>
        <time>2019-08-30T13:03:57Z</time>
      </trkpt>
      <trkpt lat="46.90383" lon="4.96239">
        <ele>192.41</ele>
        <time>2019-08-30T13:04:01Z</time>
      </trkpt>
      <trkpt lat="46.90387" lon="4.96207">
        <ele>190.06</ele>
        <time>2019-08-30T13:04:05Z</time>
      </trkpt>
      <trkpt lat="46.9039" lon="4.96174">
        <ele>191.37</ele>
        <time>2019-08-30T13:04:09Z</time>
      </trkpt>
      <trkpt lat="46.90394" lon="4.96145">
        <ele>189.48</ele>
        <time>2019-08-30T13:04:13Z</time>
      </trkpt>
      <trkpt lat="46.90399" lon="4.96114">
        <ele>189.81</ele>
        <time>2019-08-30T13:04:17Z</time>
      </trkpt>
      <trkpt lat="46.90399" lon="4.96085">
        <ele>189.67</ele>
        <time>2019-08-30T13:04:20Z</time>
      </trkpt>
      <trkpt lat="46.90398" lon="4.96054">
        <ele>187.78</ele>
        <time>2019-08-30T13:04:23Z</time>
      </trkpt>
      <trkpt lat="46.90396" lon="4.96017">
        <ele>187.88</ele>
        <time>2019-08-30T13:04:26Z</time>
      </trkpt>
      <trkpt lat="46.90394" lon="4.95986">
        <ele>187.43</ele>
        <time>2019-08-30T13:04:28Z</time>
      </trkpt>
      <trkpt lat="46.90393" lon="4.95955">
        <ele>186.69</ele>
        <time>2019-08-30T13:04:30Z</time>
      </trkpt>
      <trkpt lat="46.90394" lon="4.95921">
        <ele>185.71</ele>
        <time>2019-08-30T13:04:32Z</time>
      </trkpt>
      <trkpt lat="46.90399" lon="4.95888">
        <ele>184.5</ele>
        <time>2019-08-30T13:04:34Z</time>
      </trkpt>
      <trkpt lat="46.90407" lon="4.95855">
        <ele>184.6</ele>
        <time>2019-08-30T13:04:36Z</time>
      </trkpt>
      <trkpt lat="46.90414" lon="4.95825">
        <ele>183.7</ele>
        <time>2019-08-30T13:04:38Z</time>
      </trkpt>
      <trkpt lat="46.90421" lon="4.95795">
        <ele>184.32</ele>
        <time>2019-08-30T13:04:40Z</time>
      </trkpt>
      <trkpt lat="46.90428" lon="4.95766">
        <ele>183.89</ele>
        <time>2019-08-30T13:04:42Z</time>
      </trkpt>
      <trkpt lat="46.90433" lon="4.95738">
        <ele>180.42</ele>
        <time>2019-08-30T13:04:44Z</time>
      </trkpt>
      <trkpt lat="46.90442" lon="4.95712">
        <ele>179.48</ele>
        <time>2019-08-30T13:04:46Z</time>
      </trkpt>
      <trkpt lat="46.90452" lon="4.95689">
        <ele>178.48</ele>
        <time>2019-08-30T13:04:48Z</time>
      </trkpt>
      <trkpt lat="46.90465" lon="4.95659">
        <ele>176.5</ele>
        <time>2019-08-30T13:04:51Z</time>
      </trkpt>
      <trkpt lat="46.9048" lon="4.95632">
        <ele>178</ele>
        <time>2019-08-30T13:04:54Z</time>
      </trkpt>
      <trkpt lat="46.90493" lon="4.95602">
        <ele>175.79</ele>
        <time>2019-08-30T13:04:57Z</time>
      </trkpt>
      <trkpt lat="46.90505" lon="4.95574">
        <ele>173.99</ele>
        <time>2019-08-30T13:05:00Z</time>
      </trkpt>
      <trkpt lat="46.90519" lon="4.95548">
        <ele>175.98</ele>
        <time>2019-08-30T13:05:03Z</time>
      </trkpt>
      <trkpt lat="46.90529" lon="4.95524">
        <ele>175.46</ele>
        <time>2019-08-30T13:05:06Z</time>
      </trkpt>
      <trkpt lat="46.90532" lon="4.95493">
        <ele>179.87</ele>
        <time>2019-08-30T13:05:10Z</time>
      </trkpt>
      <trkpt lat="46.90519" lon="4.95468">
        <ele>183.26</ele>
        <time>2019-08-30T13:05:15Z</time>
      </trkpt>
      <trkpt lat="46.90505" lon="4.95445">
        <ele>184.08</ele>
        <time>2019-08-30T13:05:20Z</time>
      </trkpt>
      <trkpt lat="46.90494" lon="4.95418">
        <ele>186.08</ele>
        <time>2019-08-30T13:05:26Z</time>
      </trkpt>
      <trkpt lat="46.90479" lon="4.95392">
        <ele>188.45</ele>
        <time>2019-08-30T13:05:31Z</time>
      </trkpt>
      <trkpt lat="46.90467" lon="4.95363">
        <ele>185.51</ele>
        <time>2019-08-30T13:05:35Z</time>
      </trkpt>
      <trkpt lat="46.90464" lon="4.95333">
        <ele>184.41</ele>
        <time>2019-08-30T13:05:38Z</time>
      </trkpt>
      <trkpt lat="46.90467" lon="4.953">
        <ele>182.77</ele>
        <time>2019-08-30T13:05:41Z</time>
      </trkpt>
      <trkpt lat="46.90469" lon="4.95264">
        <ele>180.72</ele>
        <time>2019-08-30T13:05:44Z</time>
      </trkpt>
      <trkpt lat="46.90471" lon="4.95232">
        <ele>181.3</ele>
        <time>2019-08-30T13:05:47Z</time>
      </trkpt>
      <trkpt lat="46.90473" lon="4.95198">
        <ele>182.31</ele>
        <time>2019-08-30T13:05:51Z</time>
      </trkpt>
      <trkpt lat="46.90474" lon="4.95166">
        <ele>183.29</ele>
        <time>2019-08-30T13:05:55Z</time>
      </trkpt>
      <trkpt lat="46.90475" lon="4.95133">
        <ele>186.05</ele>
        <time>2019-08-30T13:05:59Z</time>
      </trkpt>
      <trkpt lat="46.9048" lon="4.95101">
        <ele>185.89</ele>
        <time>2019-08-30T13:06:03Z</time>
      </trkpt>
      <trkpt lat="46.90485" lon="4.95074">
        <ele>186.3</ele>
        <time>2019-08-30T13:06:07Z</time>
      </trkpt>
      <trkpt lat="46.90489" lon="4.95046">
        <ele>188.35</ele>
        <time>2019-08-30T13:06:11Z</time>
      </trkpt>
      <trkpt lat="46.90493" lon="4.9502">
        <ele>189.65</ele>
        <time>2019-08-30T13:06:15Z</time>
      </trkpt>
      <trkpt lat="46.90493" lon="4.9499">
        <ele>187.56</ele>
        <time>2019-08-30T13:06:20Z</time>
      </trkpt>
      <trkpt lat="46.90494" lon="4.94958">
        <ele>190.05</ele>
        <time>2019-08-30T13:06:25Z</time>
      </trkpt>
      <trkpt lat="46.90495" lon="4.94928">
        <ele>188.49</ele>
        <time>2019-08-30T13:06:30Z</time>
      </trkpt>
      <trkpt lat="46.90494" lon="4.94897">
        <ele>187.75</ele>
        <time>2019-08-30T13:06:35Z</time>
      </trkpt>
      <trkpt lat="46.90493" lon="4.94867">
        <ele>187.38</ele>
        <time>2019-08-30T13:06:40Z</time>
      </trkpt>
      <trkpt lat="46.90495" lon="4.94837">
        <ele>187.38</ele>
        <time>2019-08-30T13:06:44Z</time>
      </trkpt>
      <trkpt lat="46.90501" lon="4.94812">
        <ele>187.38</ele>
        <time>2019-08-30T13:06:48Z</time>
      </trkpt>
      <trkpt lat="46.90506" lon="4.94783">
        <ele>187.38</ele>
        <time>2019-08-30T13:06:52Z</time>
      </trkpt>
      <trkpt lat="46.90514" lon="4.94753">
        <ele>186.18</ele>
        <time>2019-08-30T13:06:57Z</time>
      </trkpt>
      <trkpt lat="46.90524" lon="4.94724">
        <ele>188.22</ele>
        <time>2019-08-30T13:07:02Z</time>
      </trkpt>
      <trkpt lat="46.90529" lon="4.94698">
        <ele>186.98</ele>
        <time>2019-08-30T13:07:06Z</time>
      </trkpt>
      <trkpt lat="46.90534" lon="4.94672">
        <ele>186.32</ele>
        <time>2019-08-30T13:07:10Z</time>
      </trkpt>
      <trkpt lat="46.9054" lon="4.94646">
        <ele>186.38</ele>
        <time>2019-08-30T13:07:14Z</time>
      </trkpt>
      <trkpt lat="46.90546" lon="4.94621">
        <ele>186.38</ele>
        <time>2019-08-30T13:07:18Z</time>
      </trkpt>
      <trkpt lat="46.90552" lon="4.94593">
        <ele>184.77</ele>
        <time>2019-08-30T13:07:23Z</time>
      </trkpt>
      <trkpt lat="46.90561" lon="4.94566">
        <ele>192.38</ele>
        <time>2019-08-30T13:08:37Z</time>
      </trkpt>
      <trkpt lat="46.90567" lon="4.94536">
        <ele>190.41</ele>
        <time>2019-08-30T13:08:43Z</time>
      </trkpt>
      <trkpt lat="46.90572" lon="4.94504">
        <ele>189.41</ele>
        <time>2019-08-30T13:08:48Z</time>
      </trkpt>
      <trkpt lat="46.90577" lon="4.94477">
        <ele>190.38</ele>
        <time>2019-08-30T13:08:52Z</time>
      </trkpt>
      <trkpt lat="46.90577" lon="4.94449">
        <ele>190.38</ele>
        <time>2019-08-30T13:08:56Z</time>
      </trkpt>
      <trkpt lat="46.90577" lon="4.94418">
        <ele>190.38</ele>
        <time>2019-08-30T13:09:01Z</time>
      </trkpt>
      <trkpt lat="46.90577" lon="4.94389">
        <ele>190.41</ele>
        <time>2019-08-30T13:09:06Z</time>
      </trkpt>
      <trkpt lat="46.90584" lon="4.94361">
        <ele>191.08</ele>
        <time>2019-08-30T13:09:10Z</time>
      </trkpt>
      <trkpt lat="46.90596" lon="4.94338">
        <ele>189.56</ele>
        <time>2019-08-30T13:09:14Z</time>
      </trkpt>
      <trkpt lat="46.90616" lon="4.94322">
        <ele>190.09</ele>
        <time>2019-08-30T13:09:19Z</time>
      </trkpt>
      <trkpt lat="46.90634" lon="4.94311">
        <ele>190.44</ele>
        <time>2019-08-30T13:09:23Z</time>
      </trkpt>
      <trkpt lat="46.90656" lon="4.94304">
        <ele>190.41</ele>
        <time>2019-08-30T13:09:28Z</time>
      </trkpt>
      <trkpt lat="46.90678" lon="4.94298">
        <ele>189.47</ele>
        <time>2019-08-30T13:09:33Z</time>
      </trkpt>
      <trkpt lat="46.90698" lon="4.94295">
        <ele>189.38</ele>
        <time>2019-08-30T13:09:37Z</time>
      </trkpt>
      <trkpt lat="46.90717" lon="4.94287">
        <ele>189.38</ele>
        <time>2019-08-30T13:09:41Z</time>
      </trkpt>
      <trkpt lat="46.90737" lon="4.9428">
        <ele>189.38</ele>
        <time>2019-08-30T13:09:45Z</time>
      </trkpt>
      <trkpt lat="46.90755" lon="4.94274">
        <ele>189.38</ele>
        <time>2019-08-30T13:09:49Z</time>
      </trkpt>
      <trkpt lat="46.90772" lon="4.94263">
        <ele>191.35</ele>
        <time>2019-08-30T13:09:53Z</time>
      </trkpt>
      <trkpt lat="46.90788" lon="4.94248">
        <ele>190.6</ele>
        <time>2019-08-30T13:09:57Z</time>
      </trkpt>
      <trkpt lat="46.90802" lon="4.94225">
        <ele>188.42</ele>
        <time>2019-08-30T13:10:02Z</time>
      </trkpt>
      <trkpt lat="46.90808" lon="4.942">
        <ele>190.06</ele>
        <time>2019-08-30T13:10:06Z</time>
      </trkpt>
      <trkpt lat="46.9081" lon="4.94172">
        <ele>192.28</ele>
        <time>2019-08-30T13:10:10Z</time>
      </trkpt>
      <trkpt lat="46.90809" lon="4.94144">
        <ele>192.66</ele>
        <time>2019-08-30T13:10:14Z</time>
      </trkpt>
      <trkpt lat="46.90808" lon="4.94115">
        <ele>193.28</ele>
        <time>2019-08-30T13:10:18Z</time>
      </trkpt>
      <trkpt lat="46.90809" lon="4.94087">
        <ele>192.41</ele>
        <time>2019-08-30T13:10:22Z</time>
      </trkpt>
      <trkpt lat="46.90808" lon="4.94058">
        <ele>191.41</ele>
        <time>2019-08-30T13:10:26Z</time>
      </trkpt>
      <trkpt lat="46.90812" lon="4.94029">
        <ele>191.32</ele>
        <time>2019-08-30T13:10:30Z</time>
      </trkpt>
      <trkpt lat="46.90817" lon="4.94002">
        <ele>193.82</ele>
        <time>2019-08-30T13:10:34Z</time>
      </trkpt>
      <trkpt lat="46.9082" lon="4.93971">
        <ele>192.39</ele>
        <time>2019-08-30T13:10:39Z</time>
      </trkpt>
      <trkpt lat="46.90824" lon="4.93943">
        <ele>191.82</ele>
        <time>2019-08-30T13:10:43Z</time>
      </trkpt>
      <trkpt lat="46.9083" lon="4.93911">
        <ele>191.3</ele>
        <time>2019-08-30T13:10:48Z</time>
      </trkpt>
      <trkpt lat="46.90837" lon="4.93885">
        <ele>189.48</ele>
        <time>2019-08-30T13:10:52Z</time>
      </trkpt>
      <trkpt lat="46.90849" lon="4.93857">
        <ele>187.73</ele>
        <time>2019-08-30T13:10:57Z</time>
      </trkpt>
      <trkpt lat="46.90859" lon="4.93833">
        <ele>189.06</ele>
        <time>2019-08-30T13:11:01Z</time>
      </trkpt>
      <trkpt lat="46.90872" lon="4.93811">
        <ele>189.4</ele>
        <time>2019-08-30T13:11:06Z</time>
      </trkpt>
      <trkpt lat="46.90887" lon="4.93789">
        <ele>191.35</ele>
        <time>2019-08-30T13:11:11Z</time>
      </trkpt>
      <trkpt lat="46.909" lon="4.93768">
        <ele>191.47</ele>
        <time>2019-08-30T13:11:16Z</time>
      </trkpt>
      <trkpt lat="46.90913" lon="4.93749">
        <ele>192.38</ele>
        <time>2019-08-30T13:11:21Z</time>
      </trkpt>
      <trkpt lat="46.90928" lon="4.93728">
        <ele>191.41</ele>
        <time>2019-08-30T13:11:26Z</time>
      </trkpt>
      <trkpt lat="46.90917" lon="4.937">
        <ele>187.68</ele>
        <time>2019-08-30T13:11:34Z</time>
      </trkpt>
      <trkpt lat="46.90897" lon="4.93683">
        <ele>185.48</ele>
        <time>2019-08-30T13:11:38Z</time>
      </trkpt>
      <trkpt lat="46.90878" lon="4.93665">
        <ele>185.39</ele>
        <time>2019-08-30T13:11:41Z</time>
      </trkpt>
      <trkpt lat="46.90856" lon="4.93645">
        <ele>183.5</ele>
        <time>2019-08-30T13:11:44Z</time>
      </trkpt>
      <trkpt lat="46.90841" lon="4.9363">
        <ele>182.48</ele>
        <time>2019-08-30T13:11:46Z</time>
      </trkpt>
      <trkpt lat="46.90824" lon="4.93615">
        <ele>181.69</ele>
        <time>2019-08-30T13:11:48Z</time>
      </trkpt>
      <trkpt lat="46.90807" lon="4.93601">
        <ele>182.11</ele>
        <time>2019-08-30T13:11:50Z</time>
      </trkpt>
      <trkpt lat="46.90789" lon="4.93585">
        <ele>182.15</ele>
        <time>2019-08-30T13:11:52Z</time>
      </trkpt>
      <trkpt lat="46.90772" lon="4.93569">
        <ele>180.75</ele>
        <time>2019-08-30T13:11:54Z</time>
      </trkpt>
      <trkpt lat="46.90755" lon="4.93553">
        <ele>180.42</ele>
        <time>2019-08-30T13:11:56Z</time>
      </trkpt>
      <trkpt lat="46.9074" lon="4.93538">
        <ele>181.3</ele>
        <time>2019-08-30T13:11:58Z</time>
      </trkpt>
      <trkpt lat="46.90714" lon="4.93529">
        <ele>181.38</ele>
        <time>2019-08-30T13:12:01Z</time>
      </trkpt>
      <trkpt lat="46.9069" lon="4.93538">
        <ele>181.38</ele>
        <time>2019-08-30T13:12:04Z</time>
      </trkpt>
      <trkpt lat="46.9069" lon="4.9351">
        <ele>181.39</ele>
        <time>2019-08-30T13:12:10Z</time>
      </trkpt>
      <trkpt lat="46.90706" lon="4.93493">
        <ele>180.41</ele>
        <time>2019-08-30T13:12:13Z</time>
      </trkpt>
      <trkpt lat="46.9072" lon="4.93475">
        <ele>181.08</ele>
        <time>2019-08-30T13:12:16Z</time>
      </trkpt>
      <trkpt lat="46.90735" lon="4.93455">
        <ele>180.19</ele>
        <time>2019-08-30T13:12:19Z</time>
      </trkpt>
      <trkpt lat="46.90751" lon="4.93436">
        <ele>179.4</ele>
        <time>2019-08-30T13:12:22Z</time>
      </trkpt>
      <trkpt lat="46.90767" lon="4.93418">
        <ele>179.38</ele>
        <time>2019-08-30T13:12:25Z</time>
      </trkpt>
      <trkpt lat="46.90783" lon="4.93406">
        <ele>178.75</ele>
        <time>2019-08-30T13:12:28Z</time>
      </trkpt>
      <trkpt lat="46.90801" lon="4.93397">
        <ele>179.3</ele>
        <time>2019-08-30T13:12:31Z</time>
      </trkpt>
      <trkpt lat="46.90823" lon="4.93385">
        <ele>179.4</ele>
        <time>2019-08-30T13:12:35Z</time>
      </trkpt>
      <trkpt lat="46.90843" lon="4.93375">
        <ele>179.11</ele>
        <time>2019-08-30T13:12:39Z</time>
      </trkpt>
      <trkpt lat="46.90861" lon="4.93364">
        <ele>176.59</ele>
        <time>2019-08-30T13:12:43Z</time>
      </trkpt>
      <trkpt lat="46.9088" lon="4.93355">
        <ele>177.31</ele>
        <time>2019-08-30T13:12:47Z</time>
      </trkpt>
      <trkpt lat="46.90901" lon="4.93346">
        <ele>176.41</ele>
        <time>2019-08-30T13:12:51Z</time>
      </trkpt>
      <trkpt lat="46.90921" lon="4.93338">
        <ele>178.27</ele>
        <time>2019-08-30T13:12:55Z</time>
      </trkpt>
      <trkpt lat="46.90944" lon="4.93329">
        <ele>179.21</ele>
        <time>2019-08-30T13:12:59Z</time>
      </trkpt>
      <trkpt lat="46.90965" lon="4.93324">
        <ele>180.23</ele>
        <time>2019-08-30T13:13:03Z</time>
      </trkpt>
      <trkpt lat="46.90984" lon="4.93313">
        <ele>180.38</ele>
        <time>2019-08-30T13:13:07Z</time>
      </trkpt>
      <trkpt lat="46.9099" lon="4.93287">
        <ele>181.46</ele>
        <time>2019-08-30T13:13:11Z</time>
      </trkpt>
      <trkpt lat="46.90987" lon="4.93258">
        <ele>179.39</ele>
        <time>2019-08-30T13:13:16Z</time>
      </trkpt>
      <trkpt lat="46.90984" lon="4.9323">
        <ele>179.09</ele>
        <time>2019-08-30T13:13:23Z</time>
      </trkpt>
      <trkpt lat="46.90984" lon="4.932">
        <ele>178.57</ele>
        <time>2019-08-30T13:13:29Z</time>
      </trkpt>
      <trkpt lat="46.90984" lon="4.93172">
        <ele>181</ele>
        <time>2019-08-30T13:13:35Z</time>
      </trkpt>
      <trkpt lat="46.90978" lon="4.93144">
        <ele>184.26</ele>
        <time>2019-08-30T13:13:41Z</time>
      </trkpt>
      <trkpt lat="46.90979" lon="4.93114">
        <ele>179.12</ele>
        <time>2019-08-30T13:13:48Z</time>
      </trkpt>
      <trkpt lat="46.90972" lon="4.9309">
        <ele>192.46</ele>
        <time>2019-08-30T13:14:43Z</time>
      </trkpt>
      <trkpt lat="46.90973" lon="4.93063">
        <ele>191.35</ele>
        <time>2019-08-30T13:15:04Z</time>
      </trkpt>
      <trkpt lat="46.9097" lon="4.93036">
        <ele>191.41</ele>
        <time>2019-08-30T13:15:20Z</time>
      </trkpt>
      <trkpt lat="46.90984" lon="4.93019">
        <ele>197.41</ele>
        <time>2019-08-30T13:16:11Z</time>
      </trkpt>
      <trkpt lat="46.90987" lon="4.9299">
        <ele>195.77</ele>
        <time>2019-08-30T13:17:53Z</time>
      </trkpt>
      <trkpt lat="46.90992" lon="4.92964">
        <ele>198.5</ele>
        <time>2019-08-30T13:17:59Z</time>
      </trkpt>
      <trkpt lat="46.90999" lon="4.92935">
        <ele>197.39</ele>
        <time>2019-08-30T13:18:04Z</time>
      </trkpt>
      <trkpt lat="46.91009" lon="4.9291">
        <ele>198.29</ele>
        <time>2019-08-30T13:18:09Z</time>
      </trkpt>
      <trkpt lat="46.91017" lon="4.92884">
        <ele>197.39</ele>
        <time>2019-08-30T13:18:14Z</time>
      </trkpt>
      <trkpt lat="46.91025" lon="4.92852">
        <ele>198.29</ele>
        <time>2019-08-30T13:18:18Z</time>
      </trkpt>
      <trkpt lat="46.91034" lon="4.92828">
        <ele>197.68</ele>
        <time>2019-08-30T13:18:21Z</time>
      </trkpt>
      <trkpt lat="46.91045" lon="4.92804">
        <ele>198.09</ele>
        <time>2019-08-30T13:18:25Z</time>
      </trkpt>
      <trkpt lat="46.91057" lon="4.92779">
        <ele>197.45</ele>
        <time>2019-08-30T13:18:29Z</time>
      </trkpt>
      <trkpt lat="46.91061" lon="4.9275">
        <ele>197.59</ele>
        <time>2019-08-30T13:18:33Z</time>
      </trkpt>
      <trkpt lat="46.91067" lon="4.92724">
        <ele>197.38</ele>
        <time>2019-08-30T13:18:38Z</time>
      </trkpt>
      <trkpt lat="46.91072" lon="4.92692">
        <ele>197.38</ele>
        <time>2019-08-30T13:18:42Z</time>
      </trkpt>
      <trkpt lat="46.91076" lon="4.92657">
        <ele>197.66</ele>
        <time>2019-08-30T13:18:45Z</time>
      </trkpt>
      <trkpt lat="46.9108" lon="4.92628">
        <ele>198.09</ele>
        <time>2019-08-30T13:18:48Z</time>
      </trkpt>
      <trkpt lat="46.91083" lon="4.926">
        <ele>197.47</ele>
        <time>2019-08-30T13:18:51Z</time>
      </trkpt>
      <trkpt lat="46.91088" lon="4.92568">
        <ele>197.38</ele>
        <time>2019-08-30T13:18:55Z</time>
      </trkpt>
      <trkpt lat="46.91097" lon="4.92539">
        <ele>197.38</ele>
        <time>2019-08-30T13:18:59Z</time>
      </trkpt>
      <trkpt lat="46.91101" lon="4.92512">
        <ele>197.38</ele>
        <time>2019-08-30T13:19:02Z</time>
      </trkpt>
      <trkpt lat="46.91109" lon="4.92482">
        <ele>197.38</ele>
        <time>2019-08-30T13:19:06Z</time>
      </trkpt>
      <trkpt lat="46.91116" lon="4.92455">
        <ele>197.11</ele>
        <time>2019-08-30T13:19:10Z</time>
      </trkpt>
      <trkpt lat="46.91123" lon="4.92429">
        <ele>197.38</ele>
        <time>2019-08-30T13:19:13Z</time>
      </trkpt>
      <trkpt lat="46.91132" lon="4.92398">
        <ele>196.41</ele>
        <time>2019-08-30T13:19:16Z</time>
      </trkpt>
      <trkpt lat="46.91138" lon="4.92361">
        <ele>196.47</ele>
        <time>2019-08-30T13:19:20Z</time>
      </trkpt>
      <trkpt lat="46.91144" lon="4.92332">
        <ele>197.09</ele>
        <time>2019-08-30T13:19:23Z</time>
      </trkpt>
      <trkpt lat="46.91145" lon="4.92304">
        <ele>196.61</ele>
        <time>2019-08-30T13:19:26Z</time>
      </trkpt>
      <trkpt lat="46.91145" lon="4.92271">
        <ele>196.39</ele>
        <time>2019-08-30T13:19:29Z</time>
      </trkpt>
      <trkpt lat="46.91148" lon="4.92235">
        <ele>196.38</ele>
        <time>2019-08-30T13:19:32Z</time>
      </trkpt>
      <trkpt lat="46.91151" lon="4.92203">
        <ele>196.38</ele>
        <time>2019-08-30T13:19:35Z</time>
      </trkpt>
      <trkpt lat="46.91155" lon="4.92167">
        <ele>196.38</ele>
        <time>2019-08-30T13:19:38Z</time>
      </trkpt>
      <trkpt lat="46.91163" lon="4.92133">
        <ele>196.38</ele>
        <time>2019-08-30T13:19:41Z</time>
      </trkpt>
      <trkpt lat="46.91168" lon="4.921">
        <ele>195.47</ele>
        <time>2019-08-30T13:19:44Z</time>
      </trkpt>
      <trkpt lat="46.91175" lon="4.92074">
        <ele>196.09</ele>
        <time>2019-08-30T13:19:46Z</time>
      </trkpt>
      <trkpt lat="46.91181" lon="4.92035">
        <ele>195.61</ele>
        <time>2019-08-30T13:19:49Z</time>
      </trkpt>
      <trkpt lat="46.91187" lon="4.92008">
        <ele>195.4</ele>
        <time>2019-08-30T13:19:51Z</time>
      </trkpt>
      <trkpt lat="46.91194" lon="4.91982">
        <ele>196.08</ele>
        <time>2019-08-30T13:19:53Z</time>
      </trkpt>
      <trkpt lat="46.91202" lon="4.91958">
        <ele>195.45</ele>
        <time>2019-08-30T13:19:55Z</time>
      </trkpt>
      <trkpt lat="46.91203" lon="4.91926">
        <ele>196.36</ele>
        <time>2019-08-30T13:19:58Z</time>
      </trkpt>
      <trkpt lat="46.91206" lon="4.91899">
        <ele>196.17</ele>
        <time>2019-08-30T13:20:01Z</time>
      </trkpt>
      <trkpt lat="46.91205" lon="4.91866">
        <ele>196.38</ele>
        <time>2019-08-30T13:20:04Z</time>
      </trkpt>
      <trkpt lat="46.912" lon="4.91833">
        <ele>191.2</ele>
        <time>2019-08-30T13:20:08Z</time>
      </trkpt>
      <trkpt lat="46.91194" lon="4.91809">
        <ele>188.8</ele>
        <time>2019-08-30T13:20:11Z</time>
      </trkpt>
      <trkpt lat="46.91188" lon="4.91782">
        <ele>190.98</ele>
        <time>2019-08-30T13:20:14Z</time>
      </trkpt>
      <trkpt lat="46.91182" lon="4.91753">
        <ele>191.37</ele>
        <time>2019-08-30T13:20:17Z</time>
      </trkpt>
      <trkpt lat="46.91179" lon="4.91723">
        <ele>191.38</ele>
        <time>2019-08-30T13:20:20Z</time>
      </trkpt>
      <trkpt lat="46.91178" lon="4.91693">
        <ele>191.38</ele>
        <time>2019-08-30T13:20:23Z</time>
      </trkpt>
      <trkpt lat="46.91171" lon="4.91668">
        <ele>191.45</ele>
        <time>2019-08-30T13:20:26Z</time>
      </trkpt>
      <trkpt lat="46.91164" lon="4.91632">
        <ele>191.38</ele>
        <time>2019-08-30T13:20:30Z</time>
      </trkpt>
      <trkpt lat="46.91157" lon="4.91601">
        <ele>191.46</ele>
        <time>2019-08-30T13:20:34Z</time>
      </trkpt>
      <trkpt lat="46.91148" lon="4.91573">
        <ele>191.38</ele>
        <time>2019-08-30T13:20:38Z</time>
      </trkpt>
      <trkpt lat="46.91146" lon="4.91538">
        <ele>192.58</ele>
        <time>2019-08-30T13:20:42Z</time>
      </trkpt>
      <trkpt lat="46.91143" lon="4.91502">
        <ele>193.38</ele>
        <time>2019-08-30T13:20:46Z</time>
      </trkpt>
      <trkpt lat="46.91143" lon="4.91465">
        <ele>192.47</ele>
        <time>2019-08-30T13:20:49Z</time>
      </trkpt>
      <trkpt lat="46.91144" lon="4.91424">
        <ele>192.18</ele>
        <time>2019-08-30T13:20:52Z</time>
      </trkpt>
      <trkpt lat="46.91146" lon="4.91396">
        <ele>191.45</ele>
        <time>2019-08-30T13:20:54Z</time>
      </trkpt>
      <trkpt lat="46.9115" lon="4.91368">
        <ele>191.18</ele>
        <time>2019-08-30T13:20:56Z</time>
      </trkpt>
      <trkpt lat="46.91158" lon="4.91335">
        <ele>192.29</ele>
        <time>2019-08-30T13:20:59Z</time>
      </trkpt>
      <trkpt lat="46.91167" lon="4.9131">
        <ele>193.35</ele>
        <time>2019-08-30T13:21:02Z</time>
      </trkpt>
      <trkpt lat="46.91176" lon="4.91281">
        <ele>194.08</ele>
        <time>2019-08-30T13:21:06Z</time>
      </trkpt>
      <trkpt lat="46.91186" lon="4.91257">
        <ele>192.69</ele>
        <time>2019-08-30T13:21:10Z</time>
      </trkpt>
      <trkpt lat="46.91194" lon="4.9123">
        <ele>192.39</ele>
        <time>2019-08-30T13:21:13Z</time>
      </trkpt>
      <trkpt lat="46.91204" lon="4.91201">
        <ele>192.38</ele>
        <time>2019-08-30T13:21:16Z</time>
      </trkpt>
      <trkpt lat="46.91213" lon="4.91175">
        <ele>193.36</ele>
        <time>2019-08-30T13:21:19Z</time>
      </trkpt>
      <trkpt lat="46.91221" lon="4.91149">
        <ele>194.08</ele>
        <time>2019-08-30T13:21:22Z</time>
      </trkpt>
      <trkpt lat="46.91232" lon="4.9112">
        <ele>193.68</ele>
        <time>2019-08-30T13:21:26Z</time>
      </trkpt>
      <trkpt lat="46.91241" lon="4.9109">
        <ele>194.09</ele>
        <time>2019-08-30T13:21:30Z</time>
      </trkpt>
      <trkpt lat="46.91251" lon="4.91067">
        <ele>194.31</ele>
        <time>2019-08-30T13:21:33Z</time>
      </trkpt>
      <trkpt lat="46.91258" lon="4.91042">
        <ele>194.38</ele>
        <time>2019-08-30T13:21:36Z</time>
      </trkpt>
      <trkpt lat="46.91269" lon="4.91016">
        <ele>195.29</ele>
        <time>2019-08-30T13:21:39Z</time>
      </trkpt>
      <trkpt lat="46.9128" lon="4.9099">
        <ele>194.68</ele>
        <time>2019-08-30T13:21:42Z</time>
      </trkpt>
      <trkpt lat="46.9129" lon="4.90959">
        <ele>193.69</ele>
        <time>2019-08-30T13:21:45Z</time>
      </trkpt>
      <trkpt lat="46.91301" lon="4.90925">
        <ele>193.6</ele>
        <time>2019-08-30T13:21:48Z</time>
      </trkpt>
      <trkpt lat="46.9131" lon="4.90886">
        <ele>191.78</ele>
        <time>2019-08-30T13:21:51Z</time>
      </trkpt>
      <trkpt lat="46.91314" lon="4.90854">
        <ele>190.51</ele>
        <time>2019-08-30T13:21:53Z</time>
      </trkpt>
      <trkpt lat="46.91321" lon="4.90824">
        <ele>189.48</ele>
        <time>2019-08-30T13:21:55Z</time>
      </trkpt>
      <trkpt lat="46.91332" lon="4.90793">
        <ele>189.39</ele>
        <time>2019-08-30T13:21:57Z</time>
      </trkpt>
      <trkpt lat="46.91346" lon="4.9077">
        <ele>189.38</ele>
        <time>2019-08-30T13:21:59Z</time>
      </trkpt>
      <trkpt lat="46.91362" lon="4.90752">
        <ele>189.38</ele>
        <time>2019-08-30T13:22:01Z</time>
      </trkpt>
      <trkpt lat="46.91377" lon="4.90735">
        <ele>188.68</ele>
        <time>2019-08-30T13:22:03Z</time>
      </trkpt>
      <trkpt lat="46.91398" lon="4.90714">
        <ele>189.15</ele>
        <time>2019-08-30T13:22:06Z</time>
      </trkpt>
      <trkpt lat="46.91415" lon="4.90697">
        <ele>190.29</ele>
        <time>2019-08-30T13:22:09Z</time>
      </trkpt>
      <trkpt lat="46.91432" lon="4.90679">
        <ele>191.29</ele>
        <time>2019-08-30T13:22:13Z</time>
      </trkpt>
      <trkpt lat="46.91449" lon="4.90662">
        <ele>192.32</ele>
        <time>2019-08-30T13:22:18Z</time>
      </trkpt>
      <trkpt lat="46.91465" lon="4.9065">
        <ele>193.29</ele>
        <time>2019-08-30T13:22:23Z</time>
      </trkpt>
      <trkpt lat="46.91483" lon="4.90638">
        <ele>194.37</ele>
        <time>2019-08-30T13:22:29Z</time>
      </trkpt>
      <trkpt lat="46.91502" lon="4.90628">
        <ele>195.29</ele>
        <time>2019-08-30T13:22:35Z</time>
      </trkpt>
      <trkpt lat="46.91519" lon="4.90618">
        <ele>195.38</ele>
        <time>2019-08-30T13:22:41Z</time>
      </trkpt>
      <trkpt lat="46.91538" lon="4.90606">
        <ele>195.66</ele>
        <time>2019-08-30T13:22:48Z</time>
      </trkpt>
      <trkpt lat="46.91557" lon="4.90595">
        <ele>196.37</ele>
        <time>2019-08-30T13:22:55Z</time>
      </trkpt>
      <trkpt lat="46.91574" lon="4.90588">
        <ele>197.08</ele>
        <time>2019-08-30T13:23:01Z</time>
      </trkpt>
      <trkpt lat="46.91595" lon="4.90583">
        <ele>196.66</ele>
        <time>2019-08-30T13:23:08Z</time>
      </trkpt>
      <trkpt lat="46.91615" lon="4.90582">
        <ele>197.37</ele>
        <time>2019-08-30T13:23:15Z</time>
      </trkpt>
      <trkpt lat="46.91635" lon="4.90579">
        <ele>197.38</ele>
        <time>2019-08-30T13:23:21Z</time>
      </trkpt>
      <trkpt lat="46.91654" lon="4.90574">
        <ele>196.39</ele>
        <time>2019-08-30T13:23:27Z</time>
      </trkpt>
      <trkpt lat="46.91671" lon="4.90564">
        <ele>196.3</ele>
        <time>2019-08-30T13:23:32Z</time>
      </trkpt>
      <trkpt lat="46.91689" lon="4.90553">
        <ele>197.08</ele>
        <time>2019-08-30T13:23:37Z</time>
      </trkpt>
      <trkpt lat="46.91706" lon="4.90538">
        <ele>196.68</ele>
        <time>2019-08-30T13:23:42Z</time>
      </trkpt>
      <trkpt lat="46.91723" lon="4.90521">
        <ele>196.38</ele>
        <time>2019-08-30T13:23:47Z</time>
      </trkpt>
      <trkpt lat="46.91739" lon="4.90502">
        <ele>196.38</ele>
        <time>2019-08-30T13:23:51Z</time>
      </trkpt>
      <trkpt lat="46.91756" lon="4.90487">
        <ele>198.08</ele>
        <time>2019-08-30T13:23:56Z</time>
      </trkpt>
      <trkpt lat="46.91775" lon="4.90481">
        <ele>198.42</ele>
        <time>2019-08-30T13:24:01Z</time>
      </trkpt>
      <trkpt lat="46.91796" lon="4.90486">
        <ele>199.36</ele>
        <time>2019-08-30T13:24:06Z</time>
      </trkpt>
      <trkpt lat="46.91813" lon="4.905">
        <ele>198.3</ele>
        <time>2019-08-30T13:24:11Z</time>
      </trkpt>
      <trkpt lat="46.91828" lon="4.90518">
        <ele>198.38</ele>
        <time>2019-08-30T13:24:15Z</time>
      </trkpt>
      <trkpt lat="46.9184" lon="4.90538">
        <ele>198.3</ele>
        <time>2019-08-30T13:24:19Z</time>
      </trkpt>
      <trkpt lat="46.91858" lon="4.90558">
        <ele>198.3</ele>
        <time>2019-08-30T13:24:24Z</time>
      </trkpt>
      <trkpt lat="46.91875" lon="4.90567">
        <ele>199.08</ele>
        <time>2019-08-30T13:24:28Z</time>
      </trkpt>
      <trkpt lat="46.91897" lon="4.9057">
        <ele>199.09</ele>
        <time>2019-08-30T13:24:33Z</time>
      </trkpt>
      <trkpt lat="46.91917" lon="4.90575">
        <ele>199.38</ele>
        <time>2019-08-30T13:24:37Z</time>
      </trkpt>
      <trkpt lat="46.91936" lon="4.90579">
        <ele>200.08</ele>
        <time>2019-08-30T13:24:41Z</time>
      </trkpt>
      <trkpt lat="46.91954" lon="4.90583">
        <ele>199.45</ele>
        <time>2019-08-30T13:24:45Z</time>
      </trkpt>
      <trkpt lat="46.91974" lon="4.90588">
        <ele>200.29</ele>
        <time>2019-08-30T13:24:49Z</time>
      </trkpt>
      <trkpt lat="46.91994" lon="4.90592">
        <ele>200.38</ele>
        <time>2019-08-30T13:24:54Z</time>
      </trkpt>
      <trkpt lat="46.92013" lon="4.90594">
        <ele>200.38</ele>
        <time>2019-08-30T13:24:58Z</time>
      </trkpt>
      <trkpt lat="46.92031" lon="4.90596">
        <ele>200.3</ele>
        <time>2019-08-30T13:25:02Z</time>
      </trkpt>
      <trkpt lat="46.92049" lon="4.90597">
        <ele>200.38</ele>
        <time>2019-08-30T13:25:06Z</time>
      </trkpt>
      <trkpt lat="46.92068" lon="4.90598">
        <ele>200.38</ele>
        <time>2019-08-30T13:25:10Z</time>
      </trkpt>
      <trkpt lat="46.92088" lon="4.906">
        <ele>201.32</ele>
        <time>2019-08-30T13:25:15Z</time>
      </trkpt>
      <trkpt lat="46.92107" lon="4.90601">
        <ele>201.38</ele>
        <time>2019-08-30T13:25:20Z</time>
      </trkpt>
      <trkpt lat="46.92127" lon="4.90602">
        <ele>201.38</ele>
        <time>2019-08-30T13:25:25Z</time>
      </trkpt>
      <trkpt lat="46.92147" lon="4.90603">
        <ele>201.09</ele>
        <time>2019-08-30T13:25:30Z</time>
      </trkpt>
      <trkpt lat="46.92168" lon="4.90605">
        <ele>202.37</ele>
        <time>2019-08-30T13:25:35Z</time>
      </trkpt>
      <trkpt lat="46.92188" lon="4.90606">
        <ele>203.08</ele>
        <time>2019-08-30T13:25:40Z</time>
      </trkpt>
      <trkpt lat="46.9221" lon="4.90606">
        <ele>206.17</ele>
        <time>2019-08-30T13:25:45Z</time>
      </trkpt>
      <trkpt lat="46.92231" lon="4.90603">
        <ele>207.29</ele>
        <time>2019-08-30T13:25:50Z</time>
      </trkpt>
      <trkpt lat="46.9225" lon="4.90602">
        <ele>206.39</ele>
        <time>2019-08-30T13:25:54Z</time>
      </trkpt>
      <trkpt lat="46.92269" lon="4.90601">
        <ele>207.37</ele>
        <time>2019-08-30T13:25:58Z</time>
      </trkpt>
      <trkpt lat="46.92287" lon="4.90599">
        <ele>207.59</ele>
        <time>2019-08-30T13:26:02Z</time>
      </trkpt>
      <trkpt lat="46.92308" lon="4.90597">
        <ele>207.59</ele>
        <time>2019-08-30T13:26:06Z</time>
      </trkpt>
      <trkpt lat="46.92327" lon="4.90593">
        <ele>207.37</ele>
        <time>2019-08-30T13:26:10Z</time>
      </trkpt>
      <trkpt lat="46.92347" lon="4.90587">
        <ele>207.67</ele>
        <time>2019-08-30T13:26:14Z</time>
      </trkpt>
      <trkpt lat="46.92367" lon="4.90576">
        <ele>209.35</ele>
        <time>2019-08-30T13:26:18Z</time>
      </trkpt>
      <trkpt lat="46.92386" lon="4.90564">
        <ele>209.45</ele>
        <time>2019-08-30T13:26:22Z</time>
      </trkpt>
      <trkpt lat="46.92403" lon="4.90549">
        <ele>206.72</ele>
        <time>2019-08-30T13:26:26Z</time>
      </trkpt>
      <trkpt lat="46.9242" lon="4.90535">
        <ele>204.4</ele>
        <time>2019-08-30T13:26:30Z</time>
      </trkpt>
      <trkpt lat="46.92437" lon="4.90525">
        <ele>205.36</ele>
        <time>2019-08-30T13:26:34Z</time>
      </trkpt>
      <trkpt lat="46.92454" lon="4.90513">
        <ele>205.36</ele>
        <time>2019-08-30T13:26:38Z</time>
      </trkpt>
      <trkpt lat="46.92473" lon="4.90499">
        <ele>205.3</ele>
        <time>2019-08-30T13:26:42Z</time>
      </trkpt>
      <trkpt lat="46.92491" lon="4.90483">
        <ele>206.08</ele>
        <time>2019-08-30T13:26:46Z</time>
      </trkpt>
      <trkpt lat="46.92505" lon="4.90463">
        <ele>206.38</ele>
        <time>2019-08-30T13:26:50Z</time>
      </trkpt>
      <trkpt lat="46.92521" lon="4.90444">
        <ele>207.08</ele>
        <time>2019-08-30T13:26:54Z</time>
      </trkpt>
      <trkpt lat="46.92537" lon="4.90427">
        <ele>207.44</ele>
        <time>2019-08-30T13:26:58Z</time>
      </trkpt>
      <trkpt lat="46.92557" lon="4.90418">
        <ele>207.38</ele>
        <time>2019-08-30T13:27:02Z</time>
      </trkpt>
      <trkpt lat="46.92577" lon="4.90417">
        <ele>206.62</ele>
        <time>2019-08-30T13:27:06Z</time>
      </trkpt>
      <trkpt lat="46.92598" lon="4.90418">
        <ele>207.38</ele>
        <time>2019-08-30T13:27:10Z</time>
      </trkpt>
      <trkpt lat="46.92618" lon="4.90416">
        <ele>207.38</ele>
        <time>2019-08-30T13:27:14Z</time>
      </trkpt>
      <trkpt lat="46.92639" lon="4.90417">
        <ele>209.22</ele>
        <time>2019-08-30T13:27:18Z</time>
      </trkpt>
      <trkpt lat="46.92659" lon="4.90416">
        <ele>210.56</ele>
        <time>2019-08-30T13:27:22Z</time>
      </trkpt>
      <trkpt lat="46.92678" lon="4.90414">
        <ele>209.47</ele>
        <time>2019-08-30T13:27:26Z</time>
      </trkpt>
      <trkpt lat="46.92699" lon="4.90413">
        <ele>210.29</ele>
        <time>2019-08-30T13:27:30Z</time>
      </trkpt>
      <trkpt lat="46.92718" lon="4.90412">
        <ele>211.08</ele>
        <time>2019-08-30T13:27:34Z</time>
      </trkpt>
      <trkpt lat="46.92736" lon="4.90409">
        <ele>210.68</ele>
        <time>2019-08-30T13:27:38Z</time>
      </trkpt>
      <trkpt lat="46.92758" lon="4.90407">
        <ele>210.39</ele>
        <time>2019-08-30T13:27:42Z</time>
      </trkpt>
      <trkpt lat="46.92775" lon="4.90404">
        <ele>210.38</ele>
        <time>2019-08-30T13:27:46Z</time>
      </trkpt>
      <trkpt lat="46.92795" lon="4.90403">
        <ele>210.38</ele>
        <time>2019-08-30T13:27:50Z</time>
      </trkpt>
      <trkpt lat="46.92817" lon="4.904">
        <ele>210.38</ele>
        <time>2019-08-30T13:27:55Z</time>
      </trkpt>
      <trkpt lat="46.92836" lon="4.90398">
        <ele>211.36</ele>
        <time>2019-08-30T13:27:59Z</time>
      </trkpt>
      <trkpt lat="46.92858" lon="4.90393">
        <ele>210.4</ele>
        <time>2019-08-30T13:28:04Z</time>
      </trkpt>
      <trkpt lat="46.92873" lon="4.90378">
        <ele>210.68</ele>
        <time>2019-08-30T13:28:09Z</time>
      </trkpt>
      <trkpt lat="46.92872" lon="4.90345">
        <ele>209.68</ele>
        <time>2019-08-30T13:28:14Z</time>
      </trkpt>
      <trkpt lat="46.9287" lon="4.90319">
        <ele>210.36</ele>
        <time>2019-08-30T13:28:18Z</time>
      </trkpt>
      <trkpt lat="46.92869" lon="4.90289">
        <ele>208.48</ele>
        <time>2019-08-30T13:28:22Z</time>
      </trkpt>
      <trkpt lat="46.92868" lon="4.90256">
        <ele>208.38</ele>
        <time>2019-08-30T13:28:26Z</time>
      </trkpt>
      <trkpt lat="46.92867" lon="4.90223">
        <ele>208.38</ele>
        <time>2019-08-30T13:28:30Z</time>
      </trkpt>
      <trkpt lat="46.92867" lon="4.90191">
        <ele>209.08</ele>
        <time>2019-08-30T13:28:34Z</time>
      </trkpt>
      <trkpt lat="46.92869" lon="4.90159">
        <ele>209.38</ele>
        <time>2019-08-30T13:28:38Z</time>
      </trkpt>
      <trkpt lat="46.92867" lon="4.90128">
        <ele>210.08</ele>
        <time>2019-08-30T13:28:42Z</time>
      </trkpt>
      <trkpt lat="46.92871" lon="4.90094">
        <ele>209.47</ele>
        <time>2019-08-30T13:28:46Z</time>
      </trkpt>
      <trkpt lat="46.92872" lon="4.90063">
        <ele>210.36</ele>
        <time>2019-08-30T13:28:50Z</time>
      </trkpt>
      <trkpt lat="46.92874" lon="4.90034">
        <ele>210.11</ele>
        <time>2019-08-30T13:28:54Z</time>
      </trkpt>
      <trkpt lat="46.92876" lon="4.90004">
        <ele>210.38</ele>
        <time>2019-08-30T13:28:58Z</time>
      </trkpt>
      <trkpt lat="46.92878" lon="4.89977">
        <ele>210.38</ele>
        <time>2019-08-30T13:29:01Z</time>
      </trkpt>
      <trkpt lat="46.92879" lon="4.89943">
        <ele>210.38</ele>
        <time>2019-08-30T13:29:05Z</time>
      </trkpt>
      <trkpt lat="46.9288" lon="4.89916">
        <ele>210.38</ele>
        <time>2019-08-30T13:29:08Z</time>
      </trkpt>
      <trkpt lat="46.9288" lon="4.89883">
        <ele>210.38</ele>
        <time>2019-08-30T13:29:12Z</time>
      </trkpt>
      <trkpt lat="46.92878" lon="4.89849">
        <ele>210.38</ele>
        <time>2019-08-30T13:29:16Z</time>
      </trkpt>
      <trkpt lat="46.92877" lon="4.89817">
        <ele>210.38</ele>
        <time>2019-08-30T13:29:20Z</time>
      </trkpt>
      <trkpt lat="46.92876" lon="4.8979">
        <ele>210.45</ele>
        <time>2019-08-30T13:29:23Z</time>
      </trkpt>
      <trkpt lat="46.92878" lon="4.89759">
        <ele>211.08</ele>
        <time>2019-08-30T13:29:26Z</time>
      </trkpt>
      <trkpt lat="46.92882" lon="4.89727">
        <ele>211.38</ele>
        <time>2019-08-30T13:29:30Z</time>
      </trkpt>
      <trkpt lat="46.92883" lon="4.89694">
        <ele>211.38</ele>
        <time>2019-08-30T13:29:34Z</time>
      </trkpt>
      <trkpt lat="46.92888" lon="4.89663">
        <ele>212.36</ele>
        <time>2019-08-30T13:29:38Z</time>
      </trkpt>
      <trkpt lat="46.92889" lon="4.89631">
        <ele>212.38</ele>
        <time>2019-08-30T13:29:42Z</time>
      </trkpt>
      <trkpt lat="46.92891" lon="4.89599">
        <ele>213.29</ele>
        <time>2019-08-30T13:29:46Z</time>
      </trkpt>
      <trkpt lat="46.92896" lon="4.89566">
        <ele>213.36</ele>
        <time>2019-08-30T13:29:50Z</time>
      </trkpt>
      <trkpt lat="46.92902" lon="4.89536">
        <ele>213.38</ele>
        <time>2019-08-30T13:29:54Z</time>
      </trkpt>
      <trkpt lat="46.9291" lon="4.89506">
        <ele>213.38</ele>
        <time>2019-08-30T13:29:58Z</time>
      </trkpt>
      <trkpt lat="46.92915" lon="4.8948">
        <ele>214.08</ele>
        <time>2019-08-30T13:30:02Z</time>
      </trkpt>
      <trkpt lat="46.92918" lon="4.89452">
        <ele>214.38</ele>
        <time>2019-08-30T13:30:06Z</time>
      </trkpt>
      <trkpt lat="46.92921" lon="4.89421">
        <ele>212.71</ele>
        <time>2019-08-30T13:30:10Z</time>
      </trkpt>
      <trkpt lat="46.92925" lon="4.89389">
        <ele>211.2</ele>
        <time>2019-08-30T13:30:14Z</time>
      </trkpt>
      <trkpt lat="46.92922" lon="4.89356">
        <ele>212.29</ele>
        <time>2019-08-30T13:30:18Z</time>
      </trkpt>
      <trkpt lat="46.92923" lon="4.89329">
        <ele>211.47</ele>
        <time>2019-08-30T13:30:21Z</time>
      </trkpt>
      <trkpt lat="46.9292" lon="4.89301">
        <ele>211.32</ele>
        <time>2019-08-30T13:30:24Z</time>
      </trkpt>
      <trkpt lat="46.9292" lon="4.89272">
        <ele>210.41</ele>
        <time>2019-08-30T13:30:27Z</time>
      </trkpt>
      <trkpt lat="46.92917" lon="4.89239">
        <ele>210.38</ele>
        <time>2019-08-30T13:30:31Z</time>
      </trkpt>
      <trkpt lat="46.92908" lon="4.89211">
        <ele>210.38</ele>
        <time>2019-08-30T13:30:34Z</time>
      </trkpt>
      <trkpt lat="46.92896" lon="4.89182">
        <ele>209.41</ele>
        <time>2019-08-30T13:30:37Z</time>
      </trkpt>
      <trkpt lat="46.92885" lon="4.89155">
        <ele>210.08</ele>
        <time>2019-08-30T13:30:40Z</time>
      </trkpt>
      <trkpt lat="46.92872" lon="4.89129">
        <ele>210.1</ele>
        <time>2019-08-30T13:30:43Z</time>
      </trkpt>
      <trkpt lat="46.92862" lon="4.89105">
        <ele>210.31</ele>
        <time>2019-08-30T13:30:46Z</time>
      </trkpt>
      <trkpt lat="46.92851" lon="4.89075">
        <ele>209.68</ele>
        <time>2019-08-30T13:30:49Z</time>
      </trkpt>
      <trkpt lat="46.92838" lon="4.89044">
        <ele>209.39</ele>
        <time>2019-08-30T13:30:53Z</time>
      </trkpt>
      <trkpt lat="46.92823" lon="4.89022">
        <ele>208.41</ele>
        <time>2019-08-30T13:30:56Z</time>
      </trkpt>
      <trkpt lat="46.92808" lon="4.89004">
        <ele>208.38</ele>
        <time>2019-08-30T13:30:59Z</time>
      </trkpt>
      <trkpt lat="46.92797" lon="4.88983">
        <ele>209.36</ele>
        <time>2019-08-30T13:31:02Z</time>
      </trkpt>
      <trkpt lat="46.92783" lon="4.88958">
        <ele>209.38</ele>
        <time>2019-08-30T13:31:05Z</time>
      </trkpt>
      <trkpt lat="46.92774" lon="4.8893">
        <ele>209.38</ele>
        <time>2019-08-30T13:31:08Z</time>
      </trkpt>
      <trkpt lat="46.92768" lon="4.88904">
        <ele>209.32</ele>
        <time>2019-08-30T13:31:11Z</time>
      </trkpt>
      <trkpt lat="46.92755" lon="4.88871">
        <ele>209.44</ele>
        <time>2019-08-30T13:31:14Z</time>
      </trkpt>
      <trkpt lat="46.92748" lon="4.88843">
        <ele>209.38</ele>
        <time>2019-08-30T13:31:17Z</time>
      </trkpt>
      <trkpt lat="46.92745" lon="4.88812">
        <ele>209.38</ele>
        <time>2019-08-30T13:31:20Z</time>
      </trkpt>
      <trkpt lat="46.92741" lon="4.8878">
        <ele>209.59</ele>
        <time>2019-08-30T13:31:23Z</time>
      </trkpt>
      <trkpt lat="46.92739" lon="4.8875">
        <ele>207.93</ele>
        <time>2019-08-30T13:31:26Z</time>
      </trkpt>
      <trkpt lat="46.92737" lon="4.8872">
        <ele>207.97</ele>
        <time>2019-08-30T13:31:29Z</time>
      </trkpt>
      <trkpt lat="46.9274" lon="4.88687">
        <ele>207.62</ele>
        <time>2019-08-30T13:31:33Z</time>
      </trkpt>
      <trkpt lat="46.92741" lon="4.88656">
        <ele>205.72</ele>
        <time>2019-08-30T13:31:36Z</time>
      </trkpt>
      <trkpt lat="46.92746" lon="4.88629">
        <ele>207.4</ele>
        <time>2019-08-30T13:31:39Z</time>
      </trkpt>
      <trkpt lat="46.92752" lon="4.88601">
        <ele>208.63</ele>
        <time>2019-08-30T13:31:42Z</time>
      </trkpt>
      <trkpt lat="46.92761" lon="4.88574">
        <ele>209.1</ele>
        <time>2019-08-30T13:31:46Z</time>
      </trkpt>
      <trkpt lat="46.92782" lon="4.88566">
        <ele>209.38</ele>
        <time>2019-08-30T13:31:50Z</time>
      </trkpt>
      <trkpt lat="46.92798" lon="4.88553">
        <ele>210.08</ele>
        <time>2019-08-30T13:31:54Z</time>
      </trkpt>
      <trkpt lat="46.92819" lon="4.88543">
        <ele>211.31</ele>
        <time>2019-08-30T13:31:58Z</time>
      </trkpt>
      <trkpt lat="46.92841" lon="4.88533">
        <ele>210.47</ele>
        <time>2019-08-30T13:32:01Z</time>
      </trkpt>
      <trkpt lat="46.92862" lon="4.88523">
        <ele>211.02</ele>
        <time>2019-08-30T13:32:04Z</time>
      </trkpt>
      <trkpt lat="46.92882" lon="4.8851">
        <ele>212.98</ele>
        <time>2019-08-30T13:32:07Z</time>
      </trkpt>
      <trkpt lat="46.92901" lon="4.88496">
        <ele>215.19</ele>
        <time>2019-08-30T13:32:10Z</time>
      </trkpt>
      <trkpt lat="46.92922" lon="4.88476">
        <ele>213.69</ele>
        <time>2019-08-30T13:32:14Z</time>
      </trkpt>
      <trkpt lat="46.92943" lon="4.88468">
        <ele>214.09</ele>
        <time>2019-08-30T13:32:17Z</time>
      </trkpt>
      <trkpt lat="46.9296" lon="4.88463">
        <ele>214.38</ele>
        <time>2019-08-30T13:32:20Z</time>
      </trkpt>
      <trkpt lat="46.92982" lon="4.88467">
        <ele>214.74</ele>
        <time>2019-08-30T13:32:24Z</time>
      </trkpt>
      <trkpt lat="46.93003" lon="4.88473">
        <ele>212.39</ele>
        <time>2019-08-30T13:32:29Z</time>
      </trkpt>
      <trkpt lat="46.93024" lon="4.88475">
        <ele>212.17</ele>
        <time>2019-08-30T13:32:34Z</time>
      </trkpt>
      <trkpt lat="46.93042" lon="4.88469">
        <ele>210.38</ele>
        <time>2019-08-30T13:34:36Z</time>
      </trkpt>
      <trkpt lat="46.93061" lon="4.8846">
        <ele>208.46</ele>
        <time>2019-08-30T13:34:43Z</time>
      </trkpt>
      <trkpt lat="46.9308" lon="4.88445">
        <ele>208.38</ele>
        <time>2019-08-30T13:34:47Z</time>
      </trkpt>
      <trkpt lat="46.93098" lon="4.88438">
        <ele>210.06</ele>
        <time>2019-08-30T13:34:51Z</time>
      </trkpt>
      <trkpt lat="46.93117" lon="4.88437">
        <ele>212.2</ele>
        <time>2019-08-30T13:34:55Z</time>
      </trkpt>
      <trkpt lat="46.93139" lon="4.88436">
        <ele>215.98</ele>
        <time>2019-08-30T13:34:59Z</time>
      </trkpt>
      <trkpt lat="46.93158" lon="4.88432">
        <ele>215.83</ele>
        <time>2019-08-30T13:35:02Z</time>
      </trkpt>
      <trkpt lat="46.93178" lon="4.88429">
        <ele>217.34</ele>
        <time>2019-08-30T13:35:05Z</time>
      </trkpt>
      <trkpt lat="46.932" lon="4.88429">
        <ele>218.35</ele>
        <time>2019-08-30T13:35:08Z</time>
      </trkpt>
      <trkpt lat="46.9322" lon="4.88424">
        <ele>211.24</ele>
        <time>2019-08-30T13:35:10Z</time>
      </trkpt>
      <trkpt lat="46.93238" lon="4.88408">
        <ele>209.43</ele>
        <time>2019-08-30T13:35:13Z</time>
      </trkpt>
      <trkpt lat="46.93261" lon="4.88403">
        <ele>210.29</ele>
        <time>2019-08-30T13:35:17Z</time>
      </trkpt>
      <trkpt lat="46.9328" lon="4.88412">
        <ele>209.41</ele>
        <time>2019-08-30T13:35:20Z</time>
      </trkpt>
      <trkpt lat="46.93301" lon="4.88412">
        <ele>209.45</ele>
        <time>2019-08-30T13:35:23Z</time>
      </trkpt>
      <trkpt lat="46.93324" lon="4.88417">
        <ele>210.29</ele>
        <time>2019-08-30T13:35:26Z</time>
      </trkpt>
      <trkpt lat="46.93348" lon="4.88422">
        <ele>210.32</ele>
        <time>2019-08-30T13:35:29Z</time>
      </trkpt>
      <trkpt lat="46.93371" lon="4.88427">
        <ele>210.38</ele>
        <time>2019-08-30T13:35:32Z</time>
      </trkpt>
      <trkpt lat="46.93395" lon="4.88427">
        <ele>210.38</ele>
        <time>2019-08-30T13:35:35Z</time>
      </trkpt>
      <trkpt lat="46.93418" lon="4.88431">
        <ele>210.38</ele>
        <time>2019-08-30T13:35:38Z</time>
      </trkpt>
      <trkpt lat="46.93444" lon="4.88432">
        <ele>209.41</ele>
        <time>2019-08-30T13:35:41Z</time>
      </trkpt>
      <trkpt lat="46.93465" lon="4.88439">
        <ele>210.36</ele>
        <time>2019-08-30T13:35:44Z</time>
      </trkpt>
      <trkpt lat="46.93491" lon="4.88443">
        <ele>208.77</ele>
        <time>2019-08-30T13:35:47Z</time>
      </trkpt>
      <trkpt lat="46.93517" lon="4.88443">
        <ele>209.09</ele>
        <time>2019-08-30T13:35:50Z</time>
      </trkpt>
      <trkpt lat="46.93541" lon="4.88443">
        <ele>208.47</ele>
        <time>2019-08-30T13:35:53Z</time>
      </trkpt>
      <trkpt lat="46.93567" lon="4.88443">
        <ele>207.41</ele>
        <time>2019-08-30T13:35:56Z</time>
      </trkpt>
      <trkpt lat="46.9359" lon="4.88455">
        <ele>208.29</ele>
        <time>2019-08-30T13:35:59Z</time>
      </trkpt>
      <trkpt lat="46.93606" lon="4.88468">
        <ele>207.46</ele>
        <time>2019-08-30T13:36:01Z</time>
      </trkpt>
      <trkpt lat="46.93624" lon="4.88477">
        <ele>205.5</ele>
        <time>2019-08-30T13:36:04Z</time>
      </trkpt>
      <trkpt lat="46.93645" lon="4.88477">
        <ele>204.48</ele>
        <time>2019-08-30T13:36:07Z</time>
      </trkpt>
      <trkpt lat="46.93665" lon="4.88476">
        <ele>204.39</ele>
        <time>2019-08-30T13:36:10Z</time>
      </trkpt>
      <trkpt lat="46.93686" lon="4.88477">
        <ele>204.38</ele>
        <time>2019-08-30T13:36:13Z</time>
      </trkpt>
      <trkpt lat="46.93707" lon="4.88477">
        <ele>203.47</ele>
        <time>2019-08-30T13:36:16Z</time>
      </trkpt>
      <trkpt lat="46.93727" lon="4.88477">
        <ele>203.39</ele>
        <time>2019-08-30T13:36:19Z</time>
      </trkpt>
      <trkpt lat="46.93748" lon="4.88477">
        <ele>204.36</ele>
        <time>2019-08-30T13:36:22Z</time>
      </trkpt>
      <trkpt lat="46.9377" lon="4.88478">
        <ele>203.41</ele>
        <time>2019-08-30T13:36:25Z</time>
      </trkpt>
      <trkpt lat="46.9379" lon="4.88479">
        <ele>203.17</ele>
        <time>2019-08-30T13:36:28Z</time>
      </trkpt>
      <trkpt lat="46.93813" lon="4.88477">
        <ele>204.56</ele>
        <time>2019-08-30T13:36:31Z</time>
      </trkpt>
      <trkpt lat="46.93834" lon="4.88474">
        <ele>204.11</ele>
        <time>2019-08-30T13:36:34Z</time>
      </trkpt>
      <trkpt lat="46.93857" lon="4.8847">
        <ele>202.49</ele>
        <time>2019-08-30T13:36:37Z</time>
      </trkpt>
      <trkpt lat="46.93881" lon="4.88467">
        <ele>203.57</ele>
        <time>2019-08-30T13:36:40Z</time>
      </trkpt>
      <trkpt lat="46.93905" lon="4.88466">
        <ele>203.87</ele>
        <time>2019-08-30T13:36:43Z</time>
      </trkpt>
      <trkpt lat="46.93928" lon="4.88465">
        <ele>201.79</ele>
        <time>2019-08-30T13:36:46Z</time>
      </trkpt>
      <trkpt lat="46.9395" lon="4.88467">
        <ele>202.3</ele>
        <time>2019-08-30T13:36:49Z</time>
      </trkpt>
      <trkpt lat="46.93973" lon="4.88465">
        <ele>202.11</ele>
        <time>2019-08-30T13:36:52Z</time>
      </trkpt>
      <trkpt lat="46.93994" lon="4.88464">
        <ele>201.4</ele>
        <time>2019-08-30T13:36:55Z</time>
      </trkpt>
      <trkpt lat="46.94017" lon="4.88463">
        <ele>200.41</ele>
        <time>2019-08-30T13:36:58Z</time>
      </trkpt>
      <trkpt lat="46.94042" lon="4.88461">
        <ele>201.02</ele>
        <time>2019-08-30T13:37:01Z</time>
      </trkpt>
      <trkpt lat="46.94067" lon="4.88462">
        <ele>200.46</ele>
        <time>2019-08-30T13:37:04Z</time>
      </trkpt>
      <trkpt lat="46.94091" lon="4.88463">
        <ele>199.62</ele>
        <time>2019-08-30T13:37:07Z</time>
      </trkpt>
      <trkpt lat="46.94115" lon="4.88465">
        <ele>199.39</ele>
        <time>2019-08-30T13:37:10Z</time>
      </trkpt>
      <trkpt lat="46.94139" lon="4.88465">
        <ele>199.38</ele>
        <time>2019-08-30T13:37:13Z</time>
      </trkpt>
      <trkpt lat="46.94161" lon="4.88468">
        <ele>199.11</ele>
        <time>2019-08-30T13:37:16Z</time>
      </trkpt>
      <trkpt lat="46.94183" lon="4.88468">
        <ele>198.47</ele>
        <time>2019-08-30T13:37:19Z</time>
      </trkpt>
      <trkpt lat="46.94204" lon="4.88469">
        <ele>198.18</ele>
        <time>2019-08-30T13:37:22Z</time>
      </trkpt>
      <trkpt lat="46.94223" lon="4.88453">
        <ele>198.38</ele>
        <time>2019-08-30T13:37:25Z</time>
      </trkpt>
      <trkpt lat="46.94241" lon="4.88441">
        <ele>198.38</ele>
        <time>2019-08-30T13:37:28Z</time>
      </trkpt>
      <trkpt lat="46.94264" lon="4.88442">
        <ele>198.66</ele>
        <time>2019-08-30T13:37:31Z</time>
      </trkpt>
      <trkpt lat="46.94286" lon="4.88442">
        <ele>199.09</ele>
        <time>2019-08-30T13:37:34Z</time>
      </trkpt>
      <trkpt lat="46.94308" lon="4.88445">
        <ele>198.4</ele>
        <time>2019-08-30T13:37:37Z</time>
      </trkpt>
      <trkpt lat="46.94329" lon="4.88447">
        <ele>198.38</ele>
        <time>2019-08-30T13:37:40Z</time>
      </trkpt>
      <trkpt lat="46.94351" lon="4.88445">
        <ele>198.66</ele>
        <time>2019-08-30T13:37:43Z</time>
      </trkpt>
      <trkpt lat="46.94374" lon="4.8845">
        <ele>199.03</ele>
        <time>2019-08-30T13:37:46Z</time>
      </trkpt>
      <trkpt lat="46.94396" lon="4.88453">
        <ele>191.08</ele>
        <time>2019-08-30T13:37:49Z</time>
      </trkpt>
      <trkpt lat="46.94417" lon="4.88453">
        <ele>188.46</ele>
        <time>2019-08-30T13:37:52Z</time>
      </trkpt>
      <trkpt lat="46.94439" lon="4.88454">
        <ele>188.38</ele>
        <time>2019-08-30T13:37:55Z</time>
      </trkpt>
      <trkpt lat="46.9446" lon="4.88456">
        <ele>188.38</ele>
        <time>2019-08-30T13:37:58Z</time>
      </trkpt>
      <trkpt lat="46.94481" lon="4.88457">
        <ele>188.38</ele>
        <time>2019-08-30T13:38:01Z</time>
      </trkpt>
      <trkpt lat="46.94502" lon="4.88458">
        <ele>186.71</ele>
        <time>2019-08-30T13:38:04Z</time>
      </trkpt>
      <trkpt lat="46.94523" lon="4.88457">
        <ele>185.69</ele>
        <time>2019-08-30T13:38:07Z</time>
      </trkpt>
      <trkpt lat="46.94544" lon="4.88459">
        <ele>187.06</ele>
        <time>2019-08-30T13:38:10Z</time>
      </trkpt>
      <trkpt lat="46.94564" lon="4.88461">
        <ele>188.07</ele>
        <time>2019-08-30T13:38:13Z</time>
      </trkpt>
      <trkpt lat="46.94584" lon="4.88462">
        <ele>187.67</ele>
        <time>2019-08-30T13:38:16Z</time>
      </trkpt>
      <trkpt lat="46.94603" lon="4.88462">
        <ele>186.48</ele>
        <time>2019-08-30T13:38:19Z</time>
      </trkpt>
      <trkpt lat="46.94622" lon="4.88464">
        <ele>186.32</ele>
        <time>2019-08-30T13:38:22Z</time>
      </trkpt>
      <trkpt lat="46.94641" lon="4.88466">
        <ele>185.68</ele>
        <time>2019-08-30T13:38:25Z</time>
      </trkpt>
      <trkpt lat="46.9466" lon="4.88468">
        <ele>187.21</ele>
        <time>2019-08-30T13:38:28Z</time>
      </trkpt>
      <trkpt lat="46.94679" lon="4.88466">
        <ele>187.38</ele>
        <time>2019-08-30T13:38:31Z</time>
      </trkpt>
      <trkpt lat="46.94699" lon="4.88468">
        <ele>186.68</ele>
        <time>2019-08-30T13:38:34Z</time>
      </trkpt>
      <trkpt lat="46.94721" lon="4.8847">
        <ele>186.33</ele>
        <time>2019-08-30T13:38:37Z</time>
      </trkpt>
      <trkpt lat="46.94743" lon="4.88472">
        <ele>186.38</ele>
        <time>2019-08-30T13:38:40Z</time>
      </trkpt>
      <trkpt lat="46.94764" lon="4.88473">
        <ele>185.41</ele>
        <time>2019-08-30T13:38:43Z</time>
      </trkpt>
      <trkpt lat="46.94782" lon="4.88477">
        <ele>183.77</ele>
        <time>2019-08-30T13:38:46Z</time>
      </trkpt>
      <trkpt lat="46.94804" lon="4.88479">
        <ele>185.06</ele>
        <time>2019-08-30T13:38:50Z</time>
      </trkpt>
      <trkpt lat="46.94822" lon="4.88483">
        <ele>186.35</ele>
        <time>2019-08-30T13:38:54Z</time>
      </trkpt>
      <trkpt lat="46.94844" lon="4.88482">
        <ele>184.56</ele>
        <time>2019-08-30T13:38:58Z</time>
      </trkpt>
      <trkpt lat="46.94868" lon="4.88485">
        <ele>184.09</ele>
        <time>2019-08-30T13:39:02Z</time>
      </trkpt>
      <trkpt lat="46.94891" lon="4.88486">
        <ele>186.98</ele>
        <time>2019-08-30T13:39:06Z</time>
      </trkpt>
      <trkpt lat="46.94908" lon="4.8849">
        <ele>186.88</ele>
        <time>2019-08-30T13:39:09Z</time>
      </trkpt>
      <trkpt lat="46.94933" lon="4.8849">
        <ele>186.32</ele>
        <time>2019-08-30T13:39:13Z</time>
      </trkpt>
      <trkpt lat="46.94953" lon="4.88489">
        <ele>185.26</ele>
        <time>2019-08-30T13:39:16Z</time>
      </trkpt>
      <trkpt lat="46.94971" lon="4.88488">
        <ele>186.29</ele>
        <time>2019-08-30T13:39:19Z</time>
      </trkpt>
      <trkpt lat="46.9499" lon="4.8849">
        <ele>187.29</ele>
        <time>2019-08-30T13:39:22Z</time>
      </trkpt>
      <trkpt lat="46.95011" lon="4.88483">
        <ele>186.9</ele>
        <time>2019-08-30T13:39:26Z</time>
      </trkpt>
      <trkpt lat="46.95033" lon="4.88492">
        <ele>186.61</ele>
        <time>2019-08-30T13:39:29Z</time>
      </trkpt>
      <trkpt lat="46.95057" lon="4.88493">
        <ele>186.66</ele>
        <time>2019-08-30T13:39:32Z</time>
      </trkpt>
      <trkpt lat="46.95076" lon="4.88492">
        <ele>188.06</ele>
        <time>2019-08-30T13:39:35Z</time>
      </trkpt>
      <trkpt lat="46.95095" lon="4.88493">
        <ele>187.4</ele>
        <time>2019-08-30T13:39:38Z</time>
      </trkpt>
      <trkpt lat="46.95115" lon="4.885">
        <ele>186.39</ele>
        <time>2019-08-30T13:39:42Z</time>
      </trkpt>
      <trkpt lat="46.95135" lon="4.88496">
        <ele>187.58</ele>
        <time>2019-08-30T13:39:47Z</time>
      </trkpt>
      <trkpt lat="46.95154" lon="4.88496">
        <ele>185.21</ele>
        <time>2019-08-30T13:39:52Z</time>
      </trkpt>
      <trkpt lat="46.95172" lon="4.88499">
        <ele>186.29</ele>
        <time>2019-08-30T13:39:55Z</time>
      </trkpt>
      <trkpt lat="46.95191" lon="4.88499">
        <ele>186.38</ele>
        <time>2019-08-30T13:39:58Z</time>
      </trkpt>
      <trkpt lat="46.95214" lon="4.88498">
        <ele>185.12</ele>
        <time>2019-08-30T13:40:02Z</time>
      </trkpt>
      <trkpt lat="46.95236" lon="4.88502">
        <ele>184.68</ele>
        <time>2019-08-30T13:40:05Z</time>
      </trkpt>
      <trkpt lat="46.95256" lon="4.88505">
        <ele>184.39</ele>
        <time>2019-08-30T13:40:08Z</time>
      </trkpt>
      <trkpt lat="46.95275" lon="4.88504">
        <ele>184.59</ele>
        <time>2019-08-30T13:40:11Z</time>
      </trkpt>
      <trkpt lat="46.95295" lon="4.88506">
        <ele>183.42</ele>
        <time>2019-08-30T13:40:14Z</time>
      </trkpt>
      <trkpt lat="46.95314" lon="4.88506">
        <ele>183.38</ele>
        <time>2019-08-30T13:40:17Z</time>
      </trkpt>
      <trkpt lat="46.95333" lon="4.88507">
        <ele>184.29</ele>
        <time>2019-08-30T13:40:20Z</time>
      </trkpt>
      <trkpt lat="46.95351" lon="4.88507">
        <ele>185.35</ele>
        <time>2019-08-30T13:40:23Z</time>
      </trkpt>
      <trkpt lat="46.95375" lon="4.88509">
        <ele>186.36</ele>
        <time>2019-08-30T13:40:27Z</time>
      </trkpt>
      <trkpt lat="46.95395" lon="4.88512">
        <ele>186.67</ele>
        <time>2019-08-30T13:40:31Z</time>
      </trkpt>
      <trkpt lat="46.95417" lon="4.88511">
        <ele>187.3</ele>
        <time>2019-08-30T13:40:35Z</time>
      </trkpt>
      <trkpt lat="46.95436" lon="4.88511">
        <ele>188.37</ele>
        <time>2019-08-30T13:40:39Z</time>
      </trkpt>
      <trkpt lat="46.95456" lon="4.88514">
        <ele>191.26</ele>
        <time>2019-08-30T13:40:44Z</time>
      </trkpt>
      <trkpt lat="46.95477" lon="4.88516">
        <ele>192.38</ele>
        <time>2019-08-30T13:40:50Z</time>
      </trkpt>
      <trkpt lat="46.95498" lon="4.88517">
        <ele>195.35</ele>
        <time>2019-08-30T13:40:56Z</time>
      </trkpt>
      <trkpt lat="46.95517" lon="4.88517">
        <ele>197.01</ele>
        <time>2019-08-30T13:41:02Z</time>
      </trkpt>
      <trkpt lat="46.95536" lon="4.8852">
        <ele>193.81</ele>
        <time>2019-08-30T13:41:08Z</time>
      </trkpt>
      <trkpt lat="46.95557" lon="4.88522">
        <ele>193.3</ele>
        <time>2019-08-30T13:41:15Z</time>
      </trkpt>
      <trkpt lat="46.95575" lon="4.88525">
        <ele>194.08</ele>
        <time>2019-08-30T13:41:21Z</time>
      </trkpt>
      <trkpt lat="46.95594" lon="4.88524">
        <ele>194.38</ele>
        <time>2019-08-30T13:41:27Z</time>
      </trkpt>
      <trkpt lat="46.95613" lon="4.88524">
        <ele>193.39</ele>
        <time>2019-08-30T13:41:33Z</time>
      </trkpt>
      <trkpt lat="46.95633" lon="4.88525">
        <ele>193.59</ele>
        <time>2019-08-30T13:41:39Z</time>
      </trkpt>
      <trkpt lat="46.95655" lon="4.88527">
        <ele>199.55</ele>
        <time>2019-08-30T13:41:45Z</time>
      </trkpt>
      <trkpt lat="46.95673" lon="4.88527">
        <ele>200.36</ele>
        <time>2019-08-30T13:41:50Z</time>
      </trkpt>
      <trkpt lat="46.95691" lon="4.88528">
        <ele>200.33</ele>
        <time>2019-08-30T13:41:55Z</time>
      </trkpt>
      <trkpt lat="46.95711" lon="4.88529">
        <ele>199.39</ele>
        <time>2019-08-30T13:42:00Z</time>
      </trkpt>
      <trkpt lat="46.95732" lon="4.88532">
        <ele>199.66</ele>
        <time>2019-08-30T13:42:04Z</time>
      </trkpt>
      <trkpt lat="46.95751" lon="4.88532">
        <ele>199.68</ele>
        <time>2019-08-30T13:42:08Z</time>
      </trkpt>
      <trkpt lat="46.95769" lon="4.88537">
        <ele>198.77</ele>
        <time>2019-08-30T13:42:13Z</time>
      </trkpt>
      <trkpt lat="46.95769" lon="4.88569">
        <ele>200.29</ele>
        <time>2019-08-30T13:42:18Z</time>
      </trkpt>
      <trkpt lat="46.95767" lon="4.886">
        <ele>201.31</ele>
        <time>2019-08-30T13:42:22Z</time>
      </trkpt>
      <trkpt lat="46.95764" lon="4.8863">
        <ele>197.45</ele>
        <time>2019-08-30T13:42:26Z</time>
      </trkpt>
      <trkpt lat="46.95761" lon="4.8866">
        <ele>199.56</ele>
        <time>2019-08-30T13:42:30Z</time>
      </trkpt>
      <trkpt lat="46.95759" lon="4.8869">
        <ele>198.41</ele>
        <time>2019-08-30T13:42:34Z</time>
      </trkpt>
      <trkpt lat="46.95756" lon="4.88721">
        <ele>198.4</ele>
        <time>2019-08-30T13:42:38Z</time>
      </trkpt>
      <trkpt lat="46.95754" lon="4.8875">
        <ele>198.37</ele>
        <time>2019-08-30T13:42:43Z</time>
      </trkpt>
      <trkpt lat="46.95773" lon="4.88751">
        <ele>199.27</ele>
        <time>2019-08-30T13:42:52Z</time>
      </trkpt>
      <trkpt lat="46.95792" lon="4.88744">
        <ele>198.88</ele>
        <time>2019-08-30T13:42:59Z</time>
      </trkpt>
      <trkpt lat="46.95812" lon="4.88743">
        <ele>197.46</ele>
        <time>2019-08-30T13:43:06Z</time>
      </trkpt>
      <trkpt lat="46.95835" lon="4.88737">
        <ele>199.07</ele>
        <time>2019-08-30T13:43:12Z</time>
      </trkpt>
      <trkpt lat="46.95856" lon="4.88732">
        <ele>196.58</ele>
        <time>2019-08-30T13:43:15Z</time>
      </trkpt>
      <trkpt lat="46.95877" lon="4.88727">
        <ele>196.87</ele>
        <time>2019-08-30T13:43:19Z</time>
      </trkpt>
      <trkpt lat="46.95898" lon="4.88723">
        <ele>199.14</ele>
        <time>2019-08-30T13:43:23Z</time>
      </trkpt>
      <trkpt lat="46.95917" lon="4.88718">
        <ele>198.83</ele>
        <time>2019-08-30T13:43:26Z</time>
      </trkpt>
      <trkpt lat="46.95937" lon="4.88715">
        <ele>199.43</ele>
        <time>2019-08-30T13:43:29Z</time>
      </trkpt>
      <trkpt lat="46.95956" lon="4.88707">
        <ele>201.76</ele>
        <time>2019-08-30T13:43:33Z</time>
      </trkpt>
      <trkpt lat="46.95974" lon="4.887">
        <ele>203.4</ele>
        <time>2019-08-30T13:43:36Z</time>
      </trkpt>
      <trkpt lat="46.95996" lon="4.88692">
        <ele>203.93</ele>
        <time>2019-08-30T13:43:40Z</time>
      </trkpt>
      <trkpt lat="46.96014" lon="4.88692">
        <ele>200.73</ele>
        <time>2019-08-30T13:43:43Z</time>
      </trkpt>
      <trkpt lat="46.96033" lon="4.88689">
        <ele>198.89</ele>
        <time>2019-08-30T13:43:47Z</time>
      </trkpt>
      <trkpt lat="46.96055" lon="4.88679">
        <ele>198.19</ele>
        <time>2019-08-30T13:43:50Z</time>
      </trkpt>
      <trkpt lat="46.96078" lon="4.88676">
        <ele>198.86</ele>
        <time>2019-08-30T13:43:53Z</time>
      </trkpt>
      <trkpt lat="46.96099" lon="4.88672">
        <ele>195.48</ele>
        <time>2019-08-30T13:43:56Z</time>
      </trkpt>
      <trkpt lat="46.96121" lon="4.88667">
        <ele>197.12</ele>
        <time>2019-08-30T13:43:59Z</time>
      </trkpt>
      <trkpt lat="46.9614" lon="4.88663">
        <ele>197.95</ele>
        <time>2019-08-30T13:44:02Z</time>
      </trkpt>
      <trkpt lat="46.96162" lon="4.88657">
        <ele>198.34</ele>
        <time>2019-08-30T13:44:04Z</time>
      </trkpt>
      <trkpt lat="46.96182" lon="4.88652">
        <ele>200.06</ele>
        <time>2019-08-30T13:44:08Z</time>
      </trkpt>
      <trkpt lat="46.962" lon="4.88645">
        <ele>202.68</ele>
        <time>2019-08-30T13:44:11Z</time>
      </trkpt>
      <trkpt lat="46.96221" lon="4.88642">
        <ele>203.34</ele>
        <time>2019-08-30T13:44:17Z</time>
      </trkpt>
      <trkpt lat="46.96241" lon="4.88641">
        <ele>204.99</ele>
        <time>2019-08-30T13:44:21Z</time>
      </trkpt>
      <trkpt lat="46.96261" lon="4.88633">
        <ele>205.37</ele>
        <time>2019-08-30T13:44:24Z</time>
      </trkpt>
      <trkpt lat="46.96285" lon="4.88627">
        <ele>206.29</ele>
        <time>2019-08-30T13:44:27Z</time>
      </trkpt>
      <trkpt lat="46.96308" lon="4.8862">
        <ele>207.02</ele>
        <time>2019-08-30T13:44:30Z</time>
      </trkpt>
      <trkpt lat="46.96329" lon="4.88614">
        <ele>205.43</ele>
        <time>2019-08-30T13:44:33Z</time>
      </trkpt>
      <trkpt lat="46.96352" lon="4.88609">
        <ele>201.62</ele>
        <time>2019-08-30T13:44:36Z</time>
      </trkpt>
      <trkpt lat="46.96372" lon="4.88603">
        <ele>200.48</ele>
        <time>2019-08-30T13:44:39Z</time>
      </trkpt>
      <trkpt lat="46.96393" lon="4.88596">
        <ele>199.69</ele>
        <time>2019-08-30T13:44:42Z</time>
      </trkpt>
      <trkpt lat="46.96414" lon="4.8859">
        <ele>199.39</ele>
        <time>2019-08-30T13:44:45Z</time>
      </trkpt>
      <trkpt lat="46.96436" lon="4.88585">
        <ele>198.47</ele>
        <time>2019-08-30T13:44:48Z</time>
      </trkpt>
      <trkpt lat="46.96455" lon="4.88581">
        <ele>198.39</ele>
        <time>2019-08-30T13:44:51Z</time>
      </trkpt>
      <trkpt lat="46.96475" lon="4.88576">
        <ele>197.68</ele>
        <time>2019-08-30T13:44:54Z</time>
      </trkpt>
      <trkpt lat="46.96498" lon="4.8857">
        <ele>197.45</ele>
        <time>2019-08-30T13:44:57Z</time>
      </trkpt>
      <trkpt lat="46.96519" lon="4.88564">
        <ele>198.36</ele>
        <time>2019-08-30T13:45:00Z</time>
      </trkpt>
      <trkpt lat="46.9654" lon="4.88559">
        <ele>198.66</ele>
        <time>2019-08-30T13:45:03Z</time>
      </trkpt>
      <trkpt lat="46.96562" lon="4.88555">
        <ele>197.48</ele>
        <time>2019-08-30T13:45:06Z</time>
      </trkpt>
      <trkpt lat="46.96584" lon="4.8855">
        <ele>197.39</ele>
        <time>2019-08-30T13:45:09Z</time>
      </trkpt>
      <trkpt lat="46.96605" lon="4.88548">
        <ele>197.59</ele>
        <time>2019-08-30T13:45:11Z</time>
      </trkpt>
      <trkpt lat="46.9663" lon="4.8854">
        <ele>198.15</ele>
        <time>2019-08-30T13:45:14Z</time>
      </trkpt>
      <trkpt lat="46.96651" lon="4.88537">
        <ele>196.56</ele>
        <time>2019-08-30T13:45:17Z</time>
      </trkpt>
      <trkpt lat="46.96672" lon="4.88531">
        <ele>196.39</ele>
        <time>2019-08-30T13:45:20Z</time>
      </trkpt>
      <trkpt lat="46.96694" lon="4.88522">
        <ele>195.41</ele>
        <time>2019-08-30T13:45:23Z</time>
      </trkpt>
      <trkpt lat="46.96715" lon="4.88517">
        <ele>194.56</ele>
        <time>2019-08-30T13:45:26Z</time>
      </trkpt>
      <trkpt lat="46.96736" lon="4.88511">
        <ele>193.41</ele>
        <time>2019-08-30T13:45:29Z</time>
      </trkpt>
      <trkpt lat="46.9676" lon="4.88503">
        <ele>196.3</ele>
        <time>2019-08-30T13:45:32Z</time>
      </trkpt>
      <trkpt lat="46.96783" lon="4.88498">
        <ele>195.19</ele>
        <time>2019-08-30T13:45:35Z</time>
      </trkpt>
      <trkpt lat="46.96808" lon="4.88493">
        <ele>193.7</ele>
        <time>2019-08-30T13:45:38Z</time>
      </trkpt>
      <trkpt lat="46.9683" lon="4.88489">
        <ele>193.39</ele>
        <time>2019-08-30T13:45:41Z</time>
      </trkpt>
      <trkpt lat="46.96852" lon="4.88482">
        <ele>191.5</ele>
        <time>2019-08-30T13:45:44Z</time>
      </trkpt>
      <trkpt lat="46.96876" lon="4.88475">
        <ele>191.11</ele>
        <time>2019-08-30T13:45:47Z</time>
      </trkpt>
      <trkpt lat="46.96896" lon="4.88471">
        <ele>191.31</ele>
        <time>2019-08-30T13:45:50Z</time>
      </trkpt>
      <trkpt lat="46.96917" lon="4.88465">
        <ele>192.35</ele>
        <time>2019-08-30T13:45:53Z</time>
      </trkpt>
      <trkpt lat="46.96936" lon="4.88462">
        <ele>193.08</ele>
        <time>2019-08-30T13:45:56Z</time>
      </trkpt>
      <trkpt lat="46.96954" lon="4.88459">
        <ele>195.05</ele>
        <time>2019-08-30T13:45:59Z</time>
      </trkpt>
      <trkpt lat="46.96974" lon="4.88451">
        <ele>191.72</ele>
        <time>2019-08-30T13:46:04Z</time>
      </trkpt>
      <trkpt lat="46.96997" lon="4.88444">
        <ele>191.39</ele>
        <time>2019-08-30T13:46:08Z</time>
      </trkpt>
      <trkpt lat="46.97019" lon="4.88441">
        <ele>192.31</ele>
        <time>2019-08-30T13:46:12Z</time>
      </trkpt>
      <trkpt lat="46.97042" lon="4.88436">
        <ele>192.28</ele>
        <time>2019-08-30T13:46:16Z</time>
      </trkpt>
      <trkpt lat="46.97063" lon="4.88431">
        <ele>191.2</ele>
        <time>2019-08-30T13:46:19Z</time>
      </trkpt>
      <trkpt lat="46.97082" lon="4.88426">
        <ele>191.17</ele>
        <time>2019-08-30T13:46:22Z</time>
      </trkpt>
      <trkpt lat="46.97101" lon="4.8842">
        <ele>191.65</ele>
        <time>2019-08-30T13:46:25Z</time>
      </trkpt>
      <trkpt lat="46.9712" lon="4.88415">
        <ele>192.36</ele>
        <time>2019-08-30T13:46:28Z</time>
      </trkpt>
      <trkpt lat="46.9714" lon="4.88408">
        <ele>191.47</ele>
        <time>2019-08-30T13:46:31Z</time>
      </trkpt>
      <trkpt lat="46.9716" lon="4.88403">
        <ele>191.39</ele>
        <time>2019-08-30T13:46:34Z</time>
      </trkpt>
      <trkpt lat="46.9718" lon="4.88398">
        <ele>189.98</ele>
        <time>2019-08-30T13:46:37Z</time>
      </trkpt>
      <trkpt lat="46.97204" lon="4.88393">
        <ele>190.38</ele>
        <time>2019-08-30T13:46:41Z</time>
      </trkpt>
      <trkpt lat="46.97226" lon="4.88387">
        <ele>191.15</ele>
        <time>2019-08-30T13:46:45Z</time>
      </trkpt>
      <trkpt lat="46.97247" lon="4.88384">
        <ele>189.98</ele>
        <time>2019-08-30T13:46:49Z</time>
      </trkpt>
      <trkpt lat="46.97269" lon="4.884">
        <ele>190.46</ele>
        <time>2019-08-30T13:46:53Z</time>
      </trkpt>
      <trkpt lat="46.9729" lon="4.88412">
        <ele>190.03</ele>
        <time>2019-08-30T13:46:57Z</time>
      </trkpt>
      <trkpt lat="46.97311" lon="4.88426">
        <ele>190.44</ele>
        <time>2019-08-30T13:47:01Z</time>
      </trkpt>
      <trkpt lat="46.97331" lon="4.88437">
        <ele>192.08</ele>
        <time>2019-08-30T13:47:05Z</time>
      </trkpt>
      <trkpt lat="46.97354" lon="4.88446">
        <ele>191.45</ele>
        <time>2019-08-30T13:47:09Z</time>
      </trkpt>
      <trkpt lat="46.97375" lon="4.88457">
        <ele>188.78</ele>
        <time>2019-08-30T13:47:13Z</time>
      </trkpt>
      <trkpt lat="46.97395" lon="4.88466">
        <ele>189.38</ele>
        <time>2019-08-30T13:47:17Z</time>
      </trkpt>
      <trkpt lat="46.97417" lon="4.8847">
        <ele>188.49</ele>
        <time>2019-08-30T13:47:21Z</time>
      </trkpt>
      <trkpt lat="46.97438" lon="4.88477">
        <ele>189.38</ele>
        <time>2019-08-30T13:47:25Z</time>
      </trkpt>
      <trkpt lat="46.9746" lon="4.88487">
        <ele>189.11</ele>
        <time>2019-08-30T13:47:29Z</time>
      </trkpt>
      <trkpt lat="46.97478" lon="4.88503">
        <ele>189.34</ele>
        <time>2019-08-30T13:47:33Z</time>
      </trkpt>
      <trkpt lat="46.97498" lon="4.88514">
        <ele>188.33</ele>
        <time>2019-08-30T13:47:37Z</time>
      </trkpt>
      <trkpt lat="46.97517" lon="4.88511">
        <ele>189.29</ele>
        <time>2019-08-30T13:47:40Z</time>
      </trkpt>
      <trkpt lat="46.97539" lon="4.88505">
        <ele>190.29</ele>
        <time>2019-08-30T13:47:44Z</time>
      </trkpt>
      <trkpt lat="46.97557" lon="4.88501">
        <ele>191.36</ele>
        <time>2019-08-30T13:47:48Z</time>
      </trkpt>
      <trkpt lat="46.97576" lon="4.88505">
        <ele>191.38</ele>
        <time>2019-08-30T13:47:52Z</time>
      </trkpt>
      <trkpt lat="46.97598" lon="4.88504">
        <ele>192.36</ele>
        <time>2019-08-30T13:47:56Z</time>
      </trkpt>
      <trkpt lat="46.97621" lon="4.885">
        <ele>192.67</ele>
        <time>2019-08-30T13:48:00Z</time>
      </trkpt>
      <trkpt lat="46.97637" lon="4.88488">
        <ele>193.09</ele>
        <time>2019-08-30T13:48:03Z</time>
      </trkpt>
      <trkpt lat="46.97652" lon="4.88472">
        <ele>193.38</ele>
        <time>2019-08-30T13:48:06Z</time>
      </trkpt>
      <trkpt lat="46.97668" lon="4.88457">
        <ele>194.16</ele>
        <time>2019-08-30T13:48:10Z</time>
      </trkpt>
      <trkpt lat="46.97687" lon="4.88442">
        <ele>192.5</ele>
        <time>2019-08-30T13:48:14Z</time>
      </trkpt>
      <trkpt lat="46.97707" lon="4.88429">
        <ele>191.41</ele>
        <time>2019-08-30T13:48:18Z</time>
      </trkpt>
      <trkpt lat="46.97729" lon="4.88423">
        <ele>191.38</ele>
        <time>2019-08-30T13:48:22Z</time>
      </trkpt>
      <trkpt lat="46.97749" lon="4.88427">
        <ele>191.4</ele>
        <time>2019-08-30T13:48:26Z</time>
      </trkpt>
      <trkpt lat="46.97769" lon="4.88431">
        <ele>190.47</ele>
        <time>2019-08-30T13:48:30Z</time>
      </trkpt>
      <trkpt lat="46.97785" lon="4.88453">
        <ele>189.39</ele>
        <time>2019-08-30T13:48:34Z</time>
      </trkpt>
      <trkpt lat="46.97797" lon="4.88476">
        <ele>189.38</ele>
        <time>2019-08-30T13:48:38Z</time>
      </trkpt>
      <trkpt lat="46.9781" lon="4.88503">
        <ele>189.09</ele>
        <time>2019-08-30T13:48:42Z</time>
      </trkpt>
      <trkpt lat="46.97824" lon="4.88529">
        <ele>191.28</ele>
        <time>2019-08-30T13:48:47Z</time>
      </trkpt>
      <trkpt lat="46.97836" lon="4.88552">
        <ele>192.29</ele>
        <time>2019-08-30T13:48:51Z</time>
      </trkpt>
      <trkpt lat="46.9785" lon="4.88577">
        <ele>192.17</ele>
        <time>2019-08-30T13:48:56Z</time>
      </trkpt>
      <trkpt lat="46.97865" lon="4.88598">
        <ele>192.38</ele>
        <time>2019-08-30T13:49:01Z</time>
      </trkpt>
      <trkpt lat="46.97876" lon="4.88621">
        <ele>192.38</ele>
        <time>2019-08-30T13:49:06Z</time>
      </trkpt>
      <trkpt lat="46.97888" lon="4.88642">
        <ele>192.38</ele>
        <time>2019-08-30T13:49:11Z</time>
      </trkpt>
      <trkpt lat="46.979" lon="4.88667">
        <ele>192.4</ele>
        <time>2019-08-30T13:49:17Z</time>
      </trkpt>
      <trkpt lat="46.97912" lon="4.8869">
        <ele>194.29</ele>
        <time>2019-08-30T13:49:23Z</time>
      </trkpt>
      <trkpt lat="46.97926" lon="4.88707">
        <ele>197.37</ele>
        <time>2019-08-30T13:49:46Z</time>
      </trkpt>
      <trkpt lat="46.97939" lon="4.88727">
        <ele>198.38</ele>
        <time>2019-08-30T13:49:51Z</time>
      </trkpt>
      <trkpt lat="46.97952" lon="4.88747">
        <ele>198.38</ele>
        <time>2019-08-30T13:49:56Z</time>
      </trkpt>
      <trkpt lat="46.97965" lon="4.88771">
        <ele>197.68</ele>
        <time>2019-08-30T13:50:02Z</time>
      </trkpt>
      <trkpt lat="46.97979" lon="4.88794">
        <ele>197.59</ele>
        <time>2019-08-30T13:50:08Z</time>
      </trkpt>
      <trkpt lat="46.97995" lon="4.88814">
        <ele>197.38</ele>
        <time>2019-08-30T13:50:14Z</time>
      </trkpt>
      <trkpt lat="46.98012" lon="4.88833">
        <ele>199.08</ele>
        <time>2019-08-30T13:50:20Z</time>
      </trkpt>
      <trkpt lat="46.98026" lon="4.88852">
        <ele>198.39</ele>
        <time>2019-08-30T13:50:26Z</time>
      </trkpt>
      <trkpt lat="46.98045" lon="4.88843">
        <ele>199.36</ele>
        <time>2019-08-30T13:50:35Z</time>
      </trkpt>
      <trkpt lat="46.98062" lon="4.88857">
        <ele>198.41</ele>
        <time>2019-08-30T13:50:43Z</time>
      </trkpt>
    </trkseg>
  </trk>
</gpx>